Provisional Data: Lackawanna River near Forest City, PA


Please select a monitoring station.
Please select start date.
Please select start date.

Toggle Unit: C/F Toggle Unit: C/F
Sample Time Temperature (C) Temperature (F) Specific Conductivity (mS/cm) pH   Turbidity (NTU+) DO (mg/L)
5/4/2021 12:00:00 AM 12.45 54.41 0.071 7.04 7.77 9.56
5/4/2021 12:15:00 AM 12.44 54.392 0.072 7.02 8.24 9.52
5/4/2021 12:30:00 AM 12.43 54.374 0.072 7.03 8.44 9.49
5/4/2021 12:45:00 AM 12.42 54.356 0.072 7.02 8.34 9.48
5/4/2021 1:00:00 AM 12.4 54.32 0.072 7.03 8.4 9.46
5/4/2021 1:15:00 AM 12.4 54.32 0.072 7.02 8.18 9.45
5/4/2021 1:30:00 AM 12.38 54.284 0.072 7.01 8.37 9.44
5/4/2021 1:45:00 AM 12.36 54.248 0.072 7.01 8.45 9.45
5/4/2021 2:00:00 AM 12.34 54.212 0.072 7 8.93 9.42
5/4/2021 2:15:00 AM 12.32 54.176 0.072 7.01 8.73 9.41
5/4/2021 2:30:00 AM 12.31 54.158 0.072 7.01 8.97 9.4
5/4/2021 2:45:00 AM 12.29 54.122 0.072 7 8.25 9.41
5/4/2021 3:00:00 AM 12.26 54.068 0.072 6.99 9.04 9.39
5/4/2021 3:15:00 AM 12.25 54.05 0.072 6.98 8.23 9.39
5/4/2021 3:30:00 AM 12.23 54.014 0.072 6.99 9.8 9.37
5/4/2021 3:45:00 AM 12.21 53.978 0.072 6.98 10.76 9.36
5/4/2021 4:00:00 AM 12.2 53.96 0.072 6.94 9.8 9.35
5/4/2021 4:15:00 AM 12.19 53.942 0.072 6.97 10.5 9.33
5/4/2021 4:30:00 AM 12.17 53.906 0.072 6.96 9.19 9.32
5/4/2021 4:45:00 AM 12.16 53.888 0.072 6.93 8.67 9.3
5/4/2021 5:00:00 AM 12.16 53.888 0.072 6.96 8.47 9.29
5/4/2021 5:15:00 AM 12.15 53.87 0.072 6.95 8.43 9.28
5/4/2021 5:30:00 AM 12.15 53.87 0.072 6.93 8.78 9.27
5/4/2021 5:45:00 AM 12.14 53.852 0.072 6.93 8.82 9.25
5/4/2021 6:00:00 AM 12.14 53.852 0.071 6.94 8.6 9.25
5/4/2021 6:15:00 AM 12.14 53.852 0.071 6.94 8.67 9.24
5/4/2021 6:30:00 AM 12.14 53.852 0.071 6.94 8.39 9.24
5/4/2021 6:45:00 AM 12.14 53.852 0.071 6.92 8.57 9.24
5/4/2021 7:00:00 AM 12.16 53.888 0.072 6.93 8.6 9.25
5/4/2021 7:15:00 AM 12.16 53.888 0.072 6.93 8.44 9.24
5/4/2021 7:30:00 AM 12.17 53.906 0.072 6.94 8.53 9.25
5/4/2021 7:45:00 AM 12.19 53.942 0.072 6.92 8.4 9.27
5/4/2021 8:00:00 AM 12.2 53.96 0.072 6.94 8.34 9.28
5/4/2021 8:15:00 AM 12.22 53.996 0.072 6.94 13.43 9.31
5/4/2021 8:30:00 AM 12.24 54.032 0.073 6.94 8.23 9.33
5/4/2021 8:45:00 AM 12.26 54.068 0.073 6.96 8.19 9.36
5/4/2021 9:00:00 AM 12.29 54.122 0.073 6.95 8.18 9.39
5/4/2021 9:15:00 AM 12.31 54.158 0.073 6.94 8.24 9.45
5/4/2021 9:30:00 AM 12.33 54.194 0.073 6.94 9.03 9.48
5/4/2021 9:45:00 AM 12.36 54.248 0.073 6.97 8.98 9.53
5/4/2021 10:00:00 AM 12.38 54.284 0.073 6.99 8.48 9.56
5/4/2021 10:15:00 AM 12.4 54.32 0.073 6.99 8.78 9.6
5/4/2021 10:30:00 AM 12.43 54.374 0.073 7 9.1 9.65
5/4/2021 10:45:00 AM 12.46 54.428 0.073 7.02 18.17 9.71
5/4/2021 11:00:00 AM 12.51 54.518 0.073 7.02 9.52 9.75
5/4/2021 11:15:00 AM 12.57 54.626 0.073 7.05 8.91 9.81
5/4/2021 11:30:00 AM 12.64 54.752 0.073 7.06 9.63 9.9
5/4/2021 11:45:00 AM 12.71 54.878 0.073 7.08 9.52 9.98
5/4/2021 12:00:00 PM 12.81 55.058 0.073 7.08 10.55 10.09
5/4/2021 12:15:00 PM 12.96 55.328 0.073 7.12 6.66 10.15
5/4/2021 12:30:00 PM 13.11 55.598 0.073 7.16 5.92 10.27
5/4/2021 12:45:00 PM 13.3 55.94 0.073 7.16 5.59 10.33
5/4/2021 1:00:00 PM 13.47 56.246 0.073 7.19 5.65 10.42
5/4/2021 1:15:00 PM 13.68 56.624 0.073 7.2 5.58 10.45
5/4/2021 1:30:00 PM 13.87 56.966 0.073 7.22 5.78 10.49
5/4/2021 1:45:00 PM 14.04 57.272 0.073 7.21 6.02 10.58
5/4/2021 2:00:00 PM 14.25 57.65 0.073 7.26 5.7 10.64
5/4/2021 2:15:00 PM 14.52 58.136 0.073 7.27 5.64 10.69
5/4/2021 2:30:00 PM 14.7 58.46 0.073 7.31 5.64 10.76
5/4/2021 2:45:00 PM 14.86 58.748 0.073 7.34 5.41 10.82
5/4/2021 3:00:00 PM 15.02 59.036 0.073 7.33 5.39 10.85
5/4/2021 3:15:00 PM 15.2 59.36 0.073 7.36 5.43 10.91
5/4/2021 3:30:00 PM 15.35 59.63 0.072 7.38 6.75 10.93
5/4/2021 3:45:00 PM 15.51 59.918 0.072 7.42 5.51 11
5/4/2021 4:00:00 PM 15.59 60.062 0.072 7.44 5.36 11.02
5/4/2021 4:15:00 PM 15.65 60.17 0.073 7.45 5.39 11.05
5/4/2021 4:30:00 PM 15.73 60.314 0.073 7.46 5.94 11.05
5/4/2021 4:45:00 PM 15.78 60.404 0.073 7.46 5.7 11.05
5/4/2021 5:00:00 PM 15.83 60.494 0.073 7.46 5.54 11.05
5/4/2021 5:15:00 PM 15.83 60.494 0.073 7.48 5.48 11.02
5/4/2021 5:30:00 PM 15.85 60.53 0.073 7.45 5.25 10.99
5/4/2021 5:45:00 PM 15.85 60.53 0.073 7.46 5.31 10.97
5/4/2021 6:00:00 PM 15.84 60.512 0.073 7.44 5.24 10.96
5/4/2021 6:15:00 PM 15.78 60.404 0.073 7.43 5.16 10.88
5/4/2021 6:30:00 PM 15.76 60.368 0.073 7.4 5.12 10.8
5/4/2021 6:45:00 PM 15.74 60.332 0.073 7.37 5.15 10.7
5/4/2021 7:00:00 PM 15.69 60.242 0.073 7.33 5.07 10.62
5/4/2021 7:15:00 PM 15.67 60.206 0.073 7.33 4.97 10.55
5/4/2021 7:30:00 PM 15.68 60.224 0.073 7.35 5.16 10.54
5/4/2021 7:45:00 PM 15.62 60.116 0.073 7.31 5.08 10.49
5/4/2021 8:00:00 PM 15.55 59.99 0.073 7.31 5.13 10.44
5/4/2021 8:15:00 PM 15.47 59.846 0.073 7.29 5.34 10.34
5/4/2021 8:30:00 PM 15.39 59.702 0.072 7.24 5.92 10.18
5/4/2021 8:45:00 PM 15.34 59.612 0.072 7.24 13.51 10.11
5/4/2021 9:00:00 PM 15.29 59.522 0.072 7.23 6.25 10.02
5/4/2021 9:15:00 PM 15.22 59.396 0.072 7.2 6.57 9.91
5/4/2021 9:30:00 PM 15.15 59.27 0.072 7.18 5.99 9.85
5/4/2021 9:45:00 PM 15.11 59.198 0.072 7.16 6.26 9.78
5/4/2021 10:00:00 PM 15.06 59.108 0.072 7.13 6.14 9.71
5/4/2021 10:15:00 PM 14.98 58.964 0.072 7.12 6.49 9.61
5/4/2021 10:30:00 PM 14.87 58.766 0.072 7.11 8.2 9.52
5/4/2021 10:45:00 PM 14.79 58.622 0.072 7.1 8.9 9.47
5/4/2021 11:00:00 PM 14.68 58.424 0.072 7.09 7.52 9.42
5/4/2021 11:15:00 PM 14.61 58.298 0.072 7.07 9.67 9.38
5/4/2021 11:30:00 PM 14.53 58.154 0.072 7.07 12.86 9.33
5/4/2021 11:45:00 PM 14.45 58.01 0.072 7.06 17.9 9.3
5/5/2021 12:00:00 AM 14.36 57.848 0.072 7.04 9.92 9.25
5/5/2021 12:15:00 AM 14.27 57.686 0.072 7.02 9.32 9.2
5/5/2021 12:30:00 AM 14.2 57.56 0.072 6.99 8.83 9.17
5/5/2021 12:45:00 AM 14.13 57.434 0.073 7 8.78 9.13
5/5/2021 1:00:00 AM 14.05 57.29 0.073 6.98 8.83 9.12
5/5/2021 1:15:00 AM 13.99 57.182 0.073 6.99 8.84 9.1
5/5/2021 1:30:00 AM 13.92 57.056 0.073 6.97 8.94 9.07
5/5/2021 1:45:00 AM 13.87 56.966 0.072 6.97 8.68 9.06
5/5/2021 2:00:00 AM 13.83 56.894 0.072 6.97 8.94 9.05
5/5/2021 2:15:00 AM 13.79 56.822 0.072 6.96 9.17 9.04
5/5/2021 2:30:00 AM 13.74 56.732 0.072 6.92 8.86 9.05
5/5/2021 2:45:00 AM 13.7 56.66 0.072 6.95 9.03 9.03
5/5/2021 3:00:00 AM 13.67 56.606 0.072 6.94 8.99 9.03
5/5/2021 3:15:00 AM 13.66 56.588 0.072 6.92 8.89 9.02
5/5/2021 3:30:00 AM 13.64 56.552 0.072 6.94 8.98 9.01
5/5/2021 3:45:00 AM 13.63 56.534 0.073 6.94 9.36 9
5/5/2021 4:00:00 AM 13.62 56.516 0.073 6.94 8.48 9
5/5/2021 4:15:00 AM 13.6 56.48 0.073 6.93 7.72 8.99
5/5/2021 4:30:00 AM 13.6 56.48 0.073 6.9 6.63 8.97
5/5/2021 4:45:00 AM 13.6 56.48 0.073 6.93 6.19 8.97
5/5/2021 5:00:00 AM 13.6 56.48 0.073 6.93 7.89 8.97
5/5/2021 5:15:00 AM 13.6 56.48 0.073 6.92 7.94 8.95
5/5/2021 5:30:00 AM 13.59 56.462 0.073 6.92 6.98 8.92
5/5/2021 5:45:00 AM 13.59 56.462 0.074 6.9 7.07 8.89
5/5/2021 6:00:00 AM 13.58 56.444 0.073 6.88 7.19 8.88
5/5/2021 6:15:00 AM 13.57 56.426 0.073 6.91 7.94 8.86
5/5/2021 6:30:00 AM 13.56 56.408 0.074 6.9 8.03 8.86
5/5/2021 6:45:00 AM 13.54 56.372 0.074 6.9 6.62 8.87
5/5/2021 7:00:00 AM 13.55 56.39 0.074 6.89 6.56 8.86
5/5/2021 7:15:00 AM 13.56 56.408 0.074 6.87 6.34 8.84
5/5/2021 7:30:00 AM 13.58 56.444 0.074 6.89 6.54 8.8
5/5/2021 7:45:00 AM 13.59 56.462 0.074 6.88 6.42 8.77
5/5/2021 8:00:00 AM 13.62 56.516 0.074 6.87 6.2 8.75
5/5/2021 8:15:00 AM 13.64 56.552 0.074 6.87 6.19 8.71
5/5/2021 8:30:00 AM 13.65 56.57 0.074 6.86 6.08 8.7
5/5/2021 8:45:00 AM 13.67 56.606 0.074 6.87 6 8.7
5/5/2021 9:00:00 AM 13.69 56.642 0.075 6.85 6.04 8.7
5/5/2021 9:15:00 AM 13.7 56.66 0.075 6.87 6.08 8.69
5/5/2021 9:30:00 AM 13.71 56.678 0.075 6.83 6.02 8.64
5/5/2021 9:45:00 AM 13.74 56.732 0.075 6.84 5.98 8.62
5/5/2021 10:00:00 AM 13.76 56.768 0.076 6.82 5.87 8.55
5/5/2021 10:15:00 AM 13.79 56.822 0.075 6.82 6.02 8.47
5/5/2021 10:30:00 AM 13.8 56.84 0.075 6.81 6.21 8.43
5/5/2021 10:45:00 AM 13.82 56.876 0.076 6.82 6.1 8.46
5/5/2021 11:00:00 AM 13.83 56.894 0.076 6.83 6.18 8.46
5/5/2021 11:15:00 AM 13.85 56.93 0.076 6.83 6.34 8.5
5/5/2021 11:30:00 AM 13.86 56.948 0.076 6.83 5.98 8.48
5/5/2021 11:45:00 AM 13.88 56.984 0.075 6.82 6.01 8.5
5/5/2021 12:00:00 PM 13.89 57.002 0.076 6.83 7.45 8.42
5/5/2021 12:15:00 PM 13.91 57.038 0.076 6.81 6.23 8.48
5/5/2021 12:30:00 PM 13.92 57.056 0.076 6.83 6.31 8.47
5/5/2021 12:45:00 PM 13.93 57.074 0.076 6.8 5.96 8.51
5/5/2021 1:00:00 PM 13.96 57.128 0.076 6.83 6.3 8.53
5/5/2021 1:15:00 PM 13.96 57.128 0.077 6.82 6.58 8.49
5/5/2021 1:30:00 PM 13.97 57.146 0.077 6.8 7.26 8.49
5/5/2021 1:45:00 PM 14 57.2 0.077 6.81 7.29 8.46
5/5/2021 2:00:00 PM 14.05 57.29 0.076 6.77 6.42 8.51
5/5/2021 2:15:00 PM 14.1 57.38 0.077 6.83 5.93 8.56
5/5/2021 2:30:00 PM 14.1 57.38 0.077 6.82 6.37 8.68
5/5/2021 2:45:00 PM 14.08 57.344 0.077 6.85 6.01 8.8
5/5/2021 3:00:00 PM 14.1 57.38 0.077 6.86 6.21 8.92
5/5/2021 3:15:00 PM 14.1 57.38 0.078 6.84 6.22 9.02
5/5/2021 3:30:00 PM 14.08 57.344 0.077 6.9 5.96 9.18
5/5/2021 3:45:00 PM 14.08 57.344 0.077 6.93 6.5 9.32
5/5/2021 4:00:00 PM 14.06 57.308 0.076 6.92 6.61 9.41
5/5/2021 4:15:00 PM 14 57.2 0.076 6.93 6.76 9.42
5/5/2021 4:30:00 PM 13.96 57.128 0.076 6.91 6.67 9.28
5/5/2021 4:45:00 PM 13.96 57.128 0.077 6.9 8.95 9.21
5/5/2021 5:00:00 PM 14.01 57.218 0.08 6.87 8.11 9.09
5/5/2021 5:15:00 PM 14.06 57.308 0.084 6.94 8.24 8.98
5/5/2021 5:30:00 PM 14.15 57.47 0.082 6.98 10.35 9.14
5/5/2021 5:45:00 PM 14.19 57.542 0.079 7.02 9.34 9.35
5/5/2021 6:00:00 PM 14.21 57.578 0.076 7.07 8.77 9.54
5/5/2021 6:15:00 PM 14.25 57.65 0.075 7.08 9.07 9.67
5/5/2021 6:30:00 PM 14.27 57.686 0.074 7.11 8.68 9.75
5/5/2021 6:45:00 PM 14.26 57.668 0.074 7.12 8.24 9.8
5/5/2021 7:00:00 PM 14.25 57.65 0.073 7.13 8.36 9.82
5/5/2021 7:15:00 PM 14.22 57.596 0.073 7.13 8.48 9.82
5/5/2021 7:30:00 PM 14.19 57.542 0.073 7.13 8.36 9.81
5/5/2021 7:45:00 PM 14.15 57.47 0.073 7.12 8.3 9.79
5/5/2021 8:00:00 PM 14.09 57.362 0.072 7.12 8.48 9.76
5/5/2021 8:15:00 PM 14.02 57.236 0.072 7.09 8.41 9.73
5/5/2021 8:30:00 PM 13.95 57.11 0.072 7.08 8.36 9.7
5/5/2021 8:45:00 PM 13.85 56.93 0.071 7.05 8.93 9.65
5/5/2021 9:00:00 PM 13.77 56.786 0.071 7.01 9.11 9.61
5/5/2021 9:15:00 PM 13.69 56.642 0.07 7.01 8.8 9.57
5/5/2021 9:30:00 PM 13.6 56.48 0.07 7 9.08 9.53
5/5/2021 9:45:00 PM 13.54 56.372 0.07 6.99 8.96 9.51
5/5/2021 10:00:00 PM 13.47 56.246 0.07 6.97 9.92 9.46
5/5/2021 10:15:00 PM 13.41 56.138 0.07 6.92 9.24 9.44
5/5/2021 10:30:00 PM 13.37 56.066 0.07 6.95 9.27 9.41
5/5/2021 10:45:00 PM 13.33 55.994 0.069 6.95 9.72 9.41
5/5/2021 11:00:00 PM 13.3 55.94 0.069 6.91 9.79 9.39
5/5/2021 11:15:00 PM 13.29 55.922 0.069 6.94 9.51 9.38
5/5/2021 11:30:00 PM 13.28 55.904 0.069 6.93 9.65 9.37
5/5/2021 11:45:00 PM 13.25 55.85 0.069 6.93 9.67 9.36
5/6/2021 12:00:00 AM 13.21 55.778 0.069 6.93 9.48 9.35
5/6/2021 12:15:00 AM 13.17 55.706 0.069 6.94 9.64 9.34
5/6/2021 12:30:00 AM 13.14 55.652 0.069 6.94 11.13 9.32
5/6/2021 12:45:00 AM 13.12 55.616 0.069 6.94 10.52 9.35
5/6/2021 1:00:00 AM 13.09 55.562 0.069 6.93 17.83 9.35
5/6/2021 1:15:00 AM 13.06 55.508 0.069 6.94 14.93 9.33
5/6/2021 1:30:00 AM 13.05 55.49 0.069 6.93 14.3 9.32
5/6/2021 1:45:00 AM 13.03 55.454 0.069 6.9 14.26 9.32
5/6/2021 2:00:00 AM 13 55.4 0.069 6.93 13.61 9.31
5/6/2021 2:15:00 AM 12.97 55.346 0.069 6.92 14.22 9.32
5/6/2021 2:30:00 AM 12.95 55.31 0.069 6.89 13.33 9.33
5/6/2021 2:45:00 AM 12.91 55.238 0.069 6.91 14.93 9.32
5/6/2021 3:00:00 AM 12.87 55.166 0.069 6.92 13.38 9.3
5/6/2021 3:15:00 AM 12.83 55.094 0.069 6.92 12.57 9.32
5/6/2021 3:30:00 AM 12.82 55.076 0.069 6.93 13.03 9.34
5/6/2021 3:45:00 AM 12.77 54.986 0.069 6.93 15.8 9.33
5/6/2021 4:00:00 AM 12.75 54.95 0.069 6.93 17.72 9.36
5/6/2021 4:15:00 AM 12.73 54.914 0.069 6.93 15.18 9.36
5/6/2021 4:30:00 AM 12.7 54.86 0.069 6.88 15.51 9.38
5/6/2021 4:45:00 AM 12.66 54.788 0.069 6.92 16.02 9.39
5/6/2021 5:00:00 AM 12.63 54.734 0.069 6.92 15.99 9.39
5/6/2021 5:15:00 AM 12.57 54.626 0.069 6.92 15.41 9.37
5/6/2021 5:30:00 AM 12.54 54.572 0.069 6.91 18.57 9.38
5/6/2021 5:45:00 AM 12.49 54.482 0.069 6.91 12.69 9.38
5/6/2021 6:00:00 AM 12.47 54.446 0.069 6.91 13.8 9.4
5/6/2021 6:15:00 AM 12.41 54.338 0.069 6.91 12.4 9.41
5/6/2021 6:30:00 AM 12.38 54.284 0.069 6.88 12.33 9.45
5/6/2021 6:45:00 AM 12.31 54.158 0.069 6.92 12.36 9.43
5/6/2021 7:00:00 AM 12.26 54.068 0.069 6.92 12.44 9.45
5/6/2021 7:15:00 AM 12.19 53.942 0.069 6.9 12.48 9.46
5/6/2021 7:30:00 AM 12.12 53.816 0.069 6.91 12.45 9.45
5/6/2021 7:45:00 AM 12.08 53.744 0.068 6.86 12.15 9.51
5/6/2021 8:00:00 AM 12.07 53.726 0.068 6.92 15.28 9.55
5/6/2021 8:15:00 AM 12.06 53.708 0.068 6.89 19.29 9.59
5/6/2021 8:30:00 AM 12.07 53.726 0.068 6.92 11.9 9.67
5/6/2021 8:45:00 AM 12.16 53.888 0.068 6.94 12.06 9.76
5/6/2021 9:00:00 AM 12.21 53.978 0.068 6.93 10.79 9.84
5/6/2021 9:15:00 AM 12.27 54.086 0.068 6.97 10.58 9.93
5/6/2021 9:30:00 AM 12.36 54.248 0.068 6.99 11.37 10.02
5/6/2021 9:45:00 AM 12.45 54.41 0.068 7.01 13.11 10.11
5/6/2021 10:00:00 AM 12.55 54.59 0.068 6.97 11.9 10.17
5/6/2021 10:15:00 AM 12.66 54.788 0.068 7.03 12.17 10.25
5/6/2021 10:30:00 AM 12.78 55.004 0.068 7.06 12.14 10.33
5/6/2021 10:45:00 AM 12.9 55.22 0.068 7.05 12.5 10.4
5/6/2021 11:00:00 AM 13.03 55.454 0.068 7.06 19.34 10.45
5/6/2021 11:15:00 AM 13.16 55.688 0.067 7.09 18.92 10.52
5/6/2021 11:30:00 AM 13.28 55.904 0.067 7.1 20.47 10.56
5/6/2021 11:45:00 AM 13.38 56.084 0.067 7.12 19.02 10.6
5/6/2021 12:00:00 PM 13.5 56.3 0.067 7.1 19.11 10.63
5/6/2021 12:15:00 PM 13.61 56.498 0.067 7.13 24.7 10.67
5/6/2021 12:30:00 PM 13.73 56.714 0.067 7.15 20.34 10.72
5/6/2021 12:45:00 PM 13.83 56.894 0.067 7.16 18.33 10.72
5/6/2021 1:00:00 PM 13.96 57.128 0.067 7.18 18.96 10.78
5/6/2021 1:15:00 PM 14.07 57.326 0.067 7.15 19.43 10.8
5/6/2021 1:30:00 PM 14.21 57.578 0.067 7.19 18.56 10.83
5/6/2021 1:45:00 PM 14.31 57.758 0.067 7.2 18.93 10.83
5/6/2021 2:00:00 PM 14.44 57.992 0.067 7.19 18.7 10.85
5/6/2021 2:15:00 PM 14.5 58.1 0.067 7.22 17.16 10.84
5/6/2021 2:30:00 PM 14.63 58.334 0.067 7.23 9.85 10.84
5/6/2021 2:45:00 PM 14.71 58.478 0.067 7.21 9.27 10.84
5/6/2021 3:00:00 PM 14.81 58.658 0.067 7.22 8.73 10.83
5/6/2021 3:15:00 PM 14.88 58.784 0.067 7.24 9.13 10.82
5/6/2021 3:30:00 PM 14.98 58.964 0.067 7.27 9.52 10.84
5/6/2021 3:45:00 PM 14.99 58.982 0.067 7.26 9.69 10.79
5/6/2021 4:00:00 PM 15.05 59.09 0.067 7.26 11.72 10.79
5/6/2021 4:15:00 PM 15.02 59.036 0.067 7.27 11.1 10.77
5/6/2021 4:30:00 PM 15.06 59.108 0.067 7.28 10.55 10.79
5/6/2021 4:45:00 PM 15.04 59.072 0.067 7.28 9.87 10.77
5/6/2021 5:00:00 PM 15.05 59.09 0.067 7.29 9.97 10.78
5/6/2021 5:15:00 PM 14.97 58.946 0.067 7.28 10.24 10.74
5/6/2021 5:30:00 PM 14.89 58.802 0.067 7.24 11.28 10.72
5/6/2021 5:45:00 PM 14.82 58.676 0.067 7.27 9.85 10.68
5/6/2021 6:00:00 PM 14.73 58.514 0.067 7.27 10.16 10.66
5/6/2021 6:15:00 PM 14.65 58.37 0.067 7.24 10.11 10.64
5/6/2021 6:30:00 PM 14.59 58.262 0.067 7.26 10.36 10.61
5/6/2021 6:45:00 PM 14.5 58.1 0.067 7.25 10 10.57
5/6/2021 7:00:00 PM 14.41 57.938 0.066 7.2 10.26 10.54
5/6/2021 7:15:00 PM 14.32 57.776 0.066 7.23 10.41 10.49
5/6/2021 7:30:00 PM 14.23 57.614 0.067 7.17 10.47 10.46
5/6/2021 7:45:00 PM 14.14 57.452 0.067 7.2 10.61 10.41
5/6/2021 8:00:00 PM 14.06 57.308 0.066 7.15 10.77 10.34
5/6/2021 8:15:00 PM 13.98 57.164 0.066 7.16 14.93 10.29
5/6/2021 8:30:00 PM 13.92 57.056 0.066 7.14 14.27 10.24
5/6/2021 8:45:00 PM 13.83 56.894 0.066 7.13 14.19 10.18
5/6/2021 9:00:00 PM 13.78 56.804 0.067 7.1 14.95 10.11
5/6/2021 9:15:00 PM 13.72 56.696 0.067 7.06 14.67 10.05
5/6/2021 9:30:00 PM 13.66 56.588 0.067 7.08 14.91 9.99
5/6/2021 9:45:00 PM 13.6 56.48 0.067 7.07 14.56 9.93
5/6/2021 10:00:00 PM 13.55 56.39 0.067 7.05 14.53 9.88
5/6/2021 10:15:00 PM 13.49 56.282 0.067 7.01 14.58 9.83
5/6/2021 10:30:00 PM 13.43 56.174 0.067 7 14.66 9.79
5/6/2021 10:45:00 PM 13.36 56.048 0.068 7.02 14.46 9.76
5/6/2021 11:00:00 PM 13.31 55.958 0.068 7 14.68 9.7
5/6/2021 11:15:00 PM 13.23 55.814 0.068 6.94 14.54 9.69
5/6/2021 11:30:00 PM 13.17 55.706 0.068 6.98 14.49 9.69
5/6/2021 11:45:00 PM 13.13 55.634 0.068 6.97 14.54 9.6
5/7/2021 12:00:00 AM 13.07 55.526 0.067 6.97 14.03 9.6
5/7/2021 12:15:00 AM 13.02 55.436 0.067 6.91 14.9 9.57
5/7/2021 12:30:00 AM 12.95 55.31 0.067 6.93 14.47 9.59
5/7/2021 12:45:00 AM 12.91 55.238 0.067 6.95 9.16 9.57
5/7/2021 1:00:00 AM 12.85 55.13 0.067 6.96 14.8 9.5
5/7/2021 1:15:00 AM 12.81 55.058 0.067 6.86 10.58 9.53
5/7/2021 1:30:00 AM 12.77 54.986 0.067 6.94 9.49 9.55
5/7/2021 1:45:00 AM 12.72 54.896 0.067 6.93 9.48 9.51
5/7/2021 2:00:00 AM 12.68 54.824 0.067 6.92 9.63 9.53
5/7/2021 2:15:00 AM 12.64 54.752 0.067 6.93 9.35 9.5
5/7/2021 2:30:00 AM 12.61 54.698 0.067 6.9 9.76 9.49
5/7/2021 2:45:00 AM 12.56 54.608 0.067 6.93 9.72 9.49
5/7/2021 3:00:00 AM 12.52 54.536 0.067 6.89 9.71 9.47
5/7/2021 3:15:00 AM 12.49 54.482 0.067 6.89 10.27 9.47
5/7/2021 3:30:00 AM 12.45 54.41 0.067 6.88 9.92 9.47
5/7/2021 3:45:00 AM 12.4 54.32 0.067 6.9 9.64 9.5
5/7/2021 4:00:00 AM 12.35 54.23 0.067 6.88 9.8 9.47
5/7/2021 4:15:00 AM 12.31 54.158 0.067 6.9 10.05 9.49
5/7/2021 4:30:00 AM 12.28 54.104 0.067 6.92 9.67 9.5
5/7/2021 4:45:00 AM 12.24 54.032 0.067 6.91 9.94 9.49
5/7/2021 5:00:00 AM 12.19 53.942 0.067 6.88 9.74 9.47
5/7/2021 5:15:00 AM 12.15 53.87 0.067 6.89 9.88 9.45
5/7/2021 5:30:00 AM 12.12 53.816 0.067 6.88 10.24 9.45
5/7/2021 5:45:00 AM 12.09 53.762 0.067 6.86 9.66 9.46
5/7/2021 6:00:00 AM 12.06 53.708 0.067 6.9 9.7 9.47
5/7/2021 6:15:00 AM 12.02 53.636 0.067 6.88 10.33 9.46
5/7/2021 6:30:00 AM 12 53.6 0.067 6.88 11.08 9.47
5/7/2021 6:45:00 AM 11.97 53.546 0.067 6.88 10.83 9.48
5/7/2021 7:00:00 AM 11.95 53.51 0.067 6.9 11.28 9.49
5/7/2021 7:15:00 AM 11.93 53.474 0.067 6.84 11.56 9.49
5/7/2021 7:30:00 AM 11.91 53.438 0.067 6.9 11.24 9.51
5/7/2021 7:45:00 AM 11.92 53.456 0.067 6.91 11.48 9.55
5/7/2021 8:00:00 AM 11.96 53.528 0.067 6.92 11.68 9.61
5/7/2021 8:15:00 AM 12.01 53.618 0.068 6.93 11.28 9.68
5/7/2021 8:30:00 AM 12.03 53.654 0.068 6.92 11.18 9.74
5/7/2021 8:45:00 AM 12.09 53.762 0.068 6.96 10.95 9.82
5/7/2021 9:00:00 AM 12.15 53.87 0.068 6.96 11.13 9.91
5/7/2021 9:15:00 AM 12.23 54.014 0.068 6.99 12.12 10
5/7/2021 9:30:00 AM 12.32 54.176 0.068 7.02 12.9 10.1
5/7/2021 9:45:00 AM 12.41 54.338 0.068 6.99 11.98 10.18
5/7/2021 10:00:00 AM 12.52 54.536 0.068 7.06 11.47 10.25
5/7/2021 10:15:00 AM 12.66 54.788 0.068 7.02 11.54 10.31
5/7/2021 10:30:00 AM 12.77 54.986 0.068 7.01 11.89 10.37
5/7/2021 10:45:00 AM 12.9 55.22 0.068 7.08 11.78 10.43
5/7/2021 11:00:00 AM 13.04 55.472 0.068 7.13 11.32 10.47
5/7/2021 11:15:00 AM 13.21 55.778 0.068 7.12 11.01 10.53
5/7/2021 11:30:00 AM 13.36 56.048 0.067 7.14 10.99 10.57
5/7/2021 11:45:00 AM 13.51 56.318 0.067 7.18 11.38 10.64
5/7/2021 12:00:00 PM 13.66 56.588 0.067 7.17 11.24 10.68
5/7/2021 12:15:00 PM 13.81 56.858 0.067 7.2 11.24 10.72
5/7/2021 12:30:00 PM 13.95 57.11 0.067 7.18 11.51 10.77
5/7/2021 12:45:00 PM 14.1 57.38 0.067 7.22 11.98 10.8
5/7/2021 1:00:00 PM 14.2 57.56 0.067 7.25 11.75 10.83
5/7/2021 1:15:00 PM 14.28 57.704 0.067 7.25 11.5 10.84
5/7/2021 1:30:00 PM 14.31 57.758 0.067 7.26 11.85 10.85
5/7/2021 1:45:00 PM 14.33 57.794 0.067 7.22 11.66 10.87
5/7/2021 2:00:00 PM 14.34 57.812 0.067 7.29 11.4 10.9
5/7/2021 2:15:00 PM 14.32 57.776 0.068 7.22 11.82 10.89
5/7/2021 2:30:00 PM 14.28 57.704 0.067 7.27 11.81 10.88
5/7/2021 2:45:00 PM 14.26 57.668 0.067 7.26 12.02 10.87
5/7/2021 3:00:00 PM 14.24 57.632 0.067 7.29 12.04 10.89
5/7/2021 3:15:00 PM 14.21 57.578 0.067 7.26 11.9 10.88
5/7/2021 3:30:00 PM 14.2 57.56 0.067 7.27 16.04 10.87
5/7/2021 3:45:00 PM 14.16 57.488 0.068 7.3 12.43 10.88
5/7/2021 4:00:00 PM 14.12 57.416 0.068 7.28 12.28 10.85
5/7/2021 4:15:00 PM 14.08 57.344 0.068 7.25 12.59 10.86
5/7/2021 4:30:00 PM 14.02 57.236 0.068 7.28 12.49 10.83
5/7/2021 4:45:00 PM 13.97 57.146 0.067 7.26 12.42 10.81
5/7/2021 5:00:00 PM 13.9 57.02 0.068 7.28 9.5 10.82
5/7/2021 5:15:00 PM 13.83 56.894 0.068 7.27 10.14 10.78
5/7/2021 5:30:00 PM 13.77 56.786 0.068 7.26 9.94 10.76
5/7/2021 5:45:00 PM 13.72 56.696 0.068 7.25 9.9 10.74
5/7/2021 6:00:00 PM 13.65 56.57 0.068 7.22 10.08 10.68
5/7/2021 6:15:00 PM 13.63 56.534 0.068 7.2 10 10.66
5/7/2021 6:30:00 PM 13.6 56.48 0.068 7.22 9.73 10.63
5/7/2021 6:45:00 PM 13.55 56.39 0.068 7.21 9.82 10.59
5/7/2021 7:00:00 PM 13.51 56.318 0.068 7.2 9.7 10.57
5/7/2021 7:15:00 PM 13.46 56.228 0.068 7.18 9.4 10.54
5/7/2021 7:30:00 PM 13.4 56.12 0.068 7.18 9.65 10.53
5/7/2021 7:45:00 PM 13.33 55.994 0.067 7.15 9.5 10.49
5/7/2021 8:00:00 PM 13.26 55.868 0.067 7.15 9.49 10.46
5/7/2021 8:15:00 PM 13.19 55.742 0.068 7.16 9.82 10.42
5/7/2021 8:30:00 PM 13.13 55.634 0.068 7.13 10.9 10.37
5/7/2021 8:45:00 PM 13.08 55.544 0.068 7.14 10.3 10.35
5/7/2021 9:00:00 PM 13.02 55.436 0.068 7.12 10.68 10.28
5/7/2021 9:15:00 PM 12.98 55.364 0.068 7.1 10.51 10.23
5/7/2021 9:30:00 PM 12.95 55.31 0.068 7.09 10.36 10.17
5/7/2021 9:45:00 PM 12.91 55.238 0.068 7.07 10.45 10.11
5/7/2021 10:00:00 PM 12.88 55.184 0.068 7.06 10.72 10.05
5/7/2021 10:15:00 PM 12.84 55.112 0.068 7.05 10.52 10.01
5/7/2021 10:30:00 PM 12.81 55.058 0.068 6.99 10.38 9.98
5/7/2021 10:45:00 PM 12.78 55.004 0.068 7.02 10.4 9.93
5/7/2021 11:00:00 PM 12.74 54.932 0.068 7.03 10.47 9.9
5/7/2021 11:15:00 PM 12.7 54.86 0.068 7.02 10.54 9.87
5/7/2021 11:30:00 PM 12.66 54.788 0.068 6.99 10.42 9.83
5/7/2021 11:45:00 PM 12.61 54.698 0.068 6.93 10.58 9.81
5/8/2021 12:00:00 AM 12.59 54.662 0.068 6.95 10.42 9.78
5/8/2021 12:15:00 AM 12.54 54.572 0.068 6.97 10.67 9.76
5/8/2021 12:30:00 AM 12.5 54.5 0.068 6.97 10.54 9.73
5/8/2021 12:45:00 AM 12.48 54.464 0.068 6.96 10.58 9.7
5/8/2021 1:00:00 AM 12.44 54.392 0.068 6.92 10.46 9.69
5/8/2021 1:15:00 AM 12.4 54.32 0.068 6.95 10.78 9.68
5/8/2021 1:30:00 AM 12.36 54.248 0.068 6.95 10.69 9.68
5/8/2021 1:45:00 AM 12.34 54.212 0.068 6.94 10.51 9.67
5/8/2021 2:00:00 AM 12.31 54.158 0.068 6.95 10.42 9.65
5/8/2021 2:15:00 AM 12.3 54.14 0.068 6.89 10.57 9.65
5/8/2021 2:30:00 AM 12.27 54.086 0.068 6.95 10.67 9.66
5/8/2021 2:45:00 AM 12.24 54.032 0.068 6.93 10.53 9.63
5/8/2021 3:00:00 AM 12.21 53.978 0.068 6.94 10.53 9.65
5/8/2021 3:15:00 AM 12.18 53.924 0.068 6.94 10.58 9.64
5/8/2021 3:30:00 AM 12.16 53.888 0.068 6.93 10.4 9.59
5/8/2021 3:45:00 AM 12.13 53.834 0.068 6.93 10.4 9.62
5/8/2021 4:00:00 AM 12.1 53.78 0.068 6.92 10.28 9.58
5/8/2021 4:15:00 AM 12.07 53.726 0.068 6.87 10.6 9.59
5/8/2021 4:30:00 AM 12.05 53.69 0.068 6.91 10.39 9.55
5/8/2021 4:45:00 AM 12.03 53.654 0.068 6.93 10.54 9.56
5/8/2021 5:00:00 AM 12.03 53.654 0.068 6.87 10.47 9.55
5/8/2021 5:15:00 AM 12.01 53.618 0.068 6.9 10.5 9.55
5/8/2021 5:30:00 AM 12 53.6 0.068 6.92 11.15 9.58
5/8/2021 5:45:00 AM 11.98 53.564 0.068 6.86 10.55 9.52
5/8/2021 6:00:00 AM 11.96 53.528 0.068 6.88 10.2 9.54
5/8/2021 6:15:00 AM 11.95 53.51 0.068 6.92 10.49 9.58
5/8/2021 6:30:00 AM 11.94 53.492 0.068 6.9 11.4 9.59
5/8/2021 6:45:00 AM 11.91 53.438 0.068 6.92 10.32 9.57
5/8/2021 7:00:00 AM 11.9 53.42 0.068 6.88 10.26 9.59
5/8/2021 7:15:00 AM 11.87 53.366 0.068 6.93 10.42 9.61
5/8/2021 7:30:00 AM 11.83 53.294 0.068 6.86 10.29 9.57
5/8/2021 7:45:00 AM 11.81 53.258 0.068 6.92 10.04 9.61
5/8/2021 8:00:00 AM 11.78 53.204 0.068 6.93 10.34 9.62
5/8/2021 8:15:00 AM 11.76 53.168 0.068 6.84 10.2 9.62
5/8/2021 8:30:00 AM 11.77 53.186 0.068 6.93 10 9.64
5/8/2021 8:45:00 AM 11.77 53.186 0.068 6.92 10.12 9.67
5/8/2021 9:00:00 AM 11.76 53.168 0.068 6.87 10.25 9.71
5/8/2021 9:15:00 AM 11.75 53.15 0.068 6.93 10.1 9.77
5/8/2021 9:30:00 AM 11.75 53.15 0.068 6.95 10.31 9.82
5/8/2021 9:45:00 AM 11.75 53.15 0.068 6.95 11.46 9.89
5/8/2021 10:00:00 AM 11.76 53.168 0.068 6.93 10.96 9.94
5/8/2021 10:15:00 AM 11.73 53.114 0.068 6.95 10.9 9.97
5/8/2021 10:30:00 AM 11.72 53.096 0.068 6.91 10.72 10.03
5/8/2021 10:45:00 AM 11.71 53.078 0.068 6.99 10.76 10.08
5/8/2021 11:00:00 AM 11.69 53.042 0.068 6.93 10.59 10.13
5/8/2021 11:15:00 AM 11.66 52.988 0.068 7.01 10.6 10.17
5/8/2021 11:30:00 AM 11.68 53.024 0.068 7 10.77 10.22
5/8/2021 11:45:00 AM 11.71 53.078 0.068 7.03 10.79 10.28
5/8/2021 12:00:00 PM 11.72 53.096 0.067 7.05 10.49 10.32
5/8/2021 12:15:00 PM 11.74 53.132 0.067 7.04 10.54 10.35
5/8/2021 12:30:00 PM 11.78 53.204 0.067 7.01 10.55 10.42
5/8/2021 12:45:00 PM 11.83 53.294 0.067 7.06 10.39 10.5
5/8/2021 1:00:00 PM 11.87 53.366 0.067 7.09 10.22 10.54
5/8/2021 1:15:00 PM 11.88 53.384 0.067 7.06 10.27 10.56
5/8/2021 1:30:00 PM 11.89 53.402 0.067 7.11 10.24 10.61
5/8/2021 1:45:00 PM 11.9 53.42 0.067 7.13 10 10.64
5/8/2021 2:00:00 PM 11.91 53.438 0.067 7.11 10.05 10.65
5/8/2021 2:15:00 PM 11.91 53.438 0.067 7.11 10.13 10.68
5/8/2021 2:30:00 PM 11.9 53.42 0.067 7.13 10.08 10.72
5/8/2021 2:45:00 PM 11.91 53.438 0.067 7.15 10.08 10.71
5/8/2021 3:00:00 PM 11.9 53.42 0.067 7.16 10.07 10.73
5/8/2021 3:15:00 PM 11.89 53.402 0.067 7.16 10.07 10.73
5/8/2021 3:30:00 PM 11.89 53.402 0.067 7.13 10.02 10.75
5/8/2021 3:45:00 PM 11.91 53.438 0.067 7.16 9.99 10.77
5/8/2021 4:00:00 PM 11.93 53.474 0.067 7.18 9.96 10.78
5/8/2021 4:15:00 PM 11.94 53.492 0.067 7.19 9.98 10.79
5/8/2021 4:30:00 PM 11.93 53.474 0.067 7.19 9.94 10.79
5/8/2021 4:45:00 PM 11.94 53.492 0.067 7.22 10 10.83
5/8/2021 5:00:00 PM 11.93 53.474 0.067 7.22 9.86 10.85
5/8/2021 5:15:00 PM 11.91 53.438 0.067 7.22 9.8 10.85
5/8/2021 5:30:00 PM 11.86 53.348 0.067 7.23 9.83 10.85
5/8/2021 5:45:00 PM 11.83 53.294 0.067 7.21 10.02 10.87
5/8/2021 6:00:00 PM 11.8 53.24 0.067 7.24 10.06 10.87
5/8/2021 6:15:00 PM 11.76 53.168 0.067 7.2 10.05 10.85
5/8/2021 6:30:00 PM 11.72 53.096 0.067 7.24 10.08 10.86
5/8/2021 6:45:00 PM 11.69 53.042 0.067 7.2 10.14 10.86
5/8/2021 7:00:00 PM 11.66 52.988 0.067 7.25 12.55 10.86
5/8/2021 7:15:00 PM 11.62 52.916 0.067 7.22 10.15 10.88
5/8/2021 7:30:00 PM 11.58 52.844 0.067 7.21 10.22 10.87
5/8/2021 7:45:00 PM 11.54 52.772 0.067 7.22 10.39 10.85
5/8/2021 8:00:00 PM 11.48 52.664 0.067 7.22 10.47 10.82
5/8/2021 8:15:00 PM 11.43 52.574 0.067 7.19 10.04 10.8
5/8/2021 8:30:00 PM 11.39 52.502 0.067 7.16 10.42 10.77
5/8/2021 8:45:00 PM 11.32 52.376 0.067 7.17 10 10.73
5/8/2021 9:00:00 PM 11.26 52.268 0.067 7.16 10.74 10.7
5/8/2021 9:15:00 PM 11.2 52.16 0.067 7.15 10.46 10.67
5/8/2021 9:30:00 PM 11.14 52.052 0.067 7.15 10.54 10.65
5/8/2021 9:45:00 PM 11.07 51.926 0.066 7.13 10.29 10.62
5/8/2021 10:00:00 PM 10.99 51.782 0.066 7.09 10.81 10.56
5/8/2021 10:15:00 PM 10.94 51.692 0.066 7.1 10.52 10.51
5/8/2021 10:30:00 PM 10.89 51.602 0.066 7.05 10.59 10.46
5/8/2021 10:45:00 PM 10.86 51.548 0.066 7.08 10.84 10.43
5/8/2021 11:00:00 PM 10.84 51.512 0.066 7.06 10.5 10.41
5/8/2021 11:15:00 PM 10.81 51.458 0.066 7.07 10.51 10.38
5/8/2021 11:30:00 PM 10.78 51.404 0.067 7.06 10.67 10.36
5/8/2021 11:45:00 PM 10.75 51.35 0.067 7.05 10.56 10.33
5/9/2021 12:00:00 AM 10.72 51.296 0.067 7.03 10.54 10.3
5/9/2021 12:15:00 AM 10.7 51.26 0.067 6.99 10.75 10.29
5/9/2021 12:30:00 AM 10.67 51.206 0.067 7.02 10.71 10.25
5/9/2021 12:45:00 AM 10.66 51.188 0.067 6.95 10.65 10.22
5/9/2021 1:00:00 AM 10.63 51.134 0.067 7 10.9 10.2
5/9/2021 1:15:00 AM 10.63 51.134 0.067 7.01 10.98 10.19
5/9/2021 1:30:00 AM 10.61 51.098 0.068 6.99 11.75 10.16
5/9/2021 1:45:00 AM 10.59 51.062 0.068 7 11.13 10.14
5/9/2021 2:00:00 AM 10.58 51.044 0.068 6.98 10.78 10.11
5/9/2021 2:15:00 AM 10.58 51.044 0.068 6.95 11.17 10.1
5/9/2021 2:30:00 AM 10.55 50.99 0.068 6.98 11.38 10.08
5/9/2021 2:45:00 AM 10.55 50.99 0.068 6.97 11.46 10.07
5/9/2021 3:00:00 AM 10.53 50.954 0.068 6.93 11.11 10.06
5/9/2021 3:15:00 AM 10.5 50.9 0.068 6.96 11.2 10.05
5/9/2021 3:30:00 AM 10.49 50.882 0.068 6.98 11.14 10.05
5/9/2021 3:45:00 AM 10.46 50.828 0.068 6.95 11.22 10.04
5/9/2021 4:00:00 AM 10.43 50.774 0.068 6.93 11.38 10.03
5/9/2021 4:15:00 AM 10.43 50.774 0.068 6.96 11.26 10.05
5/9/2021 4:30:00 AM 10.4 50.72 0.068 6.92 11.35 10.03
5/9/2021 4:45:00 AM 10.37 50.666 0.068 6.92 10.98 10.04
5/9/2021 5:00:00 AM 10.34 50.612 0.068 6.91 10.99 10.03
5/9/2021 5:15:00 AM 10.3 50.54 0.068 6.96 10.87 10.04
5/9/2021 5:30:00 AM 10.27 50.486 0.068 6.93 10.88 10.04
5/9/2021 5:45:00 AM 10.25 50.45 0.068 6.95 10.8 10.04
5/9/2021 6:00:00 AM 10.22 50.396 0.068 6.92 10.94 10.03
5/9/2021 6:15:00 AM 10.19 50.342 0.068 6.95 10.8 10.02
5/9/2021 6:30:00 AM 10.16 50.288 0.068 6.95 10.78 10.03
5/9/2021 6:45:00 AM 10.16 50.288 0.068 6.91 10.88 10.05
5/9/2021 7:00:00 AM 10.14 50.252 0.068 6.92 10.92 10.04
5/9/2021 7:15:00 AM 10.14 50.252 0.068 6.95 10.92 10.07
5/9/2021 7:30:00 AM 10.12 50.216 0.068 6.93 10.59 10.08
5/9/2021 7:45:00 AM 10.12 50.216 0.068 6.87 10.69 10.11
5/9/2021 8:00:00 AM 10.17 50.306 0.068 6.97 10.5 10.17
5/9/2021 8:15:00 AM 10.21 50.378 0.068 6.98 10.59 10.23
5/9/2021 8:30:00 AM 10.27 50.486 0.068 6.99 10.54 10.31
5/9/2021 8:45:00 AM 10.33 50.594 0.068 7.01 10.37 10.4
5/9/2021 9:00:00 AM 10.41 50.738 0.068 7.03 10.38 10.47
5/9/2021 9:15:00 AM 10.51 50.918 0.068 7.02 10.29 10.54
5/9/2021 9:30:00 AM 10.62 51.116 0.068 7.06 10.25 10.6
5/9/2021 9:45:00 AM 10.73 51.314 0.068 7.08 10.3 10.69
5/9/2021 10:00:00 AM 10.84 51.512 0.068 7.03 10.36 10.78
5/9/2021 10:15:00 AM 10.95 51.71 0.068 7.09 10.16 10.84
5/9/2021 10:30:00 AM 11.05 51.89 0.068 7.13 10.08 10.89
5/9/2021 10:45:00 AM 11.13 52.034 0.067 7.14 10.17 10.94
5/9/2021 11:00:00 AM 11.21 52.178 0.067 7.14 10.03 11.01
5/9/2021 11:15:00 AM 11.28 52.304 0.067 7.13 10.11 11.08
5/9/2021 11:30:00 AM 11.33 52.394 0.067 7.15 10.24 11.11
5/9/2021 11:45:00 AM 11.41 52.538 0.067 7.19 10.1 11.16
5/9/2021 12:00:00 PM 11.52 52.736 0.067 7.22 10.12 11.19
5/9/2021 12:15:00 PM 11.6 52.88 0.067 7.22 10.04 11.25
5/9/2021 12:30:00 PM 11.68 53.024 0.067 7.24 10.03 11.3
5/9/2021 12:45:00 PM 11.77 53.186 0.067 7.25 10.19 11.34
5/9/2021 1:00:00 PM 11.86 53.348 0.067 7.26 10.04 11.33
5/9/2021 1:15:00 PM 11.93 53.474 0.067 7.28 10.16 11.36
5/9/2021 1:30:00 PM 11.96 53.528 0.067 7.3 10.06 11.4
5/9/2021 1:45:00 PM 12.01 53.618 0.067 7.33 9.98 11.43
5/9/2021 2:00:00 PM 12.04 53.672 0.067 7.34 10 11.43
5/9/2021 2:15:00 PM 12.04 53.672 0.067 7.28 9.94 11.4
5/9/2021 2:30:00 PM 12.03 53.654 0.067 7.34 10 11.4
5/9/2021 2:45:00 PM 12.02 53.636 0.067 7.34 9.91 11.41
5/9/2021 3:00:00 PM 12.01 53.618 0.066 7.31 9.97 11.42
5/9/2021 3:15:00 PM 11.97 53.546 0.066 7.35 9.84 11.4
5/9/2021 3:30:00 PM 11.93 53.474 0.066 7.34 10 11.39
5/9/2021 3:45:00 PM 11.89 53.402 0.066 7.33 9.92 11.36
5/9/2021 4:00:00 PM 11.84 53.312 0.066 7.32 10.01 11.32
5/9/2021 4:15:00 PM 11.8 53.24 0.066 7.31 9.99 11.27
5/9/2021 4:30:00 PM 11.77 53.186 0.066 7.31 9.83 11.24
5/9/2021 4:45:00 PM 11.73 53.114 0.066 7.3 9.87 11.22
5/9/2021 5:00:00 PM 11.69 53.042 0.066 7.3 9.76 11.18
5/9/2021 5:15:00 PM 11.64 52.952 0.066 7.28 9.84 11.15
5/9/2021 5:30:00 PM 11.59 52.862 0.066 7.24 9.79 11.12
5/9/2021 5:45:00 PM 11.53 52.754 0.066 7.23 9.76 11.07
5/9/2021 6:00:00 PM 11.46 52.628 0.066 7.25 9.86 11.01
5/9/2021 6:15:00 PM 11.39 52.502 0.066 7.24 10 10.97
5/9/2021 6:30:00 PM 11.32 52.376 0.066 7.23 10.26 10.95
5/9/2021 6:45:00 PM 11.24 52.232 0.066 7.21 9.95 10.91
5/9/2021 7:00:00 PM 11.16 52.088 0.066 7.19 10 10.89
5/9/2021 7:15:00 PM 11.07 51.926 0.066 7.19 9.89 10.86
5/9/2021 7:30:00 PM 10.98 51.764 0.066 7.13 9.94 10.82
5/9/2021 7:45:00 PM 10.89 51.602 0.066 7.17 9.96 10.79
5/9/2021 8:00:00 PM 10.79 51.422 0.066 7.15 9.88 10.77
5/9/2021 8:15:00 PM 10.69 51.242 0.066 7.1 10 10.74
5/9/2021 8:30:00 PM 10.62 51.116 0.066 7.12 9.91 10.7
5/9/2021 8:45:00 PM 10.56 51.008 0.066 7.06 9.89 10.65
5/9/2021 9:00:00 PM 10.48 50.864 0.066 7.09 9.79 10.61
5/9/2021 9:15:00 PM 10.43 50.774 0.066 7.08 10.16 10.58
5/9/2021 9:30:00 PM 10.38 50.684 0.066 7.07 9.87 10.57
5/9/2021 9:45:00 PM 10.32 50.576 0.066 7.01 9.9 10.56
5/9/2021 10:00:00 PM 10.29 50.522 0.066 7.04 9.99 10.53
5/9/2021 10:15:00 PM 10.22 50.396 0.066 7.03 10 10.51
5/9/2021 10:30:00 PM 10.15 50.27 0.066 7.04 9.85 10.48
5/9/2021 10:45:00 PM 10.08 50.144 0.066 7.03 10.01 10.45
5/9/2021 11:00:00 PM 10.02 50.036 0.066 7.04 10.09 10.43
5/9/2021 11:15:00 PM 9.94 49.892 0.066 7.01 10.16 10.43
5/9/2021 11:30:00 PM 9.88 49.784 0.066 7 10.08 10.42
5/9/2021 11:45:00 PM 9.82 49.676 0.066 7.02 10.32 10.43
5/10/2021 12:00:00 AM 9.77 49.586 0.066 6.96 10.11 10.42
5/10/2021 12:15:00 AM 9.75 49.55 0.066 6.99 10.15 10.42
5/10/2021 12:30:00 AM 9.72 49.496 0.066 7 10.24 10.41
5/10/2021 12:45:00 AM 9.7 49.46 0.066 7 10.2 10.38
5/10/2021 1:00:00 AM 9.69 49.442 0.066 6.99 10.05 10.37
5/10/2021 1:15:00 AM 9.68 49.424 0.066 6.95 10.11 10.37
5/10/2021 1:30:00 AM 9.67 49.406 0.067 6.97 10.19 10.34
5/10/2021 1:45:00 AM 9.67 49.406 0.067 6.98 10.08 10.33
5/10/2021 2:00:00 AM 9.67 49.406 0.067 6.99 10.27 10.32
5/10/2021 2:15:00 AM 9.67 49.406 0.067 6.97 10.24 10.3
5/10/2021 2:30:00 AM 9.68 49.424 0.067 6.97 10.31 10.3
5/10/2021 2:45:00 AM 9.69 49.442 0.067 6.95 12.41 10.29
5/10/2021 3:00:00 AM 9.69 49.442 0.067 6.97 10.09 10.27
5/10/2021 3:15:00 AM 9.7 49.46 0.067 6.95 10.28 10.25
5/10/2021 3:30:00 AM 9.7 49.46 0.068 6.96 10.06 10.25
5/10/2021 3:45:00 AM 9.71 49.478 0.068 6.91 10.16 10.25
5/10/2021 4:00:00 AM 9.71 49.478 0.068 6.96 10.37 10.25
5/10/2021 4:15:00 AM 9.71 49.478 0.068 6.97 10.05 10.26
5/10/2021 4:30:00 AM 9.7 49.46 0.068 6.91 10.07 10.24
5/10/2021 4:45:00 AM 9.69 49.442 0.068 6.95 10.29 10.25
5/10/2021 5:00:00 AM 9.69 49.442 0.068 6.96 10.16 10.23
5/10/2021 5:15:00 AM 9.69 49.442 0.068 6.94 10.04 10.24
5/10/2021 5:30:00 AM 9.69 49.442 0.068 6.9 9.91 10.22
5/10/2021 5:45:00 AM 9.68 49.424 0.068 6.96 10.09 10.22
5/10/2021 6:00:00 AM 9.67 49.406 0.068 6.94 9.88 10.21
5/10/2021 6:15:00 AM 9.65 49.37 0.068 6.94 9.74 10.23
5/10/2021 6:30:00 AM 9.62 49.316 0.068 6.95 10.07 10.25
5/10/2021 6:45:00 AM 9.57 49.226 0.067 6.93 10.14 10.28
5/10/2021 7:00:00 AM 9.53 49.154 0.067 6.94 9.98 10.29
5/10/2021 7:15:00 AM 9.49 49.082 0.066 6.93 9.78 10.32
5/10/2021 7:30:00 AM 9.46 49.028 0.066 6.94 9.87 10.34
5/10/2021 7:45:00 AM 9.44 48.992 0.066 6.93 9.9 10.37
5/10/2021 8:00:00 AM 9.42 48.956 0.066 6.9 9.91 10.38
5/10/2021 8:15:00 AM 9.43 48.974 0.066 6.91 9.87 10.43
5/10/2021 8:30:00 AM 9.45 49.01 0.066 6.96 9.94 10.47
5/10/2021 8:45:00 AM 9.47 49.046 0.066 6.96 9.91 10.5
5/10/2021 9:00:00 AM 9.51 49.118 0.066 6.92 10.03 10.55
5/10/2021 9:15:00 AM 9.54 49.172 0.066 6.94 9.87 10.6
5/10/2021 9:30:00 AM 9.57 49.226 0.066 6.98 9.87 10.64
5/10/2021 9:45:00 AM 9.6 49.28 0.066 6.96 10.12 10.69
5/10/2021 10:00:00 AM 9.63 49.334 0.066 7.01 9.75 10.73
5/10/2021 10:15:00 AM 9.66 49.388 0.066 7.03 9.82 10.8
5/10/2021 10:30:00 AM 9.67 49.406 0.066 7.04 9.95 10.84
5/10/2021 10:45:00 AM 9.69 49.442 0.067 6.99 9.7 10.88
5/10/2021 11:00:00 AM 9.71 49.478 0.067 7.03 9.74 10.92
5/10/2021 11:15:00 AM 9.74 49.532 0.067 7.06 9.8 10.98
5/10/2021 11:30:00 AM 9.76 49.568 0.066 7.08 9.76 11.03
5/10/2021 11:45:00 AM 9.82 49.676 0.066 7.05 9.67 11.08
5/10/2021 12:00:00 PM 9.85 49.73 0.066 7.09 9.85 11.13
5/10/2021 12:15:00 PM 9.9 49.82 0.066 7.06 9.76 11.18
5/10/2021 12:30:00 PM 9.97 49.946 0.066 7.11 9.76 11.25
5/10/2021 12:45:00 PM 10 50 0.065 7.12 10.01 11.3
5/10/2021 1:00:00 PM 10.02 50.036 0.065 7.08 9.97 11.34
5/10/2021 1:15:00 PM 10.07 50.126 0.065 7.08 10.02 11.4
5/10/2021 1:30:00 PM 10.14 50.252 0.065 7.09 9.76 11.43
5/10/2021 1:45:00 PM 10.18 50.324 0.065 7.12 9.85 11.44
5/10/2021 2:00:00 PM 10.3 50.54 0.065 7.15 9.73 11.48
5/10/2021 2:15:00 PM 10.39 50.702 0.065 7.19 9.69 11.5
5/10/2021 2:30:00 PM 10.51 50.918 0.065 7.2 9.74 11.55
5/10/2021 2:45:00 PM 10.58 51.044 0.065 7.21 9.78 11.56
5/10/2021 3:00:00 PM 10.67 51.206 0.065 7.18 9.83 11.57
5/10/2021 3:15:00 PM 10.77 51.386 0.065 7.22 9.83 11.56
5/10/2021 3:30:00 PM 10.83 51.494 0.065 7.24 9.71 11.58
5/10/2021 3:45:00 PM 10.87 51.566 0.065 7.27 9.65 11.57
5/10/2021 4:00:00 PM 10.9 51.62 0.065 7.26 9.6 11.58
5/10/2021 4:15:00 PM 10.92 51.656 0.065 7.28 9.75 11.6
5/10/2021 4:30:00 PM 10.93 51.674 0.065 7.2 10.17 11.6
5/10/2021 4:45:00 PM 11 51.8 0.065 7.29 9.71 11.63
5/10/2021 5:00:00 PM 11.03 51.854 0.065 7.29 9.75 11.64
5/10/2021 5:15:00 PM 11.07 51.926 0.065 7.29 9.58 11.65
5/10/2021 5:30:00 PM 11.07 51.926 0.064 7.29 9.83 11.65
5/10/2021 5:45:00 PM 11.04 51.872 0.064 7.27 9.76 11.66
5/10/2021 6:00:00 PM 10.99 51.782 0.064 7.27 9.69 11.65
5/10/2021 6:15:00 PM 10.97 51.746 0.064 7.23 9.99 11.65
5/10/2021 6:30:00 PM 10.94 51.692 0.063 7.25 10 11.63
5/10/2021 6:45:00 PM 10.88 51.584 0.063 7.25 10.16 11.6
5/10/2021 7:00:00 PM 10.86 51.548 0.063 7.24 9.99 11.59
5/10/2021 7:15:00 PM 10.8 51.44 0.063 7.25 9.78 11.54
5/10/2021 7:30:00 PM 10.77 51.386 0.063 7.21 9.92 11.51
5/10/2021 7:45:00 PM 10.72 51.296 0.063 7.18 9.83 11.46
5/10/2021 8:00:00 PM 10.68 51.224 0.063 7.22 9.8 11.43
5/10/2021 8:15:00 PM 10.62 51.116 0.063 7.17 9.97 11.38
5/10/2021 8:30:00 PM 10.59 51.062 0.063 7.19 9.87 11.34
5/10/2021 8:45:00 PM 10.54 50.972 0.063 7.16 9.76 11.31
5/10/2021 9:00:00 PM 10.47 50.846 0.063 7.09 9.86 11.23
5/10/2021 9:15:00 PM 10.44 50.792 0.063 7.1 9.78 11.18
5/10/2021 9:30:00 PM 10.39 50.702 0.063 7.08 10.1 11.12
5/10/2021 9:45:00 PM 10.35 50.63 0.063 7.09 9.96 11.06
5/10/2021 10:00:00 PM 10.29 50.522 0.062 7.07 9.87 11.01
5/10/2021 10:15:00 PM 10.28 50.504 0.062 7.06 10.08 10.96
5/10/2021 10:30:00 PM 10.24 50.432 0.062 7.04 10.11 10.92
5/10/2021 10:45:00 PM 10.19 50.342 0.062 7.03 10.19 10.9
5/10/2021 11:00:00 PM 10.17 50.306 0.062 7.04 10.12 10.87
5/10/2021 11:15:00 PM 10.13 50.234 0.062 7.02 10.1 10.85
5/10/2021 11:30:00 PM 10.09 50.162 0.063 6.98 10.47 10.84
5/10/2021 11:45:00 PM 10.07 50.126 0.063 6.99 10.07 10.81
5/11/2021 12:00:00 AM 10.04 50.072 0.063 6.98 10.26 10.79
5/11/2021 12:15:00 AM 10.02 50.036 0.063 6.97 10.36 10.76
5/11/2021 12:30:00 AM 10 50 0.063 6.97 10.15 10.73
5/11/2021 12:45:00 AM 9.97 49.946 0.062 6.99 10.43 10.74
5/11/2021 1:00:00 AM 9.95 49.91 0.063 6.96 10.33 10.7
5/11/2021 1:15:00 AM 9.92 49.856 0.063 6.95 10.3 10.69
5/11/2021 1:30:00 AM 9.89 49.802 0.063 6.97 10.38 10.66
5/11/2021 1:45:00 AM 9.87 49.766 0.063 6.93 10.41 10.68
5/11/2021 2:00:00 AM 9.84 49.712 0.063 6.97 10.45 10.64
5/11/2021 2:15:00 AM 9.82 49.676 0.063 6.95 10.52 10.62
5/11/2021 2:30:00 AM 9.79 49.622 0.063 6.95 10.73 10.63
5/11/2021 2:45:00 AM 9.76 49.568 0.063 6.95 10.57 10.61
5/11/2021 3:00:00 AM 9.74 49.532 0.063 6.95 10.68 10.63
5/11/2021 3:15:00 AM 9.72 49.496 0.063 6.94 10.81 10.59
5/11/2021 3:30:00 AM 9.7 49.46 0.063 6.93 10.8 10.64
5/11/2021 3:45:00 AM 9.68 49.424 0.063 6.86 10.87 10.6
5/11/2021 4:00:00 AM 9.65 49.37 0.063 6.93 10.98 10.56
5/11/2021 4:15:00 AM 9.63 49.334 0.063 6.9 10.66 10.59
5/11/2021 4:30:00 AM 9.6 49.28 0.063 6.92 10.55 10.57
5/11/2021 4:45:00 AM 9.58 49.244 0.063 6.92 10.52 10.58
5/11/2021 5:00:00 AM 9.55 49.19 0.063 6.92 10.59 10.56
5/11/2021 5:15:00 AM 9.52 49.136 0.063 6.87 10.43 10.57
5/11/2021 5:30:00 AM 9.5 49.1 0.063 6.92 10.36 10.56
5/11/2021 5:45:00 AM 9.47 49.046 0.063 6.86 10.39 10.56
5/11/2021 6:00:00 AM 9.44 48.992 0.063 6.91 10.22 10.53
5/11/2021 6:15:00 AM 9.42 48.956 0.063 6.91 10.35 10.54
5/11/2021 6:30:00 AM 9.39 48.902 0.063 6.9 10.36 10.53
5/11/2021 6:45:00 AM 9.37 48.866 0.063 6.86 10.27 10.55
5/11/2021 7:00:00 AM 9.35 48.83 0.063 6.87 10.05 10.55
5/11/2021 7:15:00 AM 9.32 48.776 0.063 6.87 10.08 10.54
5/11/2021 7:30:00 AM 9.32 48.776 0.063 6.89 10.05 10.58
5/11/2021 7:45:00 AM 9.34 48.812 0.063 6.9 9.9 10.63
5/11/2021 8:00:00 AM 9.36 48.848 0.063 6.88 9.91 10.67
5/11/2021 8:15:00 AM 9.39 48.902 0.063 6.93 9.84 10.72
5/11/2021 8:30:00 AM 9.44 48.992 0.063 6.9 9.76 10.78
5/11/2021 8:45:00 AM 9.51 49.118 0.063 6.94 9.7 10.85
5/11/2021 9:00:00 AM 9.59 49.262 0.063 6.99 9.62 10.95
5/11/2021 9:15:00 AM 9.67 49.406 0.063 6.97 9.76 11.02
5/11/2021 9:30:00 AM 9.77 49.586 0.063 7.03 9.72 11.08
5/11/2021 9:45:00 AM 9.87 49.766 0.063 6.99 9.7 11.12
5/11/2021 10:00:00 AM 9.98 49.964 0.063 7.07 9.65 11.17
5/11/2021 10:15:00 AM 10.08 50.144 0.063 7.07 9.69 11.24
5/11/2021 10:30:00 AM 10.22 50.396 0.063 7.1 9.61 11.31
5/11/2021 10:45:00 AM 10.35 50.63 0.063 7.07 9.64 11.34
5/11/2021 11:00:00 AM 10.5 50.9 0.063 7.13 9.7 11.38
5/11/2021 11:15:00 AM 10.62 51.116 0.063 7.15 9.67 11.44
5/11/2021 11:30:00 AM 10.74 51.332 0.063 7.15 9.8 11.47
5/11/2021 11:45:00 AM 10.85 51.53 0.063 7.18 9.51 11.5
5/11/2021 12:00:00 PM 10.92 51.656 0.063 7.13 9.5 11.49
5/11/2021 12:15:00 PM 10.99 51.782 0.063 7.2 9.51 11.52
5/11/2021 12:30:00 PM 11.1 51.98 0.063 7.19 9.5 11.59
5/11/2021 12:45:00 PM 11.16 52.088 0.063 7.23 9.58 11.58
5/11/2021 1:00:00 PM 11.18 52.124 0.063 7.25 9.47 11.6
5/11/2021 1:15:00 PM 11.2 52.16 0.064 7.19 9.5 11.6
5/11/2021 1:30:00 PM 11.21 52.178 0.064 7.24 9.63 11.61
5/11/2021 1:45:00 PM 11.19 52.142 0.064 7.25 9.37 11.6
5/11/2021 2:00:00 PM 11.19 52.142 0.064 7.25 9.46 11.61
5/11/2021 2:15:00 PM 11.19 52.142 0.064 7.26 9.55 11.61
5/11/2021 2:30:00 PM 11.2 52.16 0.064 7.26 9.59 11.61
5/11/2021 2:45:00 PM 11.26 52.268 0.064 7.29 9.33 11.61
5/11/2021 3:00:00 PM 11.3 52.34 0.064 7.22 9.51 11.59
5/11/2021 3:15:00 PM 11.38 52.484 0.064 7.29 9.41 11.61
5/11/2021 3:30:00 PM 11.47 52.646 0.064 7.32 9.51 11.64
5/11/2021 3:45:00 PM 11.49 52.682 0.064 7.27 9.72 11.59
5/11/2021 4:00:00 PM 11.53 52.754 0.063 7.32 9.57 11.59
5/11/2021 4:15:00 PM 11.54 52.772 0.063 7.29 9.26 11.6
5/11/2021 4:30:00 PM 11.55 52.79 0.063 7.3 9.4 11.58
5/11/2021 4:45:00 PM 11.57 52.826 0.063 7.29 9.39 11.59
5/11/2021 5:00:00 PM 11.57 52.826 0.063 7.31 9.33 11.59
5/11/2021 5:15:00 PM 11.57 52.826 0.063 7.29 9.38 11.59
5/11/2021 5:30:00 PM 11.55 52.79 0.063 7.34 9.26 11.6
5/11/2021 5:45:00 PM 11.48 52.664 0.063 7.32 9.28 11.57
5/11/2021 6:00:00 PM 11.44 52.592 0.063 7.33 9.36 11.56
5/11/2021 6:15:00 PM 11.37 52.466 0.063 7.31 9.4 11.53
5/11/2021 6:30:00 PM 11.33 52.394 0.063 7.3 9.3 11.5
5/11/2021 6:45:00 PM 11.24 52.232 0.063 7.26 9.37 11.45
5/11/2021 7:00:00 PM 11.19 52.142 0.063 7.29 9.38 11.42
5/11/2021 7:15:00 PM 11.11 51.998 0.063 7.26 9.39 11.38
5/11/2021 7:30:00 PM 11.08 51.944 0.063 7.26 9.26 11.37
5/11/2021 7:45:00 PM 10.98 51.764 0.063 7.22 9.27 11.34
5/11/2021 8:00:00 PM 10.9 51.62 0.062 7.22 9.27 11.28
5/11/2021 8:15:00 PM 10.79 51.422 0.062 7.2 9.52 11.23
5/11/2021 8:30:00 PM 10.71 51.278 0.062 7.21 9.86 11.2
5/11/2021 8:45:00 PM 10.61 51.098 0.062 7.17 9.22 11.16
5/11/2021 9:00:00 PM 10.53 50.954 0.062 7.17 9.44 11.12
5/11/2021 9:15:00 PM 10.44 50.792 0.062 7.14 9.42 11.08
5/11/2021 9:30:00 PM 10.37 50.666 0.062 7.13 9.59 11.03
5/11/2021 9:45:00 PM 10.3 50.54 0.062 7.11 9.59 10.98
5/11/2021 10:00:00 PM 10.22 50.396 0.062 7.07 9.61 10.95
5/11/2021 10:15:00 PM 10.16 50.288 0.062 7.1 9.59 10.92
5/11/2021 10:30:00 PM 10.08 50.144 0.062 7.07 9.7 10.89
5/11/2021 10:45:00 PM 10.01 50.018 0.062 7 9.59 10.87
5/11/2021 11:00:00 PM 9.95 49.91 0.063 7.07 9.59 10.83
5/11/2021 11:15:00 PM 9.89 49.802 0.063 7.05 9.71 10.81
5/11/2021 11:30:00 PM 9.83 49.694 0.063 6.98 10.06 10.76
5/11/2021 11:45:00 PM 9.78 49.604 0.063 7.01 9.79 10.74
5/12/2021 12:00:00 AM 9.72 49.496 0.063 6.98 9.89 10.74
5/12/2021 12:15:00 AM 9.66 49.388 0.063 6.98 9.8 10.71
5/12/2021 12:30:00 AM 9.6 49.28 0.063 6.98 9.83 10.73
5/12/2021 12:45:00 AM 9.55 49.19 0.063 7.01 10.02 10.73
5/12/2021 1:00:00 AM 9.51 49.118 0.063 7.01 10 10.73
5/12/2021 1:15:00 AM 9.47 49.046 0.062 6.99 9.98 10.71
5/12/2021 1:30:00 AM 9.43 48.974 0.062 6.97 9.97 10.69
5/12/2021 1:45:00 AM 9.4 48.92 0.062 6.98 9.94 10.69
5/12/2021 2:00:00 AM 9.37 48.866 0.062 6.91 10.39 10.66
5/12/2021 2:15:00 AM 9.33 48.794 0.062 6.93 9.83 10.67
5/12/2021 2:30:00 AM 9.31 48.758 0.062 6.93 10.11 10.66
5/12/2021 2:45:00 AM 9.27 48.686 0.062 6.97 10.06 10.66
5/12/2021 3:00:00 AM 9.24 48.632 0.062 6.93 9.94 10.66
5/12/2021 3:15:00 AM 9.2 48.56 0.062 6.96 10 10.66
5/12/2021 3:30:00 AM 9.17 48.506 0.062 6.94 9.95 10.66
5/12/2021 3:45:00 AM 9.14 48.452 0.061 6.89 9.94 10.67
5/12/2021 4:00:00 AM 9.08 48.344 0.061 6.91 10.15 10.67
5/12/2021 4:15:00 AM 9.02 48.236 0.061 6.9 9.83 10.65
5/12/2021 4:30:00 AM 8.98 48.164 0.061 6.9 9.9 10.65
5/12/2021 4:45:00 AM 8.96 48.128 0.061 6.9 9.78 10.66
5/12/2021 5:00:00 AM 8.91 48.038 0.061 6.94 9.91 10.63
5/12/2021 5:15:00 AM 8.9 48.02 0.061 6.91 9.7 10.66
5/12/2021 5:30:00 AM 8.87 47.966 0.061 6.93 9.71 10.64
5/12/2021 5:45:00 AM 8.86 47.948 0.061 6.94 9.65 10.64
5/12/2021 6:00:00 AM 8.86 47.948 0.061 6.93 9.7 10.66
5/12/2021 6:15:00 AM 8.85 47.93 0.061 6.84 9.71 10.65
5/12/2021 6:30:00 AM 8.84 47.912 0.062 6.93 9.62 10.65
5/12/2021 6:45:00 AM 8.85 47.93 0.062 6.91 9.63 10.66
5/12/2021 7:00:00 AM 8.87 47.966 0.062 6.87 9.48 10.68
5/12/2021 7:15:00 AM 8.86 47.948 0.062 6.91 9.53 10.68
5/12/2021 7:30:00 AM 8.87 47.966 0.062 6.94 9.39 10.7
5/12/2021 7:45:00 AM 8.89 48.002 0.062 6.94 9.57 10.71
5/12/2021 8:00:00 AM 8.91 48.038 0.063 6.95 9.37 10.74
5/12/2021 8:15:00 AM 8.95 48.11 0.063 6.85 9.3 10.78
5/12/2021 8:30:00 AM 8.98 48.164 0.063 6.95 9.23 10.82
5/12/2021 8:45:00 AM 9.01 48.218 0.063 6.92 9.41 10.86
5/12/2021 9:00:00 AM 9.06 48.308 0.063 6.96 9.29 10.91
5/12/2021 9:15:00 AM 9.14 48.452 0.063 6.95 9.12 10.98
5/12/2021 9:30:00 AM 9.26 48.668 0.063 7.01 9.14 11.05
5/12/2021 9:45:00 AM 9.37 48.866 0.063 7.01 9.05 11.11
5/12/2021 10:00:00 AM 9.52 49.136 0.063 7.05 9.13 11.18
5/12/2021 10:15:00 AM 9.67 49.406 0.063 7.08 9.1 11.25
5/12/2021 10:30:00 AM 9.81 49.658 0.063 7.04 9.1 11.33
5/12/2021 10:45:00 AM 9.98 49.964 0.063 7.12 9.14 11.38
5/12/2021 11:00:00 AM 10.16 50.288 0.063 7.14 9.08 11.45
5/12/2021 11:15:00 AM 10.33 50.594 0.063 7.15 8.99 11.52
5/12/2021 11:30:00 AM 10.51 50.918 0.063 7.18 9.01 11.55
5/12/2021 11:45:00 AM 10.69 51.242 0.063 7.09 9.04 11.63
5/12/2021 12:00:00 PM 10.89 51.602 0.063 7.21 9.02 11.65
5/12/2021 12:15:00 PM 11.08 51.944 0.063 7.16 8.96 11.69
5/12/2021 12:30:00 PM 11.24 52.232 0.063 7.25 8.89 11.75
5/12/2021 12:45:00 PM 11.41 52.538 0.063 7.18 8.88 11.75
5/12/2021 1:00:00 PM 11.57 52.826 0.063 7.26 8.92 11.8
5/12/2021 1:15:00 PM 11.73 53.114 0.063 7.3 8.92 11.78
5/12/2021 1:30:00 PM 11.85 53.33 0.063 7.29 8.88 11.79
5/12/2021 1:45:00 PM 12 53.6 0.063 7.33 8.9 11.83
5/12/2021 2:00:00 PM 12.13 53.834 0.063 7.31 9.03 11.84
5/12/2021 2:15:00 PM 12.24 54.032 0.063 7.34 8.86 11.82
5/12/2021 2:30:00 PM 12.37 54.266 0.063 7.37 10.58 11.84
5/12/2021 2:45:00 PM 12.44 54.392 0.063 7.37 8.97 11.84
5/12/2021 3:00:00 PM 12.53 54.554 0.063 7.33 8.93 11.84
5/12/2021 3:15:00 PM 12.56 54.608 0.063 7.41 8.85 11.82
5/12/2021 3:30:00 PM 12.6 54.68 0.063 7.41 9.02 11.82
5/12/2021 3:45:00 PM 12.55 54.59 0.063 7.43 8.86 11.81
5/12/2021 4:00:00 PM 12.52 54.536 0.063 7.44 8.98 11.82
5/12/2021 4:15:00 PM 12.49 54.482 0.063 7.37 8.78 11.8
5/12/2021 4:30:00 PM 12.39 54.302 0.063 7.4 8.79 11.76
5/12/2021 4:45:00 PM 12.39 54.302 0.063 7.45 8.74 11.79
5/12/2021 5:00:00 PM 12.33 54.194 0.063 7.44 8.7 11.79
5/12/2021 5:15:00 PM 12.26 54.068 0.063 7.44 8.65 11.75
5/12/2021 5:30:00 PM 12.26 54.068 0.063 7.37 8.83 11.74
5/12/2021 5:45:00 PM 12.22 53.996 0.063 7.42 9.23 11.71
5/12/2021 6:00:00 PM 12.19 53.942 0.063 7.44 8.69 11.71
5/12/2021 6:15:00 PM 12.19 53.942 0.063 7.44 8.62 11.73
5/12/2021 6:30:00 PM 12.17 53.906 0.062 7.42 8.7 11.73
5/12/2021 6:45:00 PM 12.03 53.654 0.062 7.4 8.92 11.65
5/12/2021 7:00:00 PM 11.98 53.564 0.062 7.4 8.89 11.65
5/12/2021 7:15:00 PM 11.93 53.474 0.062 7.44 8.86 11.63
5/12/2021 7:30:00 PM 11.86 53.348 0.062 7.42 8.9 11.6
5/12/2021 7:45:00 PM 11.81 53.258 0.062 7.41 8.82 11.58
5/12/2021 8:00:00 PM 11.72 53.096 0.062 7.39 8.95 11.52
5/12/2021 8:15:00 PM 11.64 52.952 0.062 7.3 8.8 11.44
5/12/2021 8:30:00 PM 11.57 52.826 0.062 7.31 9.19 11.37
5/12/2021 8:45:00 PM 11.51 52.718 0.062 7.31 9.01 11.29
5/12/2021 9:00:00 PM 11.44 52.592 0.062 7.26 8.87 11.21
5/12/2021 9:15:00 PM 11.39 52.502 0.062 7.24 8.88 11.14
5/12/2021 9:30:00 PM 11.34 52.412 0.063 7.21 8.91 11.08
5/12/2021 9:45:00 PM 11.29 52.322 0.063 7.12 8.97 11
5/12/2021 10:00:00 PM 11.25 52.25 0.063 7.12 9.05 10.93
5/12/2021 10:15:00 PM 11.21 52.178 0.063 7.13 9.15 10.88
5/12/2021 10:30:00 PM 11.16 52.088 0.063 7.14 9.38 10.82
5/12/2021 10:45:00 PM 11.11 51.998 0.063 7.11 9.42 10.77
5/12/2021 11:00:00 PM 11.05 51.89 0.063 7.1 9.28 10.73
5/12/2021 11:15:00 PM 11.01 51.818 0.063 7.08 9.42 10.7
5/12/2021 11:30:00 PM 10.95 51.71 0.063 7 9.49 10.66
5/12/2021 11:45:00 PM 10.9 51.62 0.063 7.02 9.53 10.63
5/13/2021 12:00:00 AM 10.83 51.494 0.063 7.05 9.36 10.59
5/13/2021 12:15:00 AM 10.78 51.404 0.063 7.03 9.46 10.56
5/13/2021 12:30:00 AM 10.72 51.296 0.063 7.01 9.48 10.53
5/13/2021 12:45:00 AM 10.65 51.17 0.063 7.04 9.63 10.52
5/13/2021 1:00:00 AM 10.61 51.098 0.063 7.01 9.57 10.5
5/13/2021 1:15:00 AM 10.56 51.008 0.063 6.97 9.3 10.48
5/13/2021 1:30:00 AM 10.51 50.918 0.063 7.01 9.38 10.47
5/13/2021 1:45:00 AM 10.48 50.864 0.063 6.99 9.45 10.45
5/13/2021 2:00:00 AM 10.43 50.774 0.063 7 9.59 10.43
5/13/2021 2:15:00 AM 10.38 50.684 0.063 6.89 9.58 10.43
5/13/2021 2:30:00 AM 10.34 50.612 0.063 6.98 9.74 10.4
5/13/2021 2:45:00 AM 10.31 50.558 0.063 6.97 9.47 10.41
5/13/2021 3:00:00 AM 10.26 50.468 0.063 6.92 9.46 10.42
5/13/2021 3:15:00 AM 10.22 50.396 0.063 6.93 9.58 10.38
5/13/2021 3:30:00 AM 10.19 50.342 0.063 6.97 9.6 10.38
5/13/2021 3:45:00 AM 10.13 50.234 0.063 6.96 9.58 10.39
5/13/2021 4:00:00 AM 10.11 50.198 0.064 6.97 9.72 10.4
5/13/2021 4:15:00 AM 10.07 50.126 0.064 6.94 9.66 10.4
5/13/2021 4:30:00 AM 10.03 50.054 0.064 6.91 9.53 10.39
5/13/2021 4:45:00 AM 10 50 0.064 6.92 9.65 10.4
5/13/2021 5:00:00 AM 9.96 49.928 0.064 6.88 9.54 10.38
5/13/2021 5:15:00 AM 9.92 49.856 0.064 6.96 9.57 10.36
5/13/2021 5:30:00 AM 9.89 49.802 0.064 6.91 9.64 10.36
5/13/2021 5:45:00 AM 9.85 49.73 0.064 6.92 9.55 10.37
5/13/2021 6:00:00 AM 9.83 49.694 0.064 6.92 9.56 10.35
5/13/2021 6:15:00 AM 9.81 49.658 0.064 6.95 9.66 10.36
5/13/2021 6:30:00 AM 9.78 49.604 0.064 6.86 9.47 10.35
5/13/2021 6:45:00 AM 9.75 49.55 0.064 6.94 9.55 10.37
5/13/2021 7:00:00 AM 9.72 49.496 0.064 6.88 9.32 10.39
5/13/2021 7:15:00 AM 9.7 49.46 0.064 6.9 9.24 10.4
5/13/2021 7:30:00 AM 9.68 49.424 0.064 6.94 9.4 10.41
5/13/2021 7:45:00 AM 9.66 49.388 0.064 6.95 9.05 10.42
5/13/2021 8:00:00 AM 9.7 49.46 0.063 6.92 9.23 10.46
5/13/2021 8:15:00 AM 9.75 49.55 0.063 6.92 9.22 10.52
5/13/2021 8:30:00 AM 9.82 49.676 0.063 6.98 9.09 10.59
5/13/2021 8:45:00 AM 9.9 49.82 0.063 6.97 9.08 10.66
5/13/2021 9:00:00 AM 10.01 50.018 0.063 6.94 9 10.76
5/13/2021 9:15:00 AM 10.12 50.216 0.063 6.98 8.88 10.84
5/13/2021 9:30:00 AM 10.23 50.414 0.063 6.99 8.95 10.92
5/13/2021 9:45:00 AM 10.38 50.684 0.063 7.01 9.08 10.97
5/13/2021 10:00:00 AM 10.52 50.936 0.063 7.06 9.07 11.04
5/13/2021 10:15:00 AM 10.65 51.17 0.063 7.03 8.83 11.11
5/13/2021 10:30:00 AM 10.8 51.44 0.063 7.09 8.95 11.14
5/13/2021 10:45:00 AM 10.93 51.674 0.063 7.1 9.01 11.2
5/13/2021 11:00:00 AM 11.09 51.962 0.063 7.05 8.84 11.27
5/13/2021 11:15:00 AM 11.22 52.196 0.063 7.15 8.96 11.29
5/13/2021 11:30:00 AM 11.4 52.52 0.063 7.12 8.97 11.36
5/13/2021 11:45:00 AM 11.58 52.844 0.063 7.18 8.97 11.43
5/13/2021 12:00:00 PM 11.77 53.186 0.063 7.17 9.15 11.48
5/13/2021 12:15:00 PM 11.95 53.51 0.063 7.23 9.12 11.54
5/13/2021 12:30:00 PM 12.09 53.762 0.063 7.23 9.56 11.55
5/13/2021 12:45:00 PM 12.26 54.068 0.063 7.26 9.09 11.61
5/13/2021 1:00:00 PM 12.44 54.392 0.063 7.26 9.09 11.64
5/13/2021 1:15:00 PM 12.6 54.68 0.063 7.26 8.93 11.65
5/13/2021 1:30:00 PM 12.69 54.842 0.063 7.32 9.04 11.67
5/13/2021 1:45:00 PM 12.79 55.022 0.063 7.32 8.91 11.66
5/13/2021 2:00:00 PM 12.89 55.202 0.063 7.33 9.05 11.69
5/13/2021 2:15:00 PM 13 55.4 0.063 7.32 8.96 11.73
5/13/2021 2:30:00 PM 13.14 55.652 0.063 7.42 8.92 11.73
5/13/2021 2:45:00 PM 13.18 55.724 0.063 7.37 9.02 11.7
5/13/2021 3:00:00 PM 13.22 55.796 0.063 7.42 8.9 11.67
5/13/2021 3:15:00 PM 13.29 55.922 0.063 7.45 9.06 11.71
5/13/2021 3:30:00 PM 13.37 56.066 0.063 7.46 8.87 11.71
5/13/2021 3:45:00 PM 13.41 56.138 0.063 7.42 8.91 11.71
5/13/2021 4:00:00 PM 13.42 56.156 0.063 7.49 8.87 11.71
5/13/2021 4:15:00 PM 13.43 56.174 0.063 7.48 8.95 11.7
5/13/2021 4:30:00 PM 13.4 56.12 0.063 7.41 8.92 11.65
5/13/2021 4:45:00 PM 13.41 56.138 0.063 7.49 8.89 11.63
5/13/2021 5:00:00 PM 13.43 56.174 0.063 7.41 8.85 11.64
5/13/2021 5:15:00 PM 13.36 56.048 0.063 7.43 8.8 11.59
5/13/2021 5:30:00 PM 13.36 56.048 0.063 7.48 8.83 11.59
5/13/2021 5:45:00 PM 13.33 55.994 0.063 7.46 8.95 11.58
5/13/2021 6:00:00 PM 13.32 55.976 0.063 7.48 8.84 11.59
5/13/2021 6:15:00 PM 13.3 55.94 0.063 7.51 8.8 11.6
5/13/2021 6:30:00 PM 13.21 55.778 0.063 7.48 9.01 11.54
5/13/2021 6:45:00 PM 13.15 55.67 0.063 7.44 9.07 11.56
5/13/2021 7:00:00 PM 13.06 55.508 0.063 7.48 9 11.53
5/13/2021 7:15:00 PM 12.94 55.292 0.063 7.46 9.04 11.49
5/13/2021 7:30:00 PM 12.88 55.184 0.063 7.42 8.99 11.46
5/13/2021 7:45:00 PM 12.79 55.022 0.063 7.44 9.08 11.41
5/13/2021 8:00:00 PM 12.7 54.86 0.063 7.38 9.13 11.35
5/13/2021 8:15:00 PM 12.61 54.698 0.063 7.34 9.03 11.29
5/13/2021 8:30:00 PM 12.54 54.572 0.063 7.35 8.96 11.23
5/13/2021 8:45:00 PM 12.46 54.428 0.063 7.29 8.91 11.13
5/13/2021 9:00:00 PM 12.38 54.284 0.062 7.28 5512.56 11.04
5/13/2021 9:15:00 PM 12.3 54.14 0.062 7.22 5438.05 10.95
5/13/2021 9:30:00 PM 12.25 54.05 0.062 7.21 5180.3 10.88
5/13/2021 9:45:00 PM 12.19 53.942 0.062 7.19 5169.52 10.79
5/13/2021 10:00:00 PM 12.13 53.834 0.062 7.17 5428.02 10.74
5/13/2021 10:15:00 PM 12.09 53.762 0.062 7.15 5577.22 10.66
5/13/2021 10:30:00 PM 12.04 53.672 0.062 7.12 5552.62 10.6
5/13/2021 10:45:00 PM 12 53.6 0.062 7.11 5682.17 10.53
5/13/2021 11:00:00 PM 11.94 53.492 0.062 7.11 5080.39 10.47
5/13/2021 11:15:00 PM 11.9 53.42 0.062 7.12 4378.14 10.43
5/13/2021 11:30:00 PM 11.85 53.33 0.062 7.1 3481.78 10.39
5/13/2021 11:45:00 PM 11.81 53.258 0.062 7.07 3298.37 10.35
5/14/2021 12:00:00 AM 11.75 53.15 0.062 7.07 3424.58 10.32
5/14/2021 12:15:00 AM 11.71 53.078 0.062 7.03 3392.69 10.29
5/14/2021 12:30:00 AM 11.66 52.988 0.062 7.06 3401.47 10.27
5/14/2021 12:45:00 AM 11.62 52.916 0.062 7.04 3140.19 10.23
5/14/2021 1:00:00 AM 11.57 52.826 0.062 7.03 3591.86 10.2
5/14/2021 1:15:00 AM 11.52 52.736 0.062 6.99 3500.39 10.17
5/14/2021 1:30:00 AM 11.46 52.628 0.062 7.02 3237.21 10.15
5/14/2021 1:45:00 AM 11.4 52.52 0.063 7.01 3570.98 10.13
5/14/2021 2:00:00 AM 11.34 52.412 0.063 6.98 3464.6 10.13
5/14/2021 2:15:00 AM 11.28 52.304 0.063 7 3556.94 10.1
5/14/2021 2:30:00 AM 11.22 52.196 0.063 7 3528.02 10.11
5/14/2021 2:45:00 AM 11.15 52.07 0.063 7 3099.93 10.11
5/14/2021 3:00:00 AM 11.1 51.98 0.063 7 2994.64 10.12
5/14/2021 3:15:00 AM 11.07 51.926 0.063 7 3000.87 10.07
5/14/2021 3:30:00 AM 11.02 51.836 0.063 6.99 3037.26 10.09
5/14/2021 3:45:00 AM 10.96 51.728 0.063 6.91 3468.85 10.05
5/14/2021 4:00:00 AM 10.93 51.674 0.064 6.99 3047.1 10.1
5/14/2021 4:15:00 AM 10.88 51.584 0.064 6.93 2593.48 10.08
5/14/2021 4:30:00 AM 10.85 51.53 0.064 6.98 2663.71 10.09
5/14/2021 4:45:00 AM 10.82 51.476 0.064 6.94 2583.75 10.09
5/14/2021 5:00:00 AM 10.78 51.404 0.064 6.95 2432.27 10.11
5/14/2021 5:15:00 AM 10.75 51.35 0.064 6.97 2863.74 10.07
5/14/2021 5:30:00 AM 10.73 51.314 0.064 6.97 2366.72 10.1
5/14/2021 5:45:00 AM 10.68 51.224 0.064 6.91 2585.47 10.08
5/14/2021 6:00:00 AM 10.65 51.17 0.064 6.97 2228.43 10.06
5/14/2021 6:15:00 AM 10.61 51.098 0.064 6.96 2151.66 10.08
5/14/2021 6:30:00 AM 10.59 51.062 0.064 6.97 2593.82 10.09
5/14/2021 6:45:00 AM 10.58 51.044 0.064 6.97 2763.09 10.09
5/14/2021 7:00:00 AM 10.55 50.99 0.064 6.97 2090.64 10.11
5/14/2021 7:15:00 AM 10.53 50.954 0.064 6.91 2775.96 10.11
5/14/2021 7:30:00 AM 10.52 50.936 0.064 6.97 2167.66 10.14
5/14/2021 7:45:00 AM 10.51 50.918 0.064 6.98 2472.17 10.16
5/14/2021 8:00:00 AM 10.54 50.972 0.064 6.99 2497.84 10.19
5/14/2021 8:15:00 AM 10.56 51.008 0.064 6.99 2238.38 10.23
5/14/2021 8:30:00 AM 10.63 51.134 0.064 7.01 1967.71 10.3
5/14/2021 8:45:00 AM 10.72 51.296 0.064 7.02 1958.32 10.37
5/14/2021 9:00:00 AM 10.81 51.458 0.064 7.04 1798.91 10.49
5/14/2021 9:15:00 AM 10.93 51.674 0.064 7.06 1536.25 10.58
5/14/2021 9:30:00 AM 11.05 51.89 0.064 7.08 1225.66 10.65
5/14/2021 9:45:00 AM 11.19 52.142 0.063 7.07 1061.85 10.73
5/14/2021 10:00:00 AM 11.35 52.43 0.063 7.05 1129.83 10.83
5/14/2021 10:15:00 AM 11.51 52.718 0.063 7.13 1132.86 10.87
5/14/2021 10:30:00 AM 11.68 53.024 0.063 7.14 869.89 10.93
5/14/2021 10:45:00 AM 11.85 53.33 0.063 7.16 745.26 11
5/14/2021 11:00:00 AM 12.01 53.618 0.063 7.17 631.87 11.04
5/14/2021 11:15:00 AM 12.18 53.924 0.063 7.14 590.99 11.12
5/14/2021 11:30:00 AM 12.38 54.284 0.063 7.17 555.51 11.15
5/14/2021 11:45:00 AM 12.57 54.626 0.063 7.19 593.27 11.22
5/14/2021 12:00:00 PM 12.78 55.004 0.063 7.22 487.33 11.28
5/14/2021 12:15:00 PM 13.01 55.418 0.063 7.24 430.61 11.36
5/14/2021 12:30:00 PM 13.22 55.796 0.063 7.27 317.25 11.41
5/14/2021 12:45:00 PM 13.41 56.138 0.063 7.28 297.07 11.45
5/14/2021 1:00:00 PM 13.53 56.354 0.063 7.34 293.33 11.5
5/14/2021 1:15:00 PM 13.81 56.858 0.063 7.36 270.13 11.59
5/14/2021 1:30:00 PM 13.86 56.948 0.063 7.4 242.14 11.59
5/14/2021 1:45:00 PM 13.99 57.182 0.063 7.37 195.8 11.63
5/14/2021 2:00:00 PM 14.08 57.344 0.063 7.43 191.51 11.65
5/14/2021 2:15:00 PM 14.06 57.308 0.063 7.43 206.49 11.63
5/14/2021 2:30:00 PM 14.08 57.344 0.063 7.42 198.3 11.66
5/14/2021 2:45:00 PM 14.1 57.38 0.063 7.45 180.94 11.67
5/14/2021 3:00:00 PM 14.13 57.434 0.064 7.38 14.74 11.63
5/14/2021 3:15:00 PM 14.22 57.596 0.064 7.47 14.72 11.65
5/14/2021 3:30:00 PM 14.37 57.866 0.064 7.39 14.35 11.62
5/14/2021 3:45:00 PM 14.44 57.992 0.064 7.47 14.29 11.62
5/14/2021 4:00:00 PM 14.53 58.154 0.064 7.49 14.39 11.62
5/14/2021 4:15:00 PM 14.67 58.406 0.064 7.5 21.26 11.61
5/14/2021 4:30:00 PM 14.73 58.514 0.064 7.52 19.66 11.59
5/14/2021 4:45:00 PM 14.73 58.514 0.064 7.44 24.15 11.56
5/14/2021 5:00:00 PM 14.7 58.46 0.064 7.5 24.37 11.51
5/14/2021 5:15:00 PM 14.7 58.46 0.064 7.53 25.35 11.53
5/14/2021 5:30:00 PM 14.69 58.442 0.064 7.48 22.72 11.53
5/14/2021 5:45:00 PM 14.69 58.442 0.064 7.58 18.49 11.55
5/14/2021 6:00:00 PM 14.64 58.352 0.064 7.59 18.72 11.5
5/14/2021 6:15:00 PM 14.57 58.226 0.064 7.53 18.73 11.45
5/14/2021 6:30:00 PM 14.51 58.118 0.064 7.55 18.89 11.41
5/14/2021 6:45:00 PM 14.5 58.1 0.064 7.46 18.95 11.37
5/14/2021 7:00:00 PM 14.49 58.082 0.064 7.46 18.53 11.31
5/14/2021 7:15:00 PM 14.51 58.118 0.064 7.46 18.51 11.28
5/14/2021 7:30:00 PM 14.46 58.028 0.064 7.43 18.6 11.23
5/14/2021 7:45:00 PM 14.41 57.938 0.065 7.43 18.99 11.19
5/14/2021 8:00:00 PM 14.35 57.83 0.065 7.47 19.32 11.17
5/14/2021 8:15:00 PM 14.3 57.74 0.065 7.42 19.2 11.13
5/14/2021 8:30:00 PM 14.23 57.614 0.065 7.44 19.44 11.05
5/14/2021 8:45:00 PM 14.14 57.452 0.065 7.37 19.51 10.91
5/14/2021 9:00:00 PM 14.07 57.326 0.065 7.33 19.24 10.81
5/14/2021 9:15:00 PM 13.98 57.164 0.065 7.29 19.48 10.7
5/14/2021 9:30:00 PM 13.92 57.056 0.065 7.23 19.87 10.59
5/14/2021 9:45:00 PM 13.87 56.966 0.065 7.2 19.61 10.49
5/14/2021 10:00:00 PM 13.79 56.822 0.065 7.18 19.71 10.42
5/14/2021 10:15:00 PM 13.72 56.696 0.065 7.18 19.45 10.35
5/14/2021 10:30:00 PM 13.66 56.588 0.065 7.06 19.59 10.27
5/14/2021 10:45:00 PM 13.6 56.48 0.065 7.15 19.61 10.22
5/14/2021 11:00:00 PM 13.53 56.354 0.065 7.1 19.81 10.13
5/14/2021 11:15:00 PM 13.46 56.228 0.065 7.11 20.24 10.09
5/14/2021 11:30:00 PM 13.42 56.156 0.065 7.08 20.46 10.03
5/14/2021 11:45:00 PM 13.37 56.066 0.065 7.04 20.61 9.98
5/15/2021 12:00:00 AM 13.32 55.976 0.065 7 20.57 9.93
5/15/2021 12:15:00 AM 13.28 55.904 0.065 6.98 20.54 9.87
5/15/2021 12:30:00 AM 13.22 55.796 0.065 7.04 20.01 9.84
5/15/2021 12:45:00 AM 13.16 55.688 0.065 7 20.31 9.81
5/15/2021 1:00:00 AM 13.1 55.58 0.065 7.03 20.47 9.76
5/15/2021 1:15:00 AM 13.02 55.436 0.065 7 20.56 9.75
5/15/2021 1:30:00 AM 12.96 55.328 0.065 6.99 20.22 9.72
5/15/2021 1:45:00 AM 12.89 55.202 0.065 7 21.2 9.69
5/15/2021 2:00:00 AM 12.83 55.094 0.065 6.94 19.9 9.67
5/15/2021 2:15:00 AM 12.78 55.004 0.065 6.96 19.89 9.63
5/15/2021 2:30:00 AM 12.7 54.86 0.064 6.96 19.69 9.63
5/15/2021 2:45:00 AM 12.65 54.77 0.064 6.95 20.06 9.62
5/15/2021 3:00:00 AM 12.59 54.662 0.064 6.96 19.94 9.61
5/15/2021 3:15:00 AM 12.54 54.572 0.064 6.89 19.64 9.6
5/15/2021 3:30:00 AM 12.49 54.482 0.064 6.95 20.56 9.55
5/15/2021 3:45:00 AM 12.44 54.392 0.064 6.96 19.62 9.57
5/15/2021 4:00:00 AM 12.39 54.302 0.065 6.95 20.14 9.57
5/15/2021 4:15:00 AM 12.34 54.212 0.065 6.92 20.68 9.57
5/15/2021 4:30:00 AM 12.3 54.14 0.065 6.94 20.72 9.56
5/15/2021 4:45:00 AM 12.25 54.05 0.065 6.91 21.46 9.57
5/15/2021 5:00:00 AM 12.21 53.978 0.065 6.82 14.72 9.57
5/15/2021 5:15:00 AM 12.15 53.87 0.065 6.85 13.47 9.54
5/15/2021 5:30:00 AM 12.11 53.798 0.065 6.87 15.67 9.57
5/15/2021 5:45:00 AM 12.06 53.708 0.065 6.94 18.07 9.56
5/15/2021 6:00:00 AM 12.03 53.654 0.065 6.91 17.79 9.56
5/15/2021 6:15:00 AM 11.99 53.582 0.065 6.92 17.44 9.58
5/15/2021 6:30:00 AM 11.94 53.492 0.065 6.91 17.32 9.59
5/15/2021 6:45:00 AM 11.88 53.384 0.065 6.83 17.27 9.61
5/15/2021 7:00:00 AM 11.86 53.348 0.066 6.95 16.54 9.62
5/15/2021 7:15:00 AM 11.81 53.258 0.066 6.88 17.1 9.61
5/15/2021 7:30:00 AM 11.79 53.222 0.066 6.93 17.85 9.65
5/15/2021 7:45:00 AM 11.76 53.168 0.066 6.9 17.26 9.65
5/15/2021 8:00:00 AM 11.74 53.132 0.066 6.95 17.78 9.7
5/15/2021 8:15:00 AM 11.78 53.204 0.066 6.92 17.81 9.75
5/15/2021 8:30:00 AM 11.82 53.276 0.066 6.9 17.64 9.85
5/15/2021 8:45:00 AM 11.89 53.402 0.066 6.93 17.59 9.95
5/15/2021 9:00:00 AM 11.98 53.564 0.066 6.97 17.54 10.05
5/15/2021 9:15:00 AM 12.1 53.78 0.066 7.04 17.72 10.17
5/15/2021 9:30:00 AM 12.21 53.978 0.066 6.97 17.72 10.26
5/15/2021 9:45:00 AM 12.34 54.212 0.066 7.08 17.62 10.38
5/15/2021 10:00:00 AM 12.5 54.5 0.066 7.1 17.76 10.44
5/15/2021 10:15:00 AM 12.67 54.806 0.066 7.11 17.58 10.56
5/15/2021 10:30:00 AM 12.84 55.112 0.066 7.07 17.47 10.64
5/15/2021 10:45:00 AM 13.02 55.436 0.066 7.17 17.51 10.72
5/15/2021 11:00:00 AM 13.17 55.706 0.065 7.19 17.51 10.8
5/15/2021 11:15:00 AM 13.31 55.958 0.065 7.17 17.52 10.85
5/15/2021 11:30:00 AM 13.52 56.336 0.065 7.23 17.55 10.93
5/15/2021 11:45:00 AM 13.73 56.714 0.065 7.17 17.65 10.99
5/15/2021 12:00:00 PM 13.88 56.984 0.065 7.28 17.48 11.03
5/15/2021 12:15:00 PM 14.08 57.344 0.065 7.29 17.36 11.1
5/15/2021 12:30:00 PM 14.27 57.686 0.065 7.3 17.43 11.19
5/15/2021 12:45:00 PM 14.36 57.848 0.065 7.36 16.92 11.23
5/15/2021 1:00:00 PM 14.52 58.136 0.065 7.37 17.37 11.25
5/15/2021 1:15:00 PM 14.7 58.46 0.065 7.39 17.48 11.31
5/15/2021 1:30:00 PM 14.83 58.694 0.065 7.44 17.11 11.36
5/15/2021 1:45:00 PM 14.93 58.874 0.065 7.46 17.19 11.39
5/15/2021 2:00:00 PM 15.06 59.108 0.065 7.5 17.49 11.44
5/15/2021 2:15:00 PM 15.16 59.288 0.065 7.43 17.35 11.45
5/15/2021 2:30:00 PM 15.34 59.612 0.065 7.48 17.26 11.49
5/15/2021 2:45:00 PM 15.46 59.828 0.065 7.52 17.4 11.47
5/15/2021 3:00:00 PM 15.49 59.882 0.065 7.56 17.2 11.47
5/15/2021 3:15:00 PM 15.58 60.044 0.065 7.61 17.51 11.53
5/15/2021 3:30:00 PM 15.58 60.044 0.065 7.64 17.38 11.52
5/15/2021 3:45:00 PM 15.6 60.08 0.065 7.65 17.29 11.54
5/15/2021 4:00:00 PM 15.6 60.08 0.065 7.68 17.34 11.5
5/15/2021 4:15:00 PM 15.62 60.116 0.065 7.58 17.41 11.47
5/15/2021 4:30:00 PM 15.66 60.188 0.065 7.7 17.43 11.47
5/15/2021 4:45:00 PM 15.74 60.332 0.065 7.71 17.2 11.52
5/15/2021 5:00:00 PM 15.8 60.44 0.065 7.79 17.16 11.54
5/15/2021 5:15:00 PM 15.84 60.512 0.065 7.78 17.22 11.45
5/15/2021 5:30:00 PM 15.87 60.566 0.065 7.72 17.36 11.39
5/15/2021 5:45:00 PM 15.94 60.692 0.065 7.79 17.26 11.43
5/15/2021 6:00:00 PM 15.92 60.656 0.065 7.69 17.11 11.36
5/15/2021 6:15:00 PM 15.96 60.728 0.065 7.79 17.33 11.38
5/15/2021 6:30:00 PM 15.91 60.638 0.065 7.76 17.14 11.36
5/15/2021 6:45:00 PM 15.88 60.584 0.065 7.76 17.37 11.34
5/15/2021 7:00:00 PM 15.8 60.44 0.066 7.71 17.27 11.31
5/15/2021 7:15:00 PM 15.75 60.35 0.066 7.69 17.23 11.31
5/15/2021 7:30:00 PM 15.65 60.17 0.066 7.68 17.06 11.23
5/15/2021 7:45:00 PM 15.53 59.954 0.066 7.64 16.99 11.14
5/15/2021 8:00:00 PM 15.4 59.72 0.066 7.58 16.95 11.08
5/15/2021 8:15:00 PM 15.31 59.558 0.066 7.53 17 10.99
5/15/2021 8:30:00 PM 15.24 59.432 0.066 7.49 17.1 10.9
5/15/2021 8:45:00 PM 15.12 59.216 0.066 7.34 17.25 10.78
5/15/2021 9:00:00 PM 15.04 59.072 0.066 7.36 17.11 10.68
5/15/2021 9:15:00 PM 14.95 58.91 0.066 7.31 17.25 10.56
5/15/2021 9:30:00 PM 14.86 58.748 0.066 7.28 17.33 10.44
5/15/2021 9:45:00 PM 14.78 58.604 0.066 7.22 17.31 10.34
5/15/2021 10:00:00 PM 14.68 58.424 0.066 7.21 17.41 10.24
5/15/2021 10:15:00 PM 14.62 58.316 0.066 7.19 17.34 10.16
5/15/2021 10:30:00 PM 14.55 58.19 0.066 7.15 17.4 10.07
5/15/2021 10:45:00 PM 14.5 58.1 0.066 7.15 17.64 10
5/15/2021 11:00:00 PM 14.43 57.974 0.066 7.1 17.1 9.92
5/15/2021 11:15:00 PM 14.4 57.92 0.066 7.11 17.42 9.85
5/15/2021 11:30:00 PM 14.36 57.848 0.066 7.1 17.04 9.79
5/15/2021 11:45:00 PM 14.33 57.794 0.066 6.98 16.74 9.73
5/16/2021 12:00:00 AM 14.3 57.74 0.066 7.08 16.29 9.67
5/16/2021 12:15:00 AM 14.28 57.704 0.066 7.05 16.74 9.62
5/16/2021 12:30:00 AM 14.24 57.632 0.066 6.99 17.54 9.58
5/16/2021 12:45:00 AM 14.22 57.596 0.066 6.96 17.19 9.53
5/16/2021 1:00:00 AM 14.18 57.524 0.066 7.03 17.08 9.49
5/16/2021 1:15:00 AM 14.15 57.47 0.066 6.94 16.52 9.45
5/16/2021 1:30:00 AM 14.11 57.398 0.066 7.01 16.22 9.41
5/16/2021 1:45:00 AM 14.08 57.344 0.066 7.01 15.88 9.37
5/16/2021 2:00:00 AM 14.05 57.29 0.066 6.89 15.76 9.35
5/16/2021 2:15:00 AM 14 57.2 0.067 6.92 14.97 9.32
5/16/2021 2:30:00 AM 13.97 57.146 0.067 6.98 15.32 9.3
5/16/2021 2:45:00 AM 13.94 57.092 0.067 6.95 15.25 9.28
5/16/2021 3:00:00 AM 13.91 57.038 0.067 6.97 15.25 9.23
5/16/2021 3:15:00 AM 13.88 56.984 0.067 6.95 15.17 9.22
5/16/2021 3:30:00 AM 13.85 56.93 0.067 6.9 15.69 9.22
5/16/2021 3:45:00 AM 13.81 56.858 0.067 6.96 15.65 9.2
5/16/2021 4:00:00 AM 13.77 56.786 0.067 6.91 15.69 9.18
5/16/2021 4:15:00 AM 13.73 56.714 0.067 6.94 15.24 9.16
5/16/2021 4:30:00 AM 13.72 56.696 0.067 6.94 15.39 9.14
5/16/2021 4:45:00 AM 13.67 56.606 0.067 6.87 15.54 9.15
5/16/2021 5:00:00 AM 13.64 56.552 0.067 6.87 15.18 9.11
5/16/2021 5:15:00 AM 13.6 56.48 0.067 6.93 15.19 9.11
5/16/2021 5:30:00 AM 13.57 56.426 0.067 6.86 15.22 9.1
5/16/2021 5:45:00 AM 13.53 56.354 0.067 6.87 15.19 9.08
5/16/2021 6:00:00 AM 13.51 56.318 0.067 6.92 15.5 9.1
5/16/2021 6:15:00 AM 13.46 56.228 0.067 6.88 15.67 9.12
5/16/2021 6:30:00 AM 13.42 56.156 0.067 6.92 15.49 9.11
5/16/2021 6:45:00 AM 13.4 56.12 0.067 6.91 15.53 9.11
5/16/2021 7:00:00 AM 13.36 56.048 0.067 6.9 15.43 9.12
5/16/2021 7:15:00 AM 13.34 56.012 0.067 6.84 15.41 9.12
5/16/2021 7:30:00 AM 13.31 55.958 0.067 6.91 15.36 9.14
5/16/2021 7:45:00 AM 13.28 55.904 0.067 6.91 15.07 9.14
5/16/2021 8:00:00 AM 13.27 55.886 0.067 6.91 15.22 9.17
5/16/2021 8:15:00 AM 13.28 55.904 0.067 6.84 15.38 9.25
5/16/2021 8:30:00 AM 13.31 55.958 0.067 6.9 14.75 9.3
5/16/2021 8:45:00 AM 13.36 56.048 0.067 6.88 15.15 9.4
5/16/2021 9:00:00 AM 13.42 56.156 0.067 6.98 15.03 9.5
5/16/2021 9:15:00 AM 13.49 56.282 0.067 6.9 14.98 9.61
5/16/2021 9:30:00 AM 13.56 56.408 0.067 7.02 14.78 9.72
5/16/2021 9:45:00 AM 13.66 56.588 0.067 7.02 14.68 9.87
5/16/2021 10:00:00 AM 13.75 56.75 0.067 7 14.62 9.97
5/16/2021 10:15:00 AM 13.85 56.93 0.067 7.1 14.65 10.1
5/16/2021 10:30:00 AM 13.99 57.182 0.067 7.06 14.5 10.2
5/16/2021 10:45:00 AM 14.12 57.416 0.067 7.15 14.73 10.31
5/16/2021 11:00:00 AM 14.24 57.632 0.067 7.18 15 10.4
5/16/2021 11:15:00 AM 14.35 57.83 0.067 7.14 14.8 10.46
5/16/2021 11:30:00 AM 14.46 58.028 0.067 7.23 14.8 10.54
5/16/2021 11:45:00 AM 14.57 58.226 0.067 7.17 14.84 10.65
5/16/2021 12:00:00 PM 14.72 58.496 0.067 7.26 14.63 10.7
5/16/2021 12:15:00 PM 14.86 58.748 0.067 7.24 14.7 10.69
5/16/2021 12:30:00 PM 14.92 58.856 0.067 7.29 14.75 10.75
5/16/2021 12:45:00 PM 15 59 0.067 7.34 14.9 10.89
5/16/2021 1:00:00 PM 15.07 59.126 0.067 7.33 14.85 10.96
5/16/2021 1:15:00 PM 15.14 59.252 0.066 7.4 14.94 11
5/16/2021 1:30:00 PM 15.22 59.396 0.066 7.44 14.86 11.04
5/16/2021 1:45:00 PM 15.29 59.522 0.066 7.4 14.93 11.07
5/16/2021 2:00:00 PM 15.33 59.594 0.066 7.45 14.81 11.11
5/16/2021 2:15:00 PM 15.34 59.612 0.066 7.46 14.86 11.13
5/16/2021 2:30:00 PM 15.33 59.594 0.066 7.49 14.81 11.15
5/16/2021 2:45:00 PM 15.32 59.576 0.066 7.49 14.91 11.16
5/16/2021 3:00:00 PM 15.35 59.63 0.066 7.56 14.86 11.18
5/16/2021 3:15:00 PM 15.41 59.738 0.066 7.53 15.03 11.15
5/16/2021 3:30:00 PM 15.4 59.72 0.067 7.56 14.77 11.13
5/16/2021 3:45:00 PM 15.37 59.666 0.067 7.54 15.03 11.12
5/16/2021 4:00:00 PM 15.34 59.612 0.067 7.54 14.97 11.07
5/16/2021 4:15:00 PM 15.33 59.594 0.067 7.52 15.21 11.03
5/16/2021 4:30:00 PM 15.38 59.684 0.067 7.51 15.08 11.03
5/16/2021 4:45:00 PM 15.39 59.702 0.067 7.5 14.94 11.01
5/16/2021 5:00:00 PM 15.44 59.792 0.067 7.59 15.01 11.02
5/16/2021 5:15:00 PM 15.45 59.81 0.067 7.57 14.9 10.99
5/16/2021 5:30:00 PM 15.48 59.864 0.067 7.52 15.36 10.97
5/16/2021 5:45:00 PM 15.51 59.918 0.067 7.62 15.39 11.02
5/16/2021 6:00:00 PM 15.55 59.99 0.067 7.6 15.78 11.03
5/16/2021 6:15:00 PM 15.57 60.026 0.068 7.65 15.39 11
5/16/2021 6:30:00 PM 15.58 60.044 0.067 7.63 14.56 11.03
5/16/2021 6:45:00 PM 15.57 60.026 0.067 7.69 14.19 11
5/16/2021 7:00:00 PM 15.52 59.936 0.067 7.62 13.32 10.94
5/16/2021 7:15:00 PM 15.46 59.828 0.067 7.55 16.07 10.89
5/16/2021 7:30:00 PM 15.39 59.702 0.067 7.63 18.34 10.9
5/16/2021 7:45:00 PM 15.31 59.558 0.067 7.6 25.57 10.87
5/16/2021 8:00:00 PM 15.2 59.36 0.067 7.58 14.53 10.86
5/16/2021 8:15:00 PM 15.07 59.126 0.067 7.53 14.42 10.75
5/16/2021 8:30:00 PM 14.95 58.91 0.067 7.52 14.28 10.77
5/16/2021 8:45:00 PM 14.81 58.658 0.067 7.41 14.43 10.74
5/16/2021 9:00:00 PM 14.67 58.406 0.067 7.44 14.15 10.68
5/16/2021 9:15:00 PM 14.53 58.154 0.067 7.34 14.37 10.65
5/16/2021 9:30:00 PM 14.34 57.812 0.067 7.33 14.51 10.56
5/16/2021 9:45:00 PM 14.19 57.542 0.067 7.3 14.39 10.49
5/16/2021 10:00:00 PM 14.04 57.272 0.067 7.28 14.61 10.41
5/16/2021 10:15:00 PM 13.91 57.038 0.067 7.22 14.39 10.31
5/16/2021 10:30:00 PM 13.8 56.84 0.067 7.15 14.42 10.21
5/16/2021 10:45:00 PM 13.67 56.606 0.067 7.12 14.63 10.16
5/16/2021 11:00:00 PM 13.57 56.426 0.067 7.15 14.6 10.09
5/16/2021 11:15:00 PM 13.45 56.21 0.067 7.12 14.96 10.02
5/16/2021 11:30:00 PM 13.35 56.03 0.067 7.07 15.09 9.97
5/16/2021 11:45:00 PM 13.25 55.85 0.067 7.09 15.08 9.93
5/17/2021 12:00:00 AM 13.15 55.67 0.067 7.05 15.15 9.88
5/17/2021 12:15:00 AM 13.07 55.526 0.067 7.07 15.06 9.83
5/17/2021 12:30:00 AM 13 55.4 0.067 7.05 15.23 9.79
5/17/2021 12:45:00 AM 12.95 55.31 0.067 6.99 15.28 9.74
5/17/2021 1:00:00 AM 12.88 55.184 0.067 7.05 15.41 9.71
5/17/2021 1:15:00 AM 12.83 55.094 0.067 7.01 15.4 9.68
5/17/2021 1:30:00 AM 12.75 54.95 0.067 6.95 15.32 9.66
5/17/2021 1:45:00 AM 12.69 54.842 0.067 6.96 15.46 9.61
5/17/2021 2:00:00 AM 12.62 54.716 0.067 7 15.71 9.58
5/17/2021 2:15:00 AM 12.56 54.608 0.067 6.92 15.59 9.56
5/17/2021 2:30:00 AM 12.51 54.518 0.067 6.99 15.49 9.53
5/17/2021 2:45:00 AM 12.46 54.428 0.067 6.97 15.58 9.51
5/17/2021 3:00:00 AM 12.41 54.338 0.067 6.98 15.4 9.5
5/17/2021 3:15:00 AM 12.37 54.266 0.067 6.87 15.69 9.46
5/17/2021 3:30:00 AM 12.34 54.212 0.067 6.93 15.73 9.43
5/17/2021 3:45:00 AM 12.31 54.158 0.068 6.91 15.68 9.39
5/17/2021 4:00:00 AM 12.29 54.122 0.068 6.92 15.61 9.35
5/17/2021 4:15:00 AM 12.27 54.086 0.068 6.88 15.54 9.34
5/17/2021 4:30:00 AM 12.25 54.05 0.068 6.92 15.96 9.31
5/17/2021 4:45:00 AM 12.23 54.014 0.068 6.93 15.65 9.3
5/17/2021 5:00:00 AM 12.22 53.996 0.068 6.85 15.81 9.28
5/17/2021 5:15:00 AM 12.2 53.96 0.068 6.91 15.7 9.28
5/17/2021 5:30:00 AM 12.19 53.942 0.068 6.87 15.81 9.28
5/17/2021 5:45:00 AM 12.17 53.906 0.068 6.91 15.87 9.27
5/17/2021 6:00:00 AM 12.16 53.888 0.068 6.92 16.06 9.27
5/17/2021 6:15:00 AM 12.15 53.87 0.069 6.93 15.91 9.25
5/17/2021 6:30:00 AM 12.13 53.834 0.069 6.88 15.96 9.25
5/17/2021 6:45:00 AM 12.13 53.834 0.069 6.92 16.08 9.24
5/17/2021 7:00:00 AM 12.11 53.798 0.069 6.91 15.76 9.26
5/17/2021 7:15:00 AM 12.1 53.78 0.069 6.83 15.79 9.26
5/17/2021 7:30:00 AM 12.09 53.762 0.069 6.94 15.71 9.28
5/17/2021 7:45:00 AM 12.1 53.78 0.069 6.93 16.77 9.27
5/17/2021 8:00:00 AM 12.09 53.762 0.069 6.91 14.75 9.32
5/17/2021 8:15:00 AM 12.12 53.816 0.069 6.86 15.84 9.35
5/17/2021 8:30:00 AM 12.18 53.924 0.069 6.93 15.75 9.4
5/17/2021 8:45:00 AM 12.25 54.05 0.069 6.96 15.53 9.48
5/17/2021 9:00:00 AM 12.36 54.248 0.069 6.97 18.93 9.61
5/17/2021 9:15:00 AM 12.49 54.482 0.069 7 16.8 9.73
5/17/2021 9:30:00 AM 12.63 54.734 0.069 7.02 15.87 9.85
5/17/2021 9:45:00 AM 12.8 55.04 0.069 7.01 15.65 9.98
5/17/2021 10:00:00 AM 12.99 55.382 0.069 7.04 15.73 10.12
5/17/2021 10:15:00 AM 13.18 55.724 0.069 7.14 15.64 10.24
5/17/2021 10:30:00 AM 13.37 56.066 0.069 7.1 15.89 10.31
5/17/2021 10:45:00 AM 13.49 56.282 0.069 7.16 15.44 10.38
5/17/2021 11:00:00 AM 13.65 56.57 0.069 7.17 15.75 10.48
5/17/2021 11:15:00 AM 13.79 56.822 0.069 7.19 15.42 10.51
5/17/2021 11:30:00 AM 13.97 57.146 0.069 7.24 15.08 10.64
5/17/2021 11:45:00 AM 14.19 57.542 0.069 7.27 14.46 10.75
5/17/2021 12:00:00 PM 14.39 57.902 0.069 7.32 14.5 10.78
5/17/2021 12:15:00 PM 14.61 58.298 0.069 7.29 14.27 10.85
5/17/2021 12:30:00 PM 14.75 58.55 0.069 7.29 14.83 10.87
5/17/2021 12:45:00 PM 14.95 58.91 0.069 7.34 16.58 10.92
5/17/2021 1:00:00 PM 15.05 59.09 0.069 7.39 15.8 10.95
5/17/2021 1:15:00 PM 15.16 59.288 0.069 7.34 16.4 11
5/17/2021 1:30:00 PM 15.25 59.45 0.069 7.41 14.81 11
5/17/2021 1:45:00 PM 15.39 59.702 0.069 7.41 15 11.01
5/17/2021 2:00:00 PM 15.54 59.972 0.069 7.4 14.8 11.08
5/17/2021 2:15:00 PM 15.65 60.17 0.069 7.4 13.17 11.12
5/17/2021 2:30:00 PM 15.68 60.224 0.069 7.51 13.21 11.15
5/17/2021 2:45:00 PM 15.7 60.26 0.069 7.44 12.95 11.15
5/17/2021 3:00:00 PM 15.71 60.278 0.069 7.56 12.86 11.17
5/17/2021 3:15:00 PM 15.67 60.206 0.069 7.53 12.94 11.13
5/17/2021 3:30:00 PM 15.67 60.206 0.069 7.54 13.04 11.11
5/17/2021 3:45:00 PM 15.79 60.422 0.069 7.52 12.93 11.1
5/17/2021 4:00:00 PM 15.78 60.404 0.069 7.52 12.93 11.04
5/17/2021 4:15:00 PM 15.78 60.404 0.069 7.51 12.91 11
5/17/2021 4:30:00 PM 15.79 60.422 0.069 7.53 13.23 10.98
5/17/2021 4:45:00 PM 15.87 60.566 0.069 7.44 13.15 10.96
5/17/2021 5:00:00 PM 15.91 60.638 0.069 7.53 12.99 10.98
5/17/2021 5:15:00 PM 15.97 60.746 0.069 7.5 13.11 11
5/17/2021 5:30:00 PM 16.07 60.926 0.069 7.58 13.18 11.04
5/17/2021 5:45:00 PM 16.14 61.052 0.069 7.59 13.16 11.05
5/17/2021 6:00:00 PM 16.18 61.124 0.069 7.63 13.06 11.07
5/17/2021 6:15:00 PM 16.17 61.106 0.069 7.59 13.11 11.06
5/17/2021 6:30:00 PM 16.23 61.214 0.069 7.7 13.46 11.1
5/17/2021 6:45:00 PM 16.26 61.268 0.07 7.68 13.29 11.09
5/17/2021 7:00:00 PM 16.31 61.358 0.07 7.72 13.55 11.08
5/17/2021 7:15:00 PM 16.31 61.358 0.07 7.68 13.6 11.07
5/17/2021 7:30:00 PM 16.28 61.304 0.07 7.76 13.36 11.08
5/17/2021 7:45:00 PM 16.26 61.268 0.07 7.78 13.48 11.09
5/17/2021 8:00:00 PM 16.19 61.142 0.07 7.75 13.45 11.02
5/17/2021 8:15:00 PM 16.13 61.034 0.07 7.61 13.36 10.92
5/17/2021 8:30:00 PM 16.06 60.908 0.07 7.64 13.39 10.84
5/17/2021 8:45:00 PM 15.97 60.746 0.07 7.59 13.33 10.74
5/17/2021 9:00:00 PM 15.89 60.602 0.07 7.51 13.64 10.65
5/17/2021 9:15:00 PM 15.83 60.494 0.07 7.42 13.55 10.59
5/17/2021 9:30:00 PM 15.77 60.386 0.07 7.49 13.54 10.53
5/17/2021 9:45:00 PM 15.67 60.206 0.07 7.4 13.65 10.45
5/17/2021 10:00:00 PM 15.57 60.026 0.07 7.37 13.44 10.34
5/17/2021 10:15:00 PM 15.47 59.846 0.071 7.27 13.97 10.23
5/17/2021 10:30:00 PM 15.35 59.63 0.071 7.27 13.74 10.12
5/17/2021 10:45:00 PM 15.24 59.432 0.071 7.23 13.87 10.03
5/17/2021 11:00:00 PM 15.14 59.252 0.071 7.22 13.67 9.96
5/17/2021 11:15:00 PM 15.04 59.072 0.071 7.2 13.89 9.85
5/17/2021 11:30:00 PM 14.95 58.91 0.071 7.09 14.57 9.74
5/17/2021 11:45:00 PM 14.89 58.802 0.071 7.15 13.79 9.64
5/18/2021 12:00:00 AM 14.82 58.676 0.071 7.05 14.17 9.58
5/18/2021 12:15:00 AM 14.73 58.514 0.071 7.11 13.73 9.51
5/18/2021 12:30:00 AM 14.65 58.37 0.071 7.09 14.29 9.45
5/18/2021 12:45:00 AM 14.56 58.208 0.071 7.05 14.33 9.37
5/18/2021 1:00:00 AM 14.46 58.028 0.071 7.07 13.91 9.32
5/18/2021 1:15:00 AM 14.36 57.848 0.071 6.93 14.18 9.29
5/18/2021 1:30:00 AM 14.23 57.614 0.071 7.03 14.12 9.23
5/18/2021 1:45:00 AM 14.13 57.434 0.071 7.03 14.08 9.2
5/18/2021 2:00:00 AM 14.01 57.218 0.071 6.99 14.35 9.18
5/18/2021 2:15:00 AM 13.89 57.002 0.071 6.92 14.63 9.15
5/18/2021 2:30:00 AM 13.78 56.804 0.071 6.99 14.27 9.14
5/18/2021 2:45:00 AM 13.66 56.588 0.071 6.99 14.79 9.12
5/18/2021 3:00:00 AM 13.55 56.39 0.071 6.97 14.44 9.1
5/18/2021 3:15:00 AM 13.42 56.156 0.07 6.96 14.25 9.11
5/18/2021 3:30:00 AM 13.33 55.994 0.071 6.94 14.48 9.08
5/18/2021 3:45:00 AM 13.22 55.796 0.07 6.96 14.37 9.09
5/18/2021 4:00:00 AM 13.13 55.634 0.07 6.94 14.58 9.11
5/18/2021 4:15:00 AM 13.06 55.508 0.07 6.97 14.65 9.13
5/18/2021 4:30:00 AM 13 55.4 0.07 6.95 14.58 9.15
5/18/2021 4:45:00 AM 12.96 55.328 0.07 6.88 14.45 9.14
5/18/2021 5:00:00 AM 12.94 55.292 0.07 6.96 14.48 9.1
5/18/2021 5:15:00 AM 12.91 55.238 0.07 6.9 14.43 9.07
5/18/2021 5:30:00 AM 12.89 55.202 0.07 6.87 14.45 9.05
5/18/2021 5:45:00 AM 12.85 55.13 0.07 6.93 14.4 9.02
5/18/2021 6:00:00 AM 12.83 55.094 0.07 6.92 14.42 8.97
5/18/2021 6:15:00 AM 12.8 55.04 0.07 6.91 14.14 8.97
5/18/2021 6:30:00 AM 12.77 54.986 0.07 6.88 14.73 8.97
5/18/2021 6:45:00 AM 12.74 54.932 0.07 6.88 15.25 8.96
5/18/2021 7:00:00 AM 12.72 54.896 0.071 6.84 15.18 8.94
5/18/2021 7:15:00 AM 12.71 54.878 0.071 6.84 14.92 8.93
5/18/2021 7:30:00 AM 12.7 54.86 0.071 6.91 14.86 8.91
5/18/2021 7:45:00 AM 12.7 54.86 0.071 6.9 14.91 8.96
5/18/2021 8:00:00 AM 12.71 54.878 0.071 6.92 14.79 8.95
5/18/2021 8:15:00 AM 12.72 54.896 0.071 6.9 14.77 8.97
5/18/2021 8:30:00 AM 12.75 54.95 0.071 6.85 14.46 9.04
5/18/2021 8:45:00 AM 12.83 55.094 0.071 6.92 14.41 9.09
5/18/2021 9:00:00 AM 12.93 55.274 0.071 6.95 14.11 9.21
5/18/2021 9:15:00 AM 13.04 55.472 0.071 6.98 14.12 9.33
5/18/2021 9:30:00 AM 13.17 55.706 0.071 6.99 13.93 9.45
5/18/2021 9:45:00 AM 13.32 55.976 0.071 7.03 13.89 9.6
5/18/2021 10:00:00 AM 13.49 56.282 0.071 7.04 13.8 9.73
5/18/2021 10:15:00 AM 13.67 56.606 0.071 7.08 14.15 9.87
5/18/2021 10:30:00 AM 13.89 57.002 0.071 6.99 14.09 10.01
5/18/2021 10:45:00 AM 14.09 57.362 0.071 7.15 13.63 10.1
5/18/2021 11:00:00 AM 14.32 57.776 0.07 7.06 13.97 10.2
5/18/2021 11:15:00 AM 14.52 58.136 0.07 7.21 14.01 10.32
5/18/2021 11:30:00 AM 14.77 58.586 0.07 7.22 13.73 10.39
5/18/2021 11:45:00 AM 15.04 59.072 0.07 7.18 13.72 10.44
5/18/2021 12:00:00 PM 15.3 59.54 0.07 7.31 13.81 10.55
5/18/2021 12:15:00 PM 15.56 60.008 0.07 7.3 13.7 10.6
5/18/2021 12:30:00 PM 15.78 60.404 0.07 7.38 13.52 10.72
5/18/2021 12:45:00 PM 16.04 60.872 0.07 7.37 13.39 10.77
5/18/2021 1:00:00 PM 16.29 61.322 0.07 7.38 13.45 10.88
5/18/2021 1:15:00 PM 16.5 61.7 0.07 7.49 13.54 10.96
5/18/2021 1:30:00 PM 16.7 62.06 0.07 7.52 13.85 11.03
5/18/2021 1:45:00 PM 16.88 62.384 0.07 7.58 13.55 11.09
5/18/2021 2:00:00 PM 17.03 62.654 0.07 7.61 13.47 11.17
5/18/2021 2:15:00 PM 17.26 63.068 0.071 7.66 13.56 11.23
5/18/2021 2:30:00 PM 17.41 63.338 0.071 7.68 13.3 11.26
5/18/2021 2:45:00 PM 17.52 63.536 0.071 7.77 13.31 11.33
5/18/2021 3:00:00 PM 17.63 63.734 0.071 7.75 13.36 11.33
5/18/2021 3:15:00 PM 17.7 63.86 0.071 7.83 13.52 11.33
5/18/2021 3:30:00 PM 17.76 63.968 0.071 7.86 13.56 11.31
5/18/2021 3:45:00 PM 17.83 64.094 0.071 7.87 13.53 11.36
5/18/2021 4:00:00 PM 17.85 64.13 0.071 7.9 13.42 11.31
5/18/2021 4:15:00 PM 17.91 64.238 0.071 7.95 13.57 11.36
5/18/2021 4:30:00 PM 17.95 64.31 0.071 8 13.51 11.35
5/18/2021 4:45:00 PM 17.98 64.364 0.071 7.98 13.48 11.38
5/18/2021 5:00:00 PM 17.97 64.346 0.071 8.05 13.58 11.31
5/18/2021 5:15:00 PM 17.96 64.328 0.071 8.02 13.69 11.27
5/18/2021 5:30:00 PM 17.94 64.292 0.071 7.97 14.21 11.18
5/18/2021 5:45:00 PM 17.95 64.31 0.071 7.99 13.93 11.18
5/18/2021 6:00:00 PM 17.95 64.31 0.071 7.93 14.4 11.11
5/18/2021 6:15:00 PM 17.99 64.382 0.071 7.94 14.17 11.16
5/18/2021 6:30:00 PM 17.98 64.364 0.071 7.96 14.08 11.06
5/18/2021 6:45:00 PM 17.98 64.364 0.071 7.96 13.94 11.05
5/18/2021 7:00:00 PM 17.97 64.346 0.071 7.94 14.31 11
5/18/2021 7:15:00 PM 17.94 64.292 0.071 7.81 14.05 10.97
5/18/2021 7:30:00 PM 17.89 64.202 0.071 7.92 14.53 10.93
5/18/2021 7:45:00 PM 17.84 64.112 0.072 7.83 14.47 10.82
5/18/2021 8:00:00 PM 17.76 63.968 0.072 7.78 14.2 10.75
5/18/2021 8:15:00 PM 17.71 63.878 0.072 7.77 14.28 10.7
5/18/2021 8:30:00 PM 17.64 63.752 0.072 7.68 14.65 10.65
5/18/2021 8:45:00 PM 17.55 63.59 0.072 7.67 14.37 10.62
5/18/2021 9:00:00 PM 17.45 63.41 0.072 7.68 14.27 10.58
5/18/2021 9:15:00 PM 17.32 63.176 0.072 7.58 15.1 10.47
5/18/2021 9:30:00 PM 17.22 62.996 0.072 7.53 14.26 10.42
5/18/2021 9:45:00 PM 17.1 62.78 0.072 7.51 14.45 10.29
5/18/2021 10:00:00 PM 16.98 62.564 0.072 7.41 14.51 10.09
5/18/2021 10:15:00 PM 16.87 62.366 0.072 7.32 14.6 9.99
5/18/2021 10:30:00 PM 16.81 62.258 0.072 7.33 14.48 9.87
5/18/2021 10:45:00 PM 16.73 62.114 0.072 7.26 14.53 9.65
5/18/2021 11:00:00 PM 16.64 61.952 0.072 7.19 14.93 9.49
5/18/2021 11:15:00 PM 16.55 61.79 0.072 7.09 14.83 9.32
5/18/2021 11:30:00 PM 16.52 61.736 0.072 7.15 14.96 9.25
5/18/2021 11:45:00 PM 16.44 61.592 0.072 7.1 14.99 9.08
5/19/2021 12:00:00 AM 16.38 61.484 0.072 7 14.95 8.95
5/19/2021 12:15:00 AM 16.33 61.394 0.072 7.06 14.92 8.87
5/19/2021 12:30:00 AM 16.3 61.34 0.072 7.05 15.33 8.8
5/19/2021 12:45:00 AM 16.25 61.25 0.072 6.94 15.33 8.69
5/19/2021 1:00:00 AM 16.22 61.196 0.072 7.03 16.61 8.61
5/19/2021 1:15:00 AM 16.19 61.142 0.072 6.95 15.64 8.57
5/19/2021 1:30:00 AM 16.16 61.088 0.072 6.93 15.37 8.49
5/19/2021 1:45:00 AM 16.12 61.016 0.072 6.91 15.67 8.41
5/19/2021 2:00:00 AM 16.07 60.926 0.072 6.97 15.42 8.38
5/19/2021 2:15:00 AM 16.03 60.854 0.072 6.95 15.4 8.36
5/19/2021 2:30:00 AM 15.99 60.782 0.072 6.95 15.73 8.3
5/19/2021 2:45:00 AM 15.95 60.71 0.072 6.94 15.54 8.24
5/19/2021 3:00:00 AM 15.91 60.638 0.072 6.85 15.47 8.22
5/19/2021 3:15:00 AM 15.85 60.53 0.072 6.95 15.37 8.17
5/19/2021 3:30:00 AM 15.81 60.458 0.072 6.83 15.29 8.09
5/19/2021 3:45:00 AM 15.76 60.368 0.072 6.84 15.57 8.07
5/19/2021 4:00:00 AM 15.71 60.278 0.072 6.91 15.68 8.04
5/19/2021 4:15:00 AM 15.65 60.17 0.072 6.9 15.35 8.02
5/19/2021 4:30:00 AM 15.6 60.08 0.072 6.8 16.09 7.96
5/19/2021 4:45:00 AM 15.53 59.954 0.072 6.9 12.25 7.94
5/19/2021 5:00:00 AM 15.49 59.882 0.072 6.78 11.23 7.92
5/19/2021 5:15:00 AM 15.42 59.756 0.072 6.83 17.02 7.91
5/19/2021 5:30:00 AM 15.35 59.63 0.072 6.88 17.06 7.89
5/19/2021 5:45:00 AM 15.3 59.54 0.072 6.86 17.06 7.88
5/19/2021 6:00:00 AM 15.24 59.432 0.072 6.86 17.01 7.87
5/19/2021 6:15:00 AM 15.17 59.306 0.072 6.74 16.77 7.81
5/19/2021 6:30:00 AM 15.13 59.234 0.072 6.86 16.93 7.8
5/19/2021 6:45:00 AM 15.07 59.126 0.072 6.86 16.65 7.84
5/19/2021 7:00:00 AM 15.01 59.018 0.072 6.81 17.13 7.88
5/19/2021 7:15:00 AM 14.97 58.946 0.072 6.78 16.87 7.82
5/19/2021 7:30:00 AM 14.93 58.874 0.072 6.84 17.07 7.86
5/19/2021 7:45:00 AM 14.89 58.802 0.072 6.84 16.92 7.89
5/19/2021 8:00:00 AM 14.85 58.73 0.072 6.85 16.73 7.87
5/19/2021 8:15:00 AM 14.84 58.712 0.073 6.85 16.77 7.91
5/19/2021 8:30:00 AM 14.85 58.73 0.073 6.86 16.87 7.97
5/19/2021 8:45:00 AM 14.87 58.766 0.073 6.86 16.66 8.07
5/19/2021 9:00:00 AM 14.93 58.874 0.073 6.89 16.92 8.2
5/19/2021 9:15:00 AM 15.02 59.036 0.073 6.9 16.51 8.31
5/19/2021 9:30:00 AM 15.13 59.234 0.073 6.83 16.47 8.46
5/19/2021 9:45:00 AM 15.26 59.468 0.073 6.89 16.58 8.53
5/19/2021 10:00:00 AM 15.44 59.792 0.073 6.98 16.3 8.73
5/19/2021 10:15:00 AM 15.59 60.062 0.073 6.97 16.27 8.9
5/19/2021 10:30:00 AM 15.79 60.422 0.073 7.05 16.32 9.13
5/19/2021 10:45:00 AM 15.96 60.728 0.073 7.04 16.36 9.31
5/19/2021 11:00:00 AM 16.18 61.124 0.072 7.09 15.98 9.49
5/19/2021 11:15:00 AM 16.37 61.466 0.072 7.1 16.59 9.61
5/19/2021 11:30:00 AM 16.62 61.916 0.072 7.17 16.39 9.72
5/19/2021 11:45:00 AM 16.82 62.276 0.072 7.11 16.6 9.79
5/19/2021 12:00:00 PM 17.04 62.672 0.072 7.24 16.32 9.9
5/19/2021 12:15:00 PM 17.28 63.104 0.072 7.26 16.43 10.01
5/19/2021 12:30:00 PM 17.53 63.554 0.072 7.33 16.22 10.15
5/19/2021 12:45:00 PM 17.71 63.878 0.072 7.27 16.26 10.32
5/19/2021 1:00:00 PM 18.01 64.418 0.072 7.43 16.42 10.4
5/19/2021 1:15:00 PM 18.17 64.706 0.072 7.39 16.11 10.43
5/19/2021 1:30:00 PM 18.4 65.12 0.072 7.55 16.15 10.58
5/19/2021 1:45:00 PM 18.64 65.552 0.072 7.58 15.89 10.67
5/19/2021 2:00:00 PM 18.78 65.804 0.072 7.64 15.74 10.71
5/19/2021 2:15:00 PM 18.99 66.182 0.072 7.7 16.03 10.83
5/19/2021 2:30:00 PM 19.2 66.56 0.072 7.68 15.98 10.89
5/19/2021 2:45:00 PM 19.41 66.938 0.072 7.85 15.9 10.95
5/19/2021 3:00:00 PM 19.6 67.28 0.072 7.88 15.69 10.94
5/19/2021 3:15:00 PM 19.7 67.46 0.072 7.88 15.68 11.02
5/19/2021 3:30:00 PM 19.92 67.856 0.072 7.94 15.52 11.02
5/19/2021 3:45:00 PM 20.07 68.126 0.072 8.01 15.8 11.1
5/19/2021 4:00:00 PM 20.22 68.396 0.072 8.05 15.3 11.1
5/19/2021 4:15:00 PM 20.31 68.558 0.072 7.97 15.41 11.11
5/19/2021 4:30:00 PM 20.47 68.846 0.072 8.05 15.3 11.07
5/19/2021 4:45:00 PM 20.55 68.99 0.072 8 15.74 11.05
5/19/2021 5:00:00 PM 20.73 69.314 0.072 8.16 15.22 11.11
5/19/2021 5:15:00 PM 20.82 69.476 0.072 8.07 15.6 11.06
5/19/2021 5:30:00 PM 20.99 69.782 0.072 8.16 15.35 11.07
5/19/2021 5:45:00 PM 21.02 69.836 0.072 8.1 15.51 11.04
5/19/2021 6:00:00 PM 21.07 69.926 0.073 8.22 15.2 10.93
5/19/2021 6:15:00 PM 21.04 69.872 0.072 8.2 15.24 11.1
5/19/2021 6:30:00 PM 21.02 69.836 0.073 8.23 16.06 11.05
5/19/2021 6:45:00 PM 21.01 69.818 0.073 8.24 16.64 11.03
5/19/2021 7:00:00 PM 20.97 69.746 0.073 8.12 17.7 10.82
5/19/2021 7:15:00 PM 20.92 69.656 0.073 8.11 16.99 10.77
5/19/2021 7:30:00 PM 20.87 69.566 0.073 8.01 17.09 10.72
5/19/2021 7:45:00 PM 20.83 69.494 0.073 8.07 17.2 10.7
5/19/2021 8:00:00 PM 20.78 69.404 0.073 8.03 16.92 10.65
5/19/2021 8:15:00 PM 20.73 69.314 0.073 7.97 16.94 10.61
5/19/2021 8:30:00 PM 20.64 69.152 0.073 7.89 17.24 10.46
5/19/2021 8:45:00 PM 20.56 69.008 0.073 7.8 17.18 10.39
5/19/2021 9:00:00 PM 20.46 68.828 0.073 7.63 23.16 10.27
5/19/2021 9:15:00 PM 20.36 68.648 0.073 7.65 24.33 10.2
5/19/2021 9:30:00 PM 20.26 68.468 0.073 7.52 19.75 10.11
5/19/2021 9:45:00 PM 20.15 68.27 0.073 7.5 20.1 9.89
5/19/2021 10:00:00 PM 20.04 68.07201 0.073 7.4 19.79 9.79
5/19/2021 10:15:00 PM 19.94 67.892 0.073 7.36 19.76 9.6
5/19/2021 10:30:00 PM 19.83 67.694 0.073 7.3 19.58 9.5
5/19/2021 10:45:00 PM 19.71 67.478 0.074 7.22 19.83 9.28
5/19/2021 11:00:00 PM 19.59 67.262 0.074 7.23 19.33 9.16
5/19/2021 11:15:00 PM 19.47 67.046 0.074 7.15 19.42 8.96
5/19/2021 11:30:00 PM 19.35 66.83 0.074 7.13 19.71 8.8
5/19/2021 11:45:00 PM 19.25 66.65 0.074 7.08 19.52 8.68
5/20/2021 12:00:00 AM 19.15 66.47 0.074 6.99 20.06 8.5
5/20/2021 12:15:00 AM 19.05 66.29 0.074 7.06 19.48 8.36
5/20/2021 12:30:00 AM 18.96 66.128 0.074 6.95 19.57 8.19
5/20/2021 12:45:00 AM 18.89 66.002 0.074 7.01 20.51 8.17
5/20/2021 1:00:00 AM 18.82 65.876 0.074 6.88 18.19 8.01
5/20/2021 1:15:00 AM 18.76 65.768 0.074 6.98 18.25 7.91
5/20/2021 1:30:00 AM 18.68 65.624 0.074 6.92 18.71 7.79
5/20/2021 1:45:00 AM 18.63 65.534 0.074 6.82 19.35 7.71
5/20/2021 2:00:00 AM 18.62 65.516 0.074 6.92 19.04 7.64
5/20/2021 2:15:00 AM 18.55 65.39 0.074 6.91 19.68 7.52
5/20/2021 2:30:00 AM 18.51 65.318 0.074 6.83 19.5 7.47
5/20/2021 2:45:00 AM 18.45 65.21 0.074 6.9 20.01 7.33
5/20/2021 3:00:00 AM 18.41 65.138 0.074 6.86 19.75 7.32
5/20/2021 3:15:00 AM 18.35 65.03 0.074 6.86 20.1 7.27
5/20/2021 3:30:00 AM 18.3 64.94 0.074 6.86 20.01 7.23
5/20/2021 3:45:00 AM 18.24 64.832 0.074 6.86 20.09 7.23
5/20/2021 4:00:00 AM 18.17 64.706 0.074 6.86 20.22 7.18
5/20/2021 4:15:00 AM 18.11 64.598 0.074 6.77 19.94 7.15
5/20/2021 4:30:00 AM 18.03 64.454 0.074 6.85 20.1 7.11
5/20/2021 4:45:00 AM 17.94 64.292 0.074 6.83 20.28 7.09
5/20/2021 5:00:00 AM 17.89 64.202 0.074 6.85 20.39 7.07
5/20/2021 5:15:00 AM 17.8 64.04 0.074 6.79 20.65 7.09
5/20/2021 5:30:00 AM 17.72 63.896 0.074 6.84 19.98 7.06
5/20/2021 5:45:00 AM 17.66 63.788 0.074 6.83 20.63 7.03
5/20/2021 6:00:00 AM 17.59 63.662 0.074 6.82 20.21 7.03
5/20/2021 6:15:00 AM 17.54 63.572 0.074 6.78 20.67 7
5/20/2021 6:30:00 AM 17.47 63.446 0.074 6.83 20.52 6.95
5/20/2021 6:45:00 AM 17.41 63.338 0.074 6.82 20.09 6.99
5/20/2021 7:00:00 AM 17.35 63.23 0.074 6.8 18.63 6.97
5/20/2021 7:15:00 AM 17.28 63.104 0.074 6.69 18.73 7.02
5/20/2021 7:30:00 AM 17.24 63.032 0.074 6.8 17.98 7.01
5/20/2021 7:45:00 AM 17.18 62.924 0.074 6.69 18.21 7.05
5/20/2021 8:00:00 AM 17.15 62.87 0.074 6.82 28.16 7.01
5/20/2021 8:15:00 AM 17.11 62.798 0.074 6.76 18.16 7.09
5/20/2021 8:30:00 AM 17.11 62.798 0.074 6.71 17.54 7.15
5/20/2021 8:45:00 AM 17.12 62.816 0.074 6.83 17.7 7.17
5/20/2021 9:00:00 AM 17.16 62.888 0.074 6.83 18.26 7.31
5/20/2021 9:15:00 AM 17.23 63.014 0.074 6.85 17.58 7.46
5/20/2021 9:30:00 AM 17.33 63.194 0.074 6.88 17.91 7.63
5/20/2021 9:45:00 AM 17.43 63.374 0.074 6.86 17.45 7.8
5/20/2021 10:00:00 AM 17.55 63.59 0.074 6.92 17.88 7.93
5/20/2021 10:15:00 AM 17.71 63.878 0.074 6.94 17.6 8.17
5/20/2021 10:30:00 AM 17.83 64.094 0.074 6.96 17.65 8.33
5/20/2021 10:45:00 AM 17.99 64.382 0.074 7 17.7 8.54
5/20/2021 11:00:00 AM 18.13 64.634 0.074 7.04 17.91 8.72
5/20/2021 11:15:00 AM 18.3 64.94 0.074 7.06 17.58 8.92
5/20/2021 11:30:00 AM 18.51 65.318 0.073 7 17.84 9.05
5/20/2021 11:45:00 AM 18.7 65.66 0.073 7.14 17.65 9.17
5/20/2021 12:00:00 PM 18.86 65.948 0.073 7.14 17.67 9.27
5/20/2021 12:15:00 PM 19.13 66.434 0.073 7.2 17.7 9.39
5/20/2021 12:30:00 PM 19.3 66.74 0.073 7.23 17.49 9.54
5/20/2021 12:45:00 PM 19.52 67.136 0.073 7.27 17.36 9.67
5/20/2021 1:00:00 PM 19.67 67.406 0.073 7.21 17.53 9.71
5/20/2021 1:15:00 PM 19.89 67.802 0.073 7.36 17.55 9.87
5/20/2021 1:30:00 PM 20.1 68.18 0.073 7.39 19.13 9.95
5/20/2021 1:45:00 PM 20.29 68.522 0.073 7.42 17.79 10.06
5/20/2021 2:00:00 PM 20.48 68.864 0.073 7.44 17.92 10.12
5/20/2021 2:15:00 PM 20.73 69.314 0.073 7.53 17.87 10.25
5/20/2021 2:30:00 PM 20.92 69.656 0.073 7.56 17.93 10.3
5/20/2021 2:45:00 PM 21.12 70.016 0.073 7.6 18.71 10.39
5/20/2021 3:00:00 PM 21.32 70.376 0.073 7.69 18.4 10.45
5/20/2021 3:15:00 PM 21.46 70.628 0.073 7.69 18.33 10.47
5/20/2021 3:30:00 PM 21.65 70.97 0.073 7.74 17.56 10.49
5/20/2021 3:45:00 PM 21.85 71.33 0.073 7.75 17.61 10.57
5/20/2021 4:00:00 PM 21.95 71.51 0.073 7.82 17.9 10.46
5/20/2021 4:15:00 PM 22.05 71.69 0.074 7.77 20.25 10.5
5/20/2021 4:30:00 PM 22.3 72.14 0.073 7.96 18.76 10.62
5/20/2021 4:45:00 PM 22.42 72.356 0.073 8.09 18.71 10.72
5/20/2021 5:00:00 PM 22.46 72.42799 0.073 8.12 18.65 10.69
5/20/2021 5:15:00 PM 22.5 72.5 0.073 8.15 18.73 10.75
5/20/2021 5:30:00 PM 22.5 72.5 0.073 8.1 18.97 10.72
5/20/2021 5:45:00 PM 22.5 72.5 0.073 8.05 18.28 10.72
5/20/2021 6:00:00 PM 22.46 72.42799 0.073 8.05 18.36 10.66
5/20/2021 6:15:00 PM 22.44 72.392 0.073 8.08 18.78 10.61
5/20/2021 6:30:00 PM 22.38 72.284 0.073 8.04 18.64 10.61
5/20/2021 6:45:00 PM 22.32 72.176 0.073 8.03 18.89 10.49
5/20/2021 7:00:00 PM 22.29 72.122 0.073 8.08 18.38 10.51
5/20/2021 7:15:00 PM 22.22 71.996 0.073 7.95 19.12 10.38
5/20/2021 7:30:00 PM 22.16 71.888 0.074 7.92 19.01 10.15
5/20/2021 7:45:00 PM 22.1 71.78 0.073 8.01 19.27 10.42
5/20/2021 8:00:00 PM 21.99 71.582 0.073 8.03 19.09 10.38
5/20/2021 8:15:00 PM 21.87 71.366 0.073 7.94 19.28 10.36
5/20/2021 8:30:00 PM 21.7 71.06 0.073 7.91 19.17 10.17
5/20/2021 8:45:00 PM 21.54 70.772 0.073 7.8 19.48 10.21
5/20/2021 9:00:00 PM 21.36 70.448 0.073 7.86 19.28 10.15
5/20/2021 9:15:00 PM 21.19 70.142 0.073 7.75 19.84 10.04
5/20/2021 9:30:00 PM 21.02 69.836 0.073 7.64 20.08 9.96
5/20/2021 9:45:00 PM 20.83 69.494 0.073 7.58 19.61 9.78
5/20/2021 10:00:00 PM 20.65 69.17 0.073 7.49 19.63 9.64
5/20/2021 10:15:00 PM 20.5 68.9 0.073 7.42 19.71 9.5
5/20/2021 10:30:00 PM 20.31 68.558 0.073 7.3 19.86 9.33
5/20/2021 10:45:00 PM 20.14 68.252 0.073 7.2 19.43 9.13
5/20/2021 11:00:00 PM 19.98 67.964 0.073 7.18 19.91 8.94
5/20/2021 11:15:00 PM 19.82 67.676 0.074 7.06 19.82 8.74
5/20/2021 11:30:00 PM 19.67 67.406 0.073 7.13 20.03 8.6
5/20/2021 11:45:00 PM 19.52 67.136 0.074 7.1 20.22 8.47
5/21/2021 12:00:00 AM 19.36 66.848 0.074 7.05 23.95 8.3
5/21/2021 12:15:00 AM 19.21 66.578 0.074 6.9 23.03 8.17
5/21/2021 12:30:00 AM 19.06 66.308 0.073 7 22.2 7.97
5/21/2021 12:45:00 AM 18.93 66.074 0.074 6.96 22.58 7.84
5/21/2021 1:00:00 AM 18.77 65.786 0.073 6.95 14.24 7.83
5/21/2021 1:15:00 AM 18.61 65.498 0.073 6.93 15.69 7.7
5/21/2021 1:30:00 AM 18.49 65.282 0.074 6.85 16.64 7.65
5/21/2021 1:45:00 AM 18.31 64.958 0.073 6.82 16.36 7.64
5/21/2021 2:00:00 AM 18.17 64.706 0.073 6.9 16.29 7.58
5/21/2021 2:15:00 AM 18.03 64.454 0.073 6.75 16.93 7.47
5/21/2021 2:30:00 AM 17.88 64.184 0.073 6.87 17.08 7.49
5/21/2021 2:45:00 AM 17.72 63.896 0.073 6.87 17.26 7.48
5/21/2021 3:00:00 AM 17.56 63.608 0.073 6.73 17.83 7.42
5/21/2021 3:15:00 AM 17.4 63.32 0.073 6.75 17.58 7.39
5/21/2021 3:30:00 AM 17.26 63.068 0.073 6.87 17.95 7.4
5/21/2021 3:45:00 AM 17.1 62.78 0.073 6.72 19.14 7.43
5/21/2021 4:00:00 AM 16.94 62.492 0.073 6.84 19.45 7.43
5/21/2021 4:15:00 AM 16.81 62.258 0.074 6.84 19.42 7.35
5/21/2021 4:30:00 AM 16.67 62.006 0.074 6.83 19.45 7.44
5/21/2021 4:45:00 AM 16.52 61.736 0.074 6.71 19.39 7.45
5/21/2021 5:00:00 AM 16.4 61.52 0.074 6.83 19.76 7.47
5/21/2021 5:15:00 AM 16.27 61.286 0.074 6.83 20.87 7.51
5/21/2021 5:30:00 AM 16.17 61.106 0.074 6.86 19.43 7.54
5/21/2021 5:45:00 AM 16.06 60.908 0.074 6.78 19.78 7.59
5/21/2021 6:00:00 AM 16 60.8 0.074 6.86 19.47 7.58
5/21/2021 6:15:00 AM 15.93 60.674 0.074 6.85 19.2 7.66
5/21/2021 6:30:00 AM 15.86 60.548 0.074 6.77 19.42 7.71
5/21/2021 6:45:00 AM 15.87 60.566 0.074 6.79 19.35 7.65
5/21/2021 7:00:00 AM 15.88 60.584 0.074 6.87 19.71 7.58
5/21/2021 7:15:00 AM 15.9 60.62 0.074 6.83 19.79 7.48
5/21/2021 7:30:00 AM 15.91 60.638 0.075 6.73 19.18 7.44
5/21/2021 7:45:00 AM 15.94 60.692 0.075 6.79 19.42 7.4
5/21/2021 8:00:00 AM 15.98 60.764 0.075 6.82 19.74 7.33
5/21/2021 8:15:00 AM 16.02 60.836 0.075 6.84 19.63 7.34
5/21/2021 8:30:00 AM 16.1 60.98 0.075 6.82 19.6 7.31
5/21/2021 8:45:00 AM 16.18 61.124 0.075 6.71 20.53 7.37
5/21/2021 9:00:00 AM 16.31 61.358 0.076 6.75 20.26 7.39
5/21/2021 9:15:00 AM 16.47 61.646 0.076 6.75 20.83 7.35
5/21/2021 9:30:00 AM 16.66 61.988 0.076 6.84 19.95 7.5
5/21/2021 9:45:00 AM 16.85 62.33 0.076 6.87 19.8 7.62
5/21/2021 10:00:00 AM 16.94 62.492 0.076 6.78 20.78 7.68
5/21/2021 10:15:00 AM 17.09 62.762 0.076 6.91 20.24 7.86
5/21/2021 10:30:00 AM 17.29 63.122 0.076 6.93 20.39 7.94
5/21/2021 10:45:00 AM 17.49 63.482 0.076 6.84 20.02 7.97
5/21/2021 11:00:00 AM 17.63 63.734 0.076 6.95 19.84 8.11
5/21/2021 11:15:00 AM 17.84 64.112 0.076 7 19.81 8.23
5/21/2021 11:30:00 AM 18.09 64.562 0.075 7.03 19.64 8.55
5/21/2021 11:45:00 AM 18.36 65.048 0.075 7.08 19.78 8.77
5/21/2021 12:00:00 PM 18.59 65.462 0.075 7.08 19.73 8.93
5/21/2021 12:15:00 PM 18.85 65.93 0.075 7.16 19.51 9.11
5/21/2021 12:30:00 PM 19.11 66.398 0.075 7.19 20.02 9.19
5/21/2021 12:45:00 PM 19.37 66.866 0.075 7.12 19.91 9.27
5/21/2021 1:00:00 PM 19.67 67.406 0.075 7.18 19.94 9.37
5/21/2021 1:15:00 PM 19.93 67.874 0.075 7.22 19.72 9.46
5/21/2021 1:30:00 PM 20.17 68.306 0.075 7.35 19.75 9.65
5/21/2021 1:45:00 PM 20.44 68.792 0.074 7.39 19.27 9.79
5/21/2021 2:00:00 PM 20.68 69.224 0.074 7.44 18.65 9.79
5/21/2021 2:15:00 PM 20.92 69.656 0.074 7.44 20.24 9.93
5/21/2021 2:30:00 PM 21.16 70.088 0.074 7.51 19.92 9.96
5/21/2021 2:45:00 PM 21.39 70.502 0.075 7.59 20.07 10.05
5/21/2021 3:00:00 PM 21.5 70.7 0.075 7.52 19.47 9.98
5/21/2021 3:15:00 PM 21.66 70.988 0.075 7.59 35.05 9.82
5/21/2021 3:30:00 PM 21.82 71.276 0.075 7.59 24.16 9.9
5/21/2021 3:45:00 PM 22.07 71.726 0.075 7.75 22.32 10.22
5/21/2021 4:00:00 PM 22.29 72.122 0.075 7.71 22.5 10.2
5/21/2021 4:15:00 PM 22.51 72.518 0.074 7.85 22.01 10.35
5/21/2021 4:30:00 PM 22.8 73.04 0.074 8.01 21.14 10.46
5/21/2021 4:45:00 PM 22.84 73.112 0.074 7.93 21.34 10.4
5/21/2021 5:00:00 PM 22.99 73.382 0.075 8.03 22.12 10.4
5/21/2021 5:15:00 PM 23.02 73.436 0.075 8.04 21.28 10.4
5/21/2021 5:30:00 PM 23.17 73.706 0.075 8.15 20.91 10.41
5/21/2021 5:45:00 PM 23.29 73.922 0.075 8.19 20.83 10.51
5/21/2021 6:00:00 PM 23.38 74.084 0.075 8.26 21.56 10.51
5/21/2021 6:15:00 PM 23.39 74.102 0.075 8.21 20.81 10.41
5/21/2021 6:30:00 PM 23.4 74.12 0.075 8.21 21.06 10.41
5/21/2021 6:45:00 PM 23.44 74.192 0.075 8.08 20.59 10.18
5/21/2021 7:00:00 PM 23.52 74.336 0.075 8.26 20.85 10.4
5/21/2021 7:15:00 PM 23.58 74.444 0.075 8.38 20.65 10.48
5/21/2021 7:30:00 PM 23.58 74.444 0.075 8.4 20.47 10.52
5/21/2021 7:45:00 PM 23.49 74.282 0.075 8.15 21 10.25
5/21/2021 8:00:00 PM 23.41 74.138 0.075 8.15 20.7 10.11
5/21/2021 8:15:00 PM 23.33 73.994 0.075 8.11 20.64 10.11
5/21/2021 8:30:00 PM 23.3 73.94 0.075 8.16 20.72 10.28
5/21/2021 8:45:00 PM 23.19 73.742 0.075 8.15 21.16 10.18
5/21/2021 9:00:00 PM 23.09 73.562 0.075 7.98 20.56 10.04
5/21/2021 9:15:00 PM 22.98 73.364 0.075 7.97 21.62 9.98
5/21/2021 9:30:00 PM 22.87 73.166 0.075 7.83 21.04 9.78
5/21/2021 9:45:00 PM 22.76 72.968 0.075 7.64 20.82 9.66
5/21/2021 10:00:00 PM 22.65 72.77 0.075 7.59 21.49 9.53
5/21/2021 10:15:00 PM 22.52 72.536 0.075 7.53 22.85 9.38
5/21/2021 10:30:00 PM 22.38 72.284 0.076 7.45 23.54 9.16
5/21/2021 10:45:00 PM 22.26 72.068 0.075 7.41 21.73 9.08
5/21/2021 11:00:00 PM 22.13 71.834 0.075 7.32 21.36 8.86
5/21/2021 11:15:00 PM 21.98 71.564 0.075 7.26 22 8.66
5/21/2021 11:30:00 PM 21.84 71.312 0.076 7.2 21.81 8.48
5/21/2021 11:45:00 PM 21.71 71.078 0.076 7.15 21.63 8.27
5/22/2021 12:00:00 AM 21.57 70.826 0.076 7.11 21.97 8
5/22/2021 12:15:00 AM 21.43 70.574 0.076 7.08 21.71 7.74
5/22/2021 12:30:00 AM 21.31 70.358 0.076 6.88 21.9 7.7
5/22/2021 12:45:00 AM 21.18 70.124 0.075 7 21.65 7.59
5/22/2021 1:00:00 AM 21.08 69.944 0.076 6.99 21.59 7.31
5/22/2021 1:15:00 AM 20.97 69.746 0.076 6.97 22.63 7.37
5/22/2021 1:30:00 AM 20.84 69.512 0.076 6.8 21.57 7.19
5/22/2021 1:45:00 AM 20.73 69.314 0.076 6.91 21.52 7.07
5/22/2021 2:00:00 AM 20.63 69.134 0.076 6.9 22.42 6.85
5/22/2021 2:15:00 AM 20.51 68.918 0.076 6.88 21.84 6.85
5/22/2021 2:30:00 AM 20.4 68.72 0.076 6.88 22.14 6.82
5/22/2021 2:45:00 AM 20.29 68.522 0.076 6.87 21.49 6.71
5/22/2021 3:00:00 AM 20.21 68.378 0.076 6.77 21.96 6.5
5/22/2021 3:15:00 AM 20.11 68.198 0.076 6.8 22.49 6.66
5/22/2021 3:30:00 AM 20.02 68.036 0.076 6.73 23.67 6.54
5/22/2021 3:45:00 AM 19.94 67.892 0.076 6.86 23.18 6.4
5/22/2021 4:00:00 AM 19.85 67.73 0.076 6.85 23.95 6.5
5/22/2021 4:15:00 AM 19.79 67.622 0.076 6.83 22.5 6.39
5/22/2021 4:30:00 AM 19.72 67.496 0.076 6.81 23.12 6.41
5/22/2021 4:45:00 AM 19.64 67.352 0.076 6.8 21.83 6.35
5/22/2021 5:00:00 AM 19.58 67.244 0.076 6.81 21.64 6.28
5/22/2021 5:15:00 AM 19.5 67.1 0.076 6.83 21.78 6.34
5/22/2021 5:30:00 AM 19.45 67.01 0.076 6.79 22.35 6.25
5/22/2021 5:45:00 AM 19.4 66.92 0.076 6.79 22.22 6.21
5/22/2021 6:00:00 AM 19.35 66.83 0.076 6.8 23.02 6.17
5/22/2021 6:15:00 AM 19.32 66.776 0.076 6.65 22.18 6.13
5/22/2021 6:30:00 AM 19.28 66.704 0.076 6.77 21.87 6.12
5/22/2021 6:45:00 AM 19.27 66.686 0.076 6.78 21.88 6.06
5/22/2021 7:00:00 AM 19.24 66.632 0.077 6.78 21.6 5.99
5/22/2021 7:15:00 AM 19.22 66.596 0.077 6.63 21.67 6.01
5/22/2021 7:30:00 AM 19.22 66.596 0.077 6.77 21.55 5.94
5/22/2021 7:45:00 AM 19.22 66.596 0.078 6.75 21.7 5.9
5/22/2021 8:00:00 AM 19.21 66.578 0.077 6.77 22.09 5.89
5/22/2021 8:15:00 AM 19.23 66.614 0.077 6.78 22.6 6.04
5/22/2021 8:30:00 AM 19.25 66.65 0.077 6.79 22.89 6.04
5/22/2021 8:45:00 AM 19.28 66.704 0.077 6.77 22.34 6.07
5/22/2021 9:00:00 AM 19.31 66.758 0.077 6.63 21.94 6.08
5/22/2021 9:15:00 AM 19.36 66.848 0.077 6.79 22.39 6.2
5/22/2021 9:30:00 AM 19.4 66.92 0.077 6.78 23.12 6.31
5/22/2021 9:45:00 AM 19.46 67.028 0.077 6.67 22.22 6.41
5/22/2021 10:00:00 AM 19.53 67.154 0.077 6.81 22.72 6.53
5/22/2021 10:15:00 AM 19.57 67.226 0.077 6.85 21.55 6.64
5/22/2021 10:30:00 AM 19.62 67.316 0.077 6.84 22.76 6.72
5/22/2021 10:45:00 AM 19.72 67.496 0.077 6.88 23.05 7
5/22/2021 11:00:00 AM 19.8 67.64 0.077 6.88 22.82 6.93
5/22/2021 11:15:00 AM 19.89 67.802 0.077 6.91 22.93 7.19
5/22/2021 11:30:00 AM 20.02 68.036 0.077 6.94 23.47 7.37
5/22/2021 11:45:00 AM 20.11 68.198 0.077 6.83 22.68 7.56
5/22/2021 12:00:00 PM 20.22 68.396 0.076 6.98 22.76 7.69
5/22/2021 12:15:00 PM 20.35 68.63 0.076 7.02 22.34 7.9
5/22/2021 12:30:00 PM 20.47 68.846 0.077 7.03 23.08 8.03
5/22/2021 12:45:00 PM 20.6 69.08 0.076 7.08 23 8.22
5/22/2021 1:00:00 PM 20.72 69.296 0.076 7.11 22 8.36
5/22/2021 1:15:00 PM 20.86 69.548 0.076 7.16 24.11 8.58
5/22/2021 1:30:00 PM 20.98 69.764 0.076 7.19 22.44 8.72
5/22/2021 1:45:00 PM 21.11 69.998 0.076 7.19 21.86 8.79
5/22/2021 2:00:00 PM 21.22 70.196 0.076 7.24 22.4 8.89
5/22/2021 2:15:00 PM 21.36 70.448 0.076 7.28 21.72 8.97
5/22/2021 2:30:00 PM 21.46 70.628 0.076 7.27 22.46 9.07
5/22/2021 2:45:00 PM 21.58 70.844 0.076 7.34 22.28 9.16
5/22/2021 3:00:00 PM 21.7 71.06 0.076 7.39 22.32 9.25
5/22/2021 3:15:00 PM 21.8 71.24 0.076 7.43 21.32 9.34
5/22/2021 3:30:00 PM 21.87 71.366 0.076 7.38 22.07 9.51
5/22/2021 3:45:00 PM 21.96 71.528 0.075 7.56 22.34 9.61
5/22/2021 4:00:00 PM 22.1 71.78 0.075 7.63 22.11 9.72
5/22/2021 4:15:00 PM 22.22 71.996 0.075 7.71 21.89 9.81
5/22/2021 4:30:00 PM 22.26 72.068 0.075 7.69 23.04 9.77
5/22/2021 4:45:00 PM 22.38 72.284 0.075 7.77 22.02 9.82
5/22/2021 5:00:00 PM 22.37 72.266 0.075 7.75 22.19 9.85
5/22/2021 5:15:00 PM 22.49 72.482 0.075 7.72 21.68 9.95
5/22/2021 5:30:00 PM 22.54 72.57201 0.075 7.87 20.72 10.02
5/22/2021 5:45:00 PM 22.53 72.554 0.075 7.87 21.48 10
5/22/2021 6:00:00 PM 22.53 72.554 0.075 7.87 21.52 9.98
5/22/2021 6:15:00 PM 22.51 72.518 0.075 7.91 21.94 9.94
5/22/2021 6:30:00 PM 22.48 72.464 0.075 7.89 21.8 9.89
5/22/2021 6:45:00 PM 22.47 72.446 0.075 7.93 21.8 9.82
5/22/2021 7:00:00 PM 22.45 72.41 0.075 7.88 21.79 9.8
5/22/2021 7:15:00 PM 22.43 72.374 0.075 7.86 21.82 9.71
5/22/2021 7:30:00 PM 22.4 72.32 0.075 7.8 23.8 9.61
5/22/2021 7:45:00 PM 22.37 72.266 0.076 7.89 26.15 9.55
5/22/2021 8:00:00 PM 22.33 72.194 0.075 7.88 23.39 9.48
5/22/2021 8:15:00 PM 22.3 72.14 0.076 7.9 22.43 9.58
5/22/2021 8:30:00 PM 22.27 72.086 0.075 7.92 22.07 9.56
5/22/2021 8:45:00 PM 22.2 71.96 0.077 7.78 22.25 9.58
5/22/2021 9:00:00 PM 22.14 71.852 0.076 7.76 22.16 9.24
5/22/2021 9:15:00 PM 22.09 71.762 0.076 7.77 22.64 9.33
5/22/2021 9:30:00 PM 22.02 71.636 0.076 7.52 22.68 9.2
5/22/2021 9:45:00 PM 21.94 71.492 0.076 7.58 22.82 9.06
5/22/2021 10:00:00 PM 21.88 71.384 0.076 7.5 22.13 8.91
5/22/2021 10:15:00 PM 21.82 71.276 0.076 7.44 22.8 8.87
5/22/2021 10:30:00 PM 21.75 71.15 0.076 7.4 23.22 8.69
5/22/2021 10:45:00 PM 21.68 71.024 0.076 7.28 23.07 8.5
5/22/2021 11:00:00 PM 21.61 70.898 0.076 7.2 22.4 8.2
5/22/2021 11:15:00 PM 21.56 70.808 0.076 7.17 21.62 8.09
5/22/2021 11:30:00 PM 21.51 70.718 0.076 7.16 24.53 7.86
5/22/2021 11:45:00 PM 21.45 70.61 0.077 7.06 21.2 7.66
5/23/2021 12:00:00 AM 21.38 70.484 0.076 7.03 21.35 7.38
5/23/2021 12:15:00 AM 21.32 70.376 0.076 7.04 21.92 7.49
5/23/2021 12:30:00 AM 21.25 70.25 0.076 7.03 21.75 7.43
5/23/2021 12:45:00 AM 21.18 70.124 0.076 6.94 22.11 7.16
5/23/2021 1:00:00 AM 21.11 69.998 0.076 6.97 22.44 7.25
5/23/2021 1:15:00 AM 21.02 69.836 0.076 6.97 21.97 7.14
5/23/2021 1:30:00 AM 20.93 69.674 0.076 6.92 22.77 6.98
5/23/2021 1:45:00 AM 20.89 69.602 0.076 6.85 23.11 6.87
5/23/2021 2:00:00 AM 20.82 69.476 0.076 6.92 23.24 6.78
5/23/2021 2:15:00 AM 20.78 69.404 0.077 6.92 22.89 6.81
5/23/2021 2:30:00 AM 20.72 69.296 0.077 6.74 22.49 6.73
5/23/2021 2:45:00 AM 20.69 69.242 0.077 6.86 24.45 6.58
5/23/2021 3:00:00 AM 20.65 69.17 0.077 6.78 25.13 6.46
5/23/2021 3:15:00 AM 20.62 69.116 0.077 6.86 24.47 6.4
5/23/2021 3:30:00 AM 20.59 69.062 0.077 6.87 22.91 6.28
5/23/2021 3:45:00 AM 20.57 69.026 0.077 6.69 23.15 6.25
5/23/2021 4:00:00 AM 20.54 68.972 0.077 6.83 23.51 6.14
5/23/2021 4:15:00 AM 20.53 68.954 0.077 6.82 23 5.99
5/23/2021 4:30:00 AM 20.51 68.918 0.077 6.81 23.13 6.05
5/23/2021 4:45:00 AM 20.5 68.9 0.077 6.81 23.38 5.89
5/23/2021 5:00:00 AM 20.49 68.882 0.077 6.8 23.41 5.94
5/23/2021 5:15:00 AM 20.48 68.864 0.077 6.8 24.01 5.86
5/23/2021 5:30:00 AM 20.48 68.864 0.077 6.78 23.72 5.84
5/23/2021 5:45:00 AM 20.47 68.846 0.077 6.72 22.96 5.81
5/23/2021 6:00:00 AM 20.46 68.828 0.077 6.78 23.72 5.76
5/23/2021 6:15:00 AM 20.45 68.81 0.078 6.78 24 5.72
5/23/2021 6:30:00 AM 20.45 68.81 0.078 6.79 23.56 5.73
5/23/2021 6:45:00 AM 20.44 68.792 0.078 6.78 22.03 5.71
5/23/2021 7:00:00 AM 20.43 68.774 0.078 6.76 23.05 5.71
5/23/2021 7:15:00 AM 20.4 68.72 0.078 6.63 22.5 5.72
5/23/2021 7:30:00 AM 20.38 68.684 0.078 6.65 23.17 5.71
5/23/2021 7:45:00 AM 20.38 68.684 0.078 6.65 22.83 5.69
5/23/2021 8:00:00 AM 20.38 68.684 0.078 6.65 23.42 5.7
5/23/2021 8:15:00 AM 20.37 68.666 0.078 6.67 23.88 5.66
5/23/2021 8:30:00 AM 20.36 68.648 0.078 6.67 23.42 5.68
5/23/2021 8:45:00 AM 20.35 68.63 0.078 6.66 36.09 5.71
5/23/2021 9:00:00 AM 20.38 68.684 0.078 6.74 25.72 5.74
5/23/2021 9:15:00 AM 20.42 68.756 0.078 6.78 23.79 5.92
5/23/2021 9:30:00 AM 20.47 68.846 0.078 6.79 23.55 6.01
5/23/2021 9:45:00 AM 20.55 68.99 0.078 6.82 23.22 6.13
5/23/2021 10:00:00 AM 20.59 69.062 0.078 6.67 28.93 6.14
5/23/2021 10:15:00 AM 20.64 69.152 0.078 6.75 23.55 6.32
5/23/2021 10:30:00 AM 20.68 69.224 0.078 6.85 23.63 6.42
5/23/2021 10:45:00 AM 20.76 69.368 0.078 6.89 22.23 6.59
5/23/2021 11:00:00 AM 20.88 69.584 0.078 6.91 23.4 6.72
5/23/2021 11:15:00 AM 20.99 69.782 0.078 6.95 21.91 7.01
5/23/2021 11:30:00 AM 21.16 70.088 0.079 6.98 26.24 7.23
5/23/2021 11:45:00 AM 21.32 70.376 0.078 7.02 26.48 7.43
5/23/2021 12:00:00 PM 21.5 70.7 0.078 7.08 25.13 7.63
5/23/2021 12:15:00 PM 21.69 71.042 0.078 6.95 24.18 7.87
5/23/2021 12:30:00 PM 21.74 71.132 0.078 7.16 24.68 8.04
5/23/2021 12:45:00 PM 21.92 71.456 0.078 7.14 25.72 8.23
5/23/2021 1:00:00 PM 22.1 71.78 0.078 7.23 22.84 8.3
5/23/2021 1:15:00 PM 22.34 72.212 0.078 7.3 21.72 8.48
5/23/2021 1:30:00 PM 22.51 72.518 0.078 7.19 27.66 8.58
5/23/2021 1:45:00 PM 22.69 72.842 0.078 7.41 22.17 8.78
5/23/2021 2:00:00 PM 22.83 73.094 0.078 7.45 23.76 8.84
5/23/2021 2:15:00 PM 23 73.4 0.078 7.5 24.73 8.94
5/23/2021 2:30:00 PM 23.11 73.598 0.078 7.55 22.97 9.08
5/23/2021 2:45:00 PM 23.26 73.868 0.078 7.47 22.28 9.13
5/23/2021 3:00:00 PM 23.36 74.048 0.078 7.69 29.04 9.24
5/23/2021 3:15:00 PM 23.47 74.246 0.078 7.76 21.49 9.28
5/23/2021 3:30:00 PM 23.51 74.318 0.078 7.69 24.15 9.3
5/23/2021 3:45:00 PM 23.59 74.462 0.078 7.86 21.54 9.35
5/23/2021 4:00:00 PM 23.63 74.534 0.078 7.93 22.63 9.38
5/23/2021 4:15:00 PM 23.68 74.624 0.078 7.98 21.76 9.45
5/23/2021 4:30:00 PM 23.73 74.714 0.078 8.03 23.05 9.43
5/23/2021 4:45:00 PM 23.83 74.894 0.078 8.11 21.08 9.48
5/23/2021 5:00:00 PM 23.91 75.038 0.078 8.24 21.74 9.55
5/23/2021 5:15:00 PM 23.93 75.074 0.078 8.29 20.18 9.58
5/23/2021 5:30:00 PM 23.96 75.128 0.078 8.29 21.58 9.55
5/23/2021 5:45:00 PM 23.95 75.11 0.078 8.36 21.17 9.56
5/23/2021 6:00:00 PM 23.93 75.074 0.077 8.38 21.21 9.59
5/23/2021 6:15:00 PM 23.85 74.93 0.077 8.29 20.75 9.5
5/23/2021 6:30:00 PM 23.78 74.804 0.077 8.31 21.14 9.44
5/23/2021 6:45:00 PM 23.69 74.642 0.077 8.2 21.48 9.33
5/23/2021 7:00:00 PM 23.55 74.39 0.077 8.1 22.45 9.22
5/23/2021 7:15:00 PM 23.42 74.156 0.077 7.97 21.47 9.13
5/23/2021 7:30:00 PM 23.28 73.904 0.077 7.88 21.42 9.03
5/23/2021 7:45:00 PM 23.17 73.706 0.077 7.72 21.8 8.95
5/23/2021 8:00:00 PM 23.09 73.562 0.077 7.66 22.1 8.86
5/23/2021 8:15:00 PM 22.99 73.382 0.077 7.58 21.68 8.8
5/23/2021 8:30:00 PM 22.88 73.184 0.077 7.68 20.42 8.78
5/23/2021 8:45:00 PM 22.79 73.022 0.078 7.61 21.72 8.67
5/23/2021 9:00:00 PM 22.7 72.86 0.078 7.54 23.71 8.52
5/23/2021 9:15:00 PM 22.59 72.662 0.078 7.45 26.24 8.45
5/23/2021 9:30:00 PM 22.47 72.446 0.078 7.39 23.54 8.26
5/23/2021 9:45:00 PM 22.34 72.212 0.078 7.22 23.36 8.15
5/23/2021 10:00:00 PM 22.24 72.032 0.078 7.29 22.52 7.98
5/23/2021 10:15:00 PM 22.17 71.906 0.078 7.24 22.68 7.83
5/23/2021 10:30:00 PM 22.06 71.708 0.078 7.19 23.25 7.66
5/23/2021 10:45:00 PM 21.94 71.492 0.078 7.14 22.62 7.56
5/23/2021 11:00:00 PM 21.82 71.276 0.078 7.1 25.82 7.42
5/23/2021 11:15:00 PM 21.7 71.06 0.078 6.97 22.77 7.31
5/23/2021 11:30:00 PM 21.58 70.844 0.078 6.92 22.22 7.19
5/23/2021 11:45:00 PM 21.49 70.682 0.078 7.04 23.26 7.05
5/24/2021 12:00:00 AM 21.37 70.466 0.078 7.01 23.57 6.97
5/24/2021 12:15:00 AM 21.25 70.25 0.078 7.01 23.94 6.85
5/24/2021 12:30:00 AM 21.15 70.07 0.078 6.97 23.05 6.77
5/24/2021 12:45:00 AM 21.03 69.854 0.078 6.85 24.19 6.71
5/24/2021 1:00:00 AM 20.93 69.674 0.078 6.81 23.22 6.58
5/24/2021 1:15:00 AM 20.83 69.494 0.078 6.94 22.93 6.52
5/24/2021 1:30:00 AM 20.75 69.35 0.078 6.82 24.8 6.46
5/24/2021 1:45:00 AM 20.66 69.188 0.078 6.8 23.16 6.39
5/24/2021 2:00:00 AM 20.59 69.062 0.078 6.89 23.85 6.27
5/24/2021 2:15:00 AM 20.51 68.918 0.078 6.88 23.06 6.2
5/24/2021 2:30:00 AM 20.44 68.792 0.078 6.85 23.18 6.11
5/24/2021 2:45:00 AM 20.36 68.648 0.078 6.86 23.09 6.05
5/24/2021 3:00:00 AM 20.27 68.486 0.078 6.84 22.67 6.02
5/24/2021 3:15:00 AM 20.18 68.324 0.078 6.69 23.94 5.85
5/24/2021 3:30:00 AM 20.11 68.198 0.078 6.83 26.2 5.79
5/24/2021 3:45:00 AM 20.04 68.07201 0.079 6.83 23.99 5.76
5/24/2021 4:00:00 AM 19.96 67.92799 0.078 6.82 24.1 5.72
5/24/2021 4:15:00 AM 19.89 67.802 0.079 6.83 23.7 5.68
5/24/2021 4:30:00 AM 19.84 67.712 0.079 6.63 23.84 5.6
5/24/2021 4:45:00 AM 19.78 67.604 0.079 6.67 24 5.48
5/24/2021 5:00:00 AM 19.71 67.478 0.079 6.8 23.99 5.45
5/24/2021 5:15:00 AM 19.66 67.388 0.079 6.77 24.01 5.44
5/24/2021 5:30:00 AM 19.57 67.226 0.079 6.74 23.68 5.39
5/24/2021 5:45:00 AM 19.51 67.118 0.079 6.75 23.42 5.34
5/24/2021 6:00:00 AM 19.45 67.01 0.079 6.76 23.99 5.34
5/24/2021 6:15:00 AM 19.41 66.938 0.079 6.77 24.47 5.3
5/24/2021 6:30:00 AM 19.34 66.812 0.079 6.62 23.1 5.27
5/24/2021 6:45:00 AM 19.29 66.722 0.079 6.72 23.36 5.19
5/24/2021 7:00:00 AM 19.23 66.614 0.079 6.75 23.75 5.12
5/24/2021 7:15:00 AM 19.17 66.506 0.079 6.76 24.53 5.21
5/24/2021 7:30:00 AM 19.1 66.38 0.079 6.75 24.32 5.17
5/24/2021 7:45:00 AM 19.05 66.29 0.079 6.75 23.11 5.15
5/24/2021 8:00:00 AM 18.99 66.182 0.079 6.75 24.04 5.17
5/24/2021 8:15:00 AM 18.93 66.074 0.079 6.73 25.4 5.23
5/24/2021 8:30:00 AM 18.87 65.966 0.079 6.76 27.87 5.27
5/24/2021 8:45:00 AM 18.83 65.894 0.079 6.64 22.9 5.26
5/24/2021 9:00:00 AM 18.8 65.84 0.079 6.76 23.93 5.37
5/24/2021 9:15:00 AM 18.79 65.82201 0.079 6.77 23.81 5.4
5/24/2021 9:30:00 AM 18.79 65.82201 0.079 6.77 24.08 5.44
5/24/2021 9:45:00 AM 18.8 65.84 0.079 6.77 24.01 5.63
5/24/2021 10:00:00 AM 18.79 65.82201 0.079 6.77 23.54 5.8
5/24/2021 10:15:00 AM 18.8 65.84 0.079 6.65 23.48 6.08
5/24/2021 10:30:00 AM 18.87 65.966 0.079 6.84 24.53 6.4
5/24/2021 10:45:00 AM 18.98 66.164 0.079 6.89 23.04 6.8
5/24/2021 11:00:00 AM 19.11 66.398 0.079 6.94 25.55 7.19
5/24/2021 11:15:00 AM 19.23 66.614 0.079 7 24.65 7.5
5/24/2021 11:30:00 AM 19.36 66.848 0.079 6.98 25.8 7.86
5/24/2021 11:45:00 AM 19.52 67.136 0.079 7.13 23.94 8.15
5/24/2021 12:00:00 PM 19.68 67.424 0.079 7.18 24.1 8.37
5/24/2021 12:15:00 PM 19.85 67.73 0.079 7.09 24.46 8.48
5/24/2021 12:30:00 PM 20.05 68.09 0.079 7.15 23.54 8.77
5/24/2021 12:45:00 PM 20.23 68.414 0.079 7.32 25.09 8.82
5/24/2021 1:00:00 PM 20.45 68.81 0.079 7.37 23.06 8.98
5/24/2021 1:15:00 PM 20.69 69.242 0.079 7.41 23.13 8.93
5/24/2021 1:30:00 PM 20.94 69.692 0.079 7.43 24.22 9.19
5/24/2021 1:45:00 PM 21.16 70.088 0.079 7.36 24.25 9.22
5/24/2021 2:00:00 PM 21.43 70.574 0.078 7.42 22.93 9.35
5/24/2021 2:15:00 PM 21.61 70.898 0.078 7.62 23.44 9.4
5/24/2021 2:30:00 PM 21.86 71.348 0.078 7.7 23.04 9.57
5/24/2021 2:45:00 PM 22.01 71.618 0.078 7.81 22.6 9.69
5/24/2021 3:00:00 PM 22.19 71.942 0.078 7.82 23.03 9.8
5/24/2021 3:15:00 PM 22.38 72.284 0.078 8.03 22.66 9.91
5/24/2021 3:30:00 PM 22.59 72.662 0.078 8.09 22.6 10.04
5/24/2021 3:45:00 PM 22.74 72.932 0.078 8.1 23.65 10.03
5/24/2021 4:00:00 PM 22.83 73.094 0.078 8.16 23.14 10.01
5/24/2021 4:15:00 PM 23 73.4 0.078 8.2 22.27 10.11
5/24/2021 4:30:00 PM 23.08 73.544 0.078 8.29 22.81 10.1
5/24/2021 4:45:00 PM 23.11 73.598 0.078 8.23 22.47 10
5/24/2021 5:00:00 PM 23.14 73.652 0.077 8.39 23.69 10.21
5/24/2021 5:15:00 PM 23.13 73.634 0.077 8.42 21.46 10.24
5/24/2021 5:30:00 PM 23.06 73.508 0.077 8.34 53.66 10.18
5/24/2021 5:45:00 PM 23.03 73.454 0.077 8.54 22.67 10.25
5/24/2021 6:00:00 PM 22.98 73.364 0.077 8.57 22.48 10.3
5/24/2021 6:15:00 PM 22.89 73.202 0.077 8.49 22.93 10.24
5/24/2021 6:30:00 PM 22.79 73.022 0.077 8.55 22.86 10.22
5/24/2021 6:45:00 PM 22.67 72.806 0.077 8.43 23 10.1
5/24/2021 7:00:00 PM 22.54 72.57201 0.077 8.36 22.56 10.04
5/24/2021 7:15:00 PM 22.4 72.32 0.077 8.23 22.47 9.91
5/24/2021 7:30:00 PM 22.26 72.068 0.077 8.06 22.58 9.79
5/24/2021 7:45:00 PM 22.11 71.798 0.077 7.96 22.63 9.58
5/24/2021 8:00:00 PM 21.96 71.528 0.077 7.79 22.21 9.48
5/24/2021 8:15:00 PM 21.82 71.276 0.077 7.64 22.67 9.3
5/24/2021 8:30:00 PM 21.68 71.024 0.077 7.54 22.37 9.11
5/24/2021 8:45:00 PM 21.56 70.808 0.077 7.45 22.64 8.93
5/24/2021 9:00:00 PM 21.44 70.592 0.077 7.37 22.78 8.78
5/24/2021 9:15:00 PM 21.31 70.358 0.077 7.32 23.31 8.57
5/24/2021 9:30:00 PM 21.21 70.17799 0.077 7.24 22.53 8.45
5/24/2021 9:45:00 PM 21.1 69.98 0.077 7.19 22.87 8.27
5/24/2021 10:00:00 PM 21 69.8 0.077 7.17 23.51 8.14
5/24/2021 10:15:00 PM 20.91 69.638 0.077 6.98 23.04 7.96
5/24/2021 10:30:00 PM 20.82 69.476 0.077 7.1 22.68 7.84
5/24/2021 10:45:00 PM 20.71 69.278 0.078 7.07 22.74 7.61
5/24/2021 11:00:00 PM 20.63 69.134 0.078 7.06 22.96 7.6
5/24/2021 11:15:00 PM 20.56 69.008 0.078 7.01 23.23 7.46
5/24/2021 11:30:00 PM 20.47 68.846 0.078 6.89 23.34 7.17
5/24/2021 11:45:00 PM 20.39 68.702 0.078 6.85 23.14 7.22
5/25/2021 12:00:00 AM 20.31 68.558 0.078 6.97 23.31 7.18
5/25/2021 12:15:00 AM 20.23 68.414 0.078 6.9 24.48 7.07
5/25/2021 12:30:00 AM 20.15 68.27 0.078 6.96 23.33 6.99
5/25/2021 12:45:00 AM 20.06 68.108 0.078 6.82 23.75 6.89
5/25/2021 1:00:00 AM 19.98 67.964 0.078 6.79 23.82 6.81
5/25/2021 1:15:00 AM 19.89 67.802 0.078 6.91 24.44 6.74
5/25/2021 1:30:00 AM 19.8 67.64 0.078 6.89 22.9 6.67
5/25/2021 1:45:00 AM 19.71 67.478 0.078 6.9 23.32 6.63
5/25/2021 2:00:00 AM 19.62 67.316 0.078 6.88 23.33 6.57
5/25/2021 2:15:00 AM 19.52 67.136 0.078 6.84 23.8 6.51
5/25/2021 2:30:00 AM 19.43 66.974 0.078 6.85 23.2 6.49
5/25/2021 2:45:00 AM 19.33 66.794 0.078 6.86 23.49 6.42
5/25/2021 3:00:00 AM 19.23 66.614 0.078 6.84 25.93 6.38
5/25/2021 3:15:00 AM 19.13 66.434 0.078 6.85 23.57 6.37
5/25/2021 3:30:00 AM 19.05 66.29 0.078 6.84 23.92 6.34
5/25/2021 3:45:00 AM 18.94 66.092 0.078 6.84 26.38 6.35
5/25/2021 4:00:00 AM 18.86 65.948 0.078 6.83 24.03 6.31
5/25/2021 4:15:00 AM 18.78 65.804 0.079 6.83 23.59 6.31
5/25/2021 4:30:00 AM 18.7 65.66 0.079 6.77 23.91 6.31
5/25/2021 4:45:00 AM 18.64 65.552 0.079 6.67 23.85 6.3
5/25/2021 5:00:00 AM 18.57 65.426 0.079 6.84 24.39 6.28
5/25/2021 5:15:00 AM 18.49 65.282 0.079 6.82 24.14 6.24
5/25/2021 5:30:00 AM 18.44 65.192 0.079 6.82 19.89 6.26
5/25/2021 5:45:00 AM 18.36 65.048 0.079 6.81 25.68 6.22
5/25/2021 6:00:00 AM 18.33 64.994 0.079 6.76 26.42 6.15
5/25/2021 6:15:00 AM 18.28 64.904 0.079 6.82 24.71 6.16
5/25/2021 6:30:00 AM 18.22 64.796 0.079 6.82 24.71 6.18
5/25/2021 6:45:00 AM 18.17 64.706 0.079 6.81 24.84 6.17
5/25/2021 7:00:00 AM 18.14 64.652 0.079 6.81 24.82 6.14
5/25/2021 7:15:00 AM 18.1 64.58 0.079 6.83 23.15 6.16
5/25/2021 7:30:00 AM 18.08 64.544 0.079 6.63 23.78 6.11
5/25/2021 7:45:00 AM 18.04 64.472 0.079 6.67 23.48 6.16
5/25/2021 8:00:00 AM 18.03 64.454 0.079 6.77 23.21 6.09
5/25/2021 8:15:00 AM 18.02 64.436 0.079 6.8 23.58 6.12
5/25/2021 8:30:00 AM 18.03 64.454 0.079 6.81 23.83 6.1
5/25/2021 8:45:00 AM 18.04 64.472 0.079 6.69 23.72 6.18
5/25/2021 9:00:00 AM 18.07 64.526 0.08 6.81 22.83 6.2
5/25/2021 9:15:00 AM 18.09 64.562 0.08 6.79 22.92 6.29
5/25/2021 9:30:00 AM 18.11 64.598 0.08 6.81 23.02 6.31
5/25/2021 9:45:00 AM 18.15 64.67 0.08 6.81 23.37 6.4
5/25/2021 10:00:00 AM 18.17 64.706 0.08 6.67 23.93 6.56
5/25/2021 10:15:00 AM 18.21 64.778 0.08 6.84 23.58 6.61
5/25/2021 10:30:00 AM 18.28 64.904 0.08 6.86 22.38 6.82
5/25/2021 10:45:00 AM 18.37 65.066 0.08 6.9 22.17 7.01
5/25/2021 11:00:00 AM 18.46 65.228 0.08 6.91 22.51 7.21
5/25/2021 11:15:00 AM 18.57 65.426 0.08 6.92 22.87 7.56
5/25/2021 11:30:00 AM 18.69 65.642 0.08 6.99 23.92 7.75
5/25/2021 11:45:00 AM 18.74 65.732 0.08 7 24.96 7.81
5/25/2021 12:00:00 PM 18.85 65.93 0.08 7.06 23.89 8.1
5/25/2021 12:15:00 PM 18.96 66.128 0.08 7.07 25.54 8.16
5/25/2021 12:30:00 PM 19.06 66.308 0.08 7.12 30.13 8.29
5/25/2021 12:45:00 PM 19.19 66.542 0.08 7.09 30.76 8.44
5/25/2021 1:00:00 PM 19.34 66.812 0.079 6.99 26.07 8.58
5/25/2021 1:15:00 PM 19.48 67.064 0.079 7.19 25.19 8.82
5/25/2021 1:30:00 PM 19.65 67.37 0.079 7.2 22.66 9
5/25/2021 1:45:00 PM 19.81 67.658 0.079 7.34 23.42 9.15
5/25/2021 2:00:00 PM 19.98 67.964 0.079 7.39 23.11 9.32
5/25/2021 2:15:00 PM 20.15 68.27 0.079 7.45 23.37 9.55
5/25/2021 2:30:00 PM 20.34 68.612 0.079 7.54 23.44 9.76
5/25/2021 2:45:00 PM 20.52 68.936 0.079 7.63 24.46 9.81
5/25/2021 3:00:00 PM 20.7 69.26 0.079 7.67 22.34 9.88
5/25/2021 3:15:00 PM 20.92 69.656 0.079 7.75 26.31 9.91
5/25/2021 3:30:00 PM 21.08 69.944 0.079 7.56 28.68 9.96
5/25/2021 3:45:00 PM 21.25 70.25 0.079 7.76 27.74 10.17
5/25/2021 4:00:00 PM 21.39 70.502 0.079 7.94 27.99 10.01
5/25/2021 4:15:00 PM 21.56 70.808 0.079 7.89 22.56 10.28
5/25/2021 4:30:00 PM 21.68 71.024 0.079 8.02 23.04 9.91
5/25/2021 4:45:00 PM 21.96 71.528 0.079 8.25 22.36 10.28
5/25/2021 5:00:00 PM 22.14 71.852 0.079 8.19 22.26 10.33
5/25/2021 5:15:00 PM 22.26 72.068 0.08 8.11 22.61 10.03
5/25/2021 5:30:00 PM 22.45 72.41 0.079 8.23 20.93 10.35
5/25/2021 5:45:00 PM 22.5 72.5 0.08 8.13 20.66 10.15
5/25/2021 6:00:00 PM 22.58 72.644 0.08 8.08 20.69 10.25
5/25/2021 6:15:00 PM 22.66 72.788 0.079 8.2 19.91 10.25
5/25/2021 6:30:00 PM 22.82 73.076 0.079 8.33 26.42 10.45
5/25/2021 6:45:00 PM 22.89 73.202 0.079 8.5 21.04 10.54
5/25/2021 7:00:00 PM 22.92 73.256 0.079 8.41 22.45 10.67
5/25/2021 7:15:00 PM 22.95 73.31 0.079 8.41 30.82 10.6
5/25/2021 7:30:00 PM 22.96 73.328 0.079 8.61 22.03 10.75
5/25/2021 7:45:00 PM 23.05 73.49 0.079 8.66 22.4 10.82
5/25/2021 8:00:00 PM 23.03 73.454 0.079 8.6 25.21 10.63
5/25/2021 8:15:00 PM 23.08 73.544 0.079 8.64 25.12 10.8
5/25/2021 8:30:00 PM 22.99 73.382 0.079 8.67 22.1 10.57
5/25/2021 8:45:00 PM 22.92 73.256 0.079 8.6 22.34 10.53
5/25/2021 9:00:00 PM 22.89 73.202 0.079 8.65 22.3 10.59
5/25/2021 9:15:00 PM 22.82 73.076 0.08 8.47 22.98 10.33
5/25/2021 9:30:00 PM 22.74 72.932 0.079 8.56 22.78 10.39
5/25/2021 9:45:00 PM 22.64 72.752 0.079 8.5 23.28 10.32
5/25/2021 10:00:00 PM 22.55 72.59 0.079 8.41 22.42 10.24
5/25/2021 10:15:00 PM 22.44 72.392 0.079 8.3 25.16 10.03
5/25/2021 10:30:00 PM 22.33 72.194 0.079 8.07 25.55 9.9
5/25/2021 10:45:00 PM 22.19 71.942 0.08 7.97 23.68 9.72
5/25/2021 11:00:00 PM 22.05 71.69 0.08 7.72 23.75 9.5
5/25/2021 11:15:00 PM 21.91 71.438 0.08 7.62 23.35 9.23
5/25/2021 11:30:00 PM 21.78 71.204 0.08 7.53 24.31 8.99
5/25/2021 11:45:00 PM 21.66 70.988 0.08 7.39 23.97 8.72
5/26/2021 12:00:00 AM 21.54 70.772 0.08 7.3 23.19 8.45
5/26/2021 12:15:00 AM 21.43 70.574 0.08 7.2 24.72 8.14
5/26/2021 12:30:00 AM 21.34 70.412 0.08 7.18 23.29 7.95
5/26/2021 12:45:00 AM 21.23 70.214 0.08 7.09 24.19 7.73
5/26/2021 1:00:00 AM 21.15 70.07 0.08 7.07 24.16 7.55
5/26/2021 1:15:00 AM 21.08 69.944 0.081 6.92 23.87 7.3
5/26/2021 1:30:00 AM 21 69.8 0.081 6.88 23.86 7.18
5/26/2021 1:45:00 AM 20.92 69.656 0.081 6.96 23.32 7.03
5/26/2021 2:00:00 AM 20.85 69.53 0.081 6.96 24.06 6.98
5/26/2021 2:15:00 AM 20.79 69.422 0.081 6.92 23.71 6.82
5/26/2021 2:30:00 AM 20.72 69.296 0.081 6.77 22.91 6.7
5/26/2021 2:45:00 AM 20.66 69.188 0.081 6.9 22.62 6.57
5/26/2021 3:00:00 AM 20.58 69.044 0.081 6.88 24.02 6.4
5/26/2021 3:15:00 AM 20.5 68.9 0.081 6.86 23.23 6.29
5/26/2021 3:30:00 AM 20.43 68.774 0.081 6.84 23.35 6.19
5/26/2021 3:45:00 AM 20.34 68.612 0.081 6.68 23.25 6.11
5/26/2021 4:00:00 AM 20.27 68.486 0.081 6.84 23.89 6.05
5/26/2021 4:15:00 AM 20.19 68.342 0.081 6.67 23.67 5.96
5/26/2021 4:30:00 AM 20.12 68.216 0.081 6.81 23.57 5.88
5/26/2021 4:45:00 AM 20.05 68.09 0.081 6.68 23.98 5.81
5/26/2021 5:00:00 AM 19.98 67.964 0.081 6.72 23.61 5.78
5/26/2021 5:15:00 AM 19.92 67.856 0.081 6.78 23.9 5.72
5/26/2021 5:30:00 AM 19.85 67.73 0.081 6.79 24.09 5.66
5/26/2021 5:45:00 AM 19.79 67.622 0.081 6.77 23.87 5.58
5/26/2021 6:00:00 AM 19.73 67.514 0.081 6.78 22.98 5.57
5/26/2021 6:15:00 AM 19.67 67.406 0.081 6.77 22.52 5.48
5/26/2021 6:30:00 AM 19.62 67.316 0.081 6.76 22.7 5.51
5/26/2021 6:45:00 AM 19.57 67.226 0.081 6.72 22.98 5.35
5/26/2021 7:00:00 AM 19.52 67.136 0.081 6.75 23.66 5.4
5/26/2021 7:15:00 AM 19.48 67.064 0.081 6.71 22.78 5.34
5/26/2021 7:30:00 AM 19.44 66.992 0.081 6.6 23.2 5.38
5/26/2021 7:45:00 AM 19.39 66.902 0.081 6.76 23 5.35
5/26/2021 8:00:00 AM 19.33 66.794 0.081 6.57 22.27 5.32
5/26/2021 8:15:00 AM 19.3 66.74 0.081 6.75 22.35 5.35
5/26/2021 8:30:00 AM 19.26 66.668 0.081 6.69 22.99 5.25
5/26/2021 8:45:00 AM 19.23 66.614 0.081 6.56 23.28 5.31
5/26/2021 9:00:00 AM 19.21 66.578 0.082 6.63 22.1 5.31
5/26/2021 9:15:00 AM 19.18 66.524 0.082 6.72 21.35 5.34
5/26/2021 9:30:00 AM 19.17 66.506 0.082 6.71 21.82 5.48
5/26/2021 9:45:00 AM 19.17 66.506 0.082 6.76 23.09 5.56
5/26/2021 10:00:00 AM 19.2 66.56 0.082 6.58 21.34 5.73
5/26/2021 10:15:00 AM 19.25 66.65 0.081 6.77 21.36 5.92
5/26/2021 10:30:00 AM 19.28 66.704 0.081 6.67 22.47 5.98
5/26/2021 10:45:00 AM 19.34 66.812 0.081 6.81 22.26 6.08
5/26/2021 11:00:00 AM 19.38 66.884 0.082 6.84 23.07 6.23
5/26/2021 11:15:00 AM 19.42 66.956 0.082 6.82 24.03 6.35
5/26/2021 11:30:00 AM 19.49 67.082 0.082 6.73 23.92 6.5
5/26/2021 11:45:00 AM 19.57 67.226 0.082 6.87 24.69 6.62
5/26/2021 12:00:00 PM 19.66 67.388 0.082 6.91 23.73 6.83
5/26/2021 12:15:00 PM 19.77 67.586 0.082 6.93 24.23 7.04
5/26/2021 12:30:00 PM 19.85 67.73 0.082 6.79 23.76 7.12
5/26/2021 12:45:00 PM 19.95 67.91 0.082 6.84 24.23 7.28
5/26/2021 1:00:00 PM 19.99 67.982 0.082 6.84 25.09 6.73
5/26/2021 1:15:00 PM 20.14 68.252 0.082 6.77 22.83 6.67
5/26/2021 1:30:00 PM 20.29 68.522 0.082 6.79 23.45 6.73
5/26/2021 1:45:00 PM 20.7 69.26 0.082 6.81 22.89 7.28
5/26/2021 2:00:00 PM 20.91 69.638 0.082 6.82 22.74 7.25
5/26/2021 2:15:00 PM 20.98 69.764 0.082 6.9 22.05 7.1
5/26/2021 2:30:00 PM 21.05 69.89 0.082 6.96 22.5 7.07
5/26/2021 2:45:00 PM 21.39 70.502 0.082 7.02 23.65 7.57
5/26/2021 3:00:00 PM 21.47 70.646 0.082 7 22.77 7.4
5/26/2021 3:15:00 PM 21.52 70.736 0.082 7.03 24.28 7.51
5/26/2021 3:30:00 PM 22.02 71.636 0.082 6.96 26.3 8.39
5/26/2021 3:45:00 PM 21.58 70.844 0.082 7.06 26.23 8.05
5/26/2021 4:00:00 PM 22.21 71.978 0.082 7.08 24.72 8.25
5/26/2021 4:15:00 PM 21.97 71.546 0.082 7.07 23.01 7.68
5/26/2021 4:30:00 PM 22.01 71.618 0.082 6.91 23.74 7.7
5/26/2021 4:45:00 PM 21.82 71.276 0.082 7.07 27.57 7.7
5/26/2021 5:00:00 PM 23.07 73.526 0.081 7.14 24.12 8.76
5/26/2021 5:15:00 PM 23.24 73.832 0.081 7.23 24.56 8.56
5/26/2021 5:30:00 PM 23.12 73.616 0.081 7.22 23.64 8.47
5/26/2021 5:45:00 PM 23.14 73.652 0.081 7.15 22.4 8.29
5/26/2021 6:00:00 PM 23.23 73.814 0.081 7.32 23.79 8.49
5/26/2021 6:15:00 PM 23.34 74.012 0.081 7.35 22.95 8.6
5/26/2021 6:30:00 PM 23.43 74.174 0.081 7.37 22.89 8.74
5/26/2021 6:45:00 PM 23.45 74.21 0.081 7.34 23.73 8.73
5/26/2021 7:00:00 PM 23.46 74.228 0.081 7.27 26.78 8.7
5/26/2021 7:15:00 PM 23.56 74.408 0.08 7.47 24.22 8.81
5/26/2021 7:30:00 PM 23.57 74.426 0.08 7.37 24.81 8.69
5/26/2021 7:45:00 PM 23.62 74.516 0.081 7.63 24.19 9.17
5/26/2021 8:00:00 PM 23.66 74.588 0.08 7.72 26.76 9.29
5/26/2021 8:15:00 PM 23.64 74.552 0.081 7.68 23.77 9.22
5/26/2021 8:30:00 PM 23.63 74.534 0.08 7.75 24.08 9.1
5/26/2021 8:45:00 PM 23.62 74.516 0.08 7.72 24.67 9.08
5/26/2021 9:00:00 PM 23.58 74.444 0.08 7.66 27.52 8.93
5/26/2021 9:15:00 PM 23.5 74.3 0.08 7.55 20.94 8.81
5/26/2021 9:30:00 PM 23.39 74.102 0.079 7.54 18.25 8.61
5/26/2021 9:45:00 PM 23.28 73.904 0.079 7.36 19.37 8.49
5/26/2021 10:00:00 PM 23.18 73.724 0.079 7.28 19.9 8.33
5/26/2021 10:15:00 PM 23.1 73.58 0.079 7.24 20.04 8.19
5/26/2021 10:30:00 PM 23 73.4 0.079 7.25 20.85 8.01
5/26/2021 10:45:00 PM 22.91 73.238 0.079 7.09 23.95 7.83
5/26/2021 11:00:00 PM 22.82 73.076 0.079 7.16 24.26 7.66
5/26/2021 11:15:00 PM 22.73 72.914 0.079 7.01 24.43 7.45
5/26/2021 11:30:00 PM 22.64 72.752 0.079 7.07 25.04 7.32
5/26/2021 11:45:00 PM 22.55 72.59 0.079 6.93 23.85 7.12
5/27/2021 12:00:00 AM 22.47 72.446 0.08 6.93 24.15 6.96
5/27/2021 12:15:00 AM 22.39 72.302 0.08 6.96 25.46 6.74
5/27/2021 12:30:00 AM 22.31 72.158 0.08 6.95 25.44 6.56
5/27/2021 12:45:00 AM 22.24 72.032 0.08 6.93 25.8 6.41
5/27/2021 1:00:00 AM 22.18 71.924 0.08 6.81 24.95 6.22
5/27/2021 1:15:00 AM 22.13 71.834 0.08 6.87 25.15 6.14
5/27/2021 1:30:00 AM 22.05 71.69 0.08 6.82 24.58 5.96
5/27/2021 1:45:00 AM 21.99 71.582 0.08 6.78 25.1 5.86
5/27/2021 2:00:00 AM 21.92 71.456 0.081 6.84 25.55 5.78
5/27/2021 2:15:00 AM 21.83 71.294 0.081 6.81 25.9 5.69
5/27/2021 2:30:00 AM 21.73 71.114 0.081 6.8 26.54 5.59
5/27/2021 2:45:00 AM 21.64 70.952 0.081 6.78 26.28 5.51
5/27/2021 3:00:00 AM 21.53 70.754 0.081 6.77 25.95 5.4
5/27/2021 3:15:00 AM 21.42 70.556 0.082 6.64 24.97 5.32
5/27/2021 3:30:00 AM 21.32 70.376 0.082 6.77 25.65 5.29
5/27/2021 3:45:00 AM 21.18 70.124 0.083 6.64 26.11 5.24
5/27/2021 4:00:00 AM 21.05 69.89 0.083 6.76 25.76 5.21
5/27/2021 4:15:00 AM 20.94 69.692 0.083 6.62 27.71 5.14
5/27/2021 4:30:00 AM 20.83 69.494 0.084 6.74 25.73 5.11
5/27/2021 4:45:00 AM 20.71 69.278 0.084 6.74 25.84 5.08
5/27/2021 5:00:00 AM 20.61 69.098 0.084 6.74 24.94 5.09
5/27/2021 5:15:00 AM 20.5 68.9 0.085 6.76 27.04 5.1
5/27/2021 5:30:00 AM 20.39 68.702 0.085 6.74 25.98 5.14
5/27/2021 5:45:00 AM 20.32 68.576 0.085 6.61 25.45 5.16
5/27/2021 6:00:00 AM 20.24 68.432 0.085 6.63 25.91 5.23
5/27/2021 6:15:00 AM 20.2 68.36 0.085 6.61 27.39 5.23
5/27/2021 6:30:00 AM 20.17 68.306 0.085 6.75 24.86 5.28
5/27/2021 6:45:00 AM 20.12 68.216 0.085 6.76 26.4 5.26
5/27/2021 7:00:00 AM 20.09 68.162 0.085 6.77 24.68 5.27
5/27/2021 7:15:00 AM 20.05 68.09 0.085 6.75 24.94 5.3
5/27/2021 7:30:00 AM 20.01 68.018 0.084 6.78 25.78 5.37
5/27/2021 7:45:00 AM 19.98 67.964 0.084 6.61 25.43 5.44
5/27/2021 8:00:00 AM 19.94 67.892 0.084 6.77 24.7 5.42
5/27/2021 8:15:00 AM 19.9 67.82 0.084 6.74 25.06 5.5
5/27/2021 8:30:00 AM 19.88 67.784 0.084 6.71 25.77 5.63
5/27/2021 8:45:00 AM 19.88 67.784 0.084 6.78 26.16 5.72
5/27/2021 9:00:00 AM 19.87 67.766 0.083 6.81 26.51 5.89
5/27/2021 9:15:00 AM 19.89 67.802 0.083 6.83 24.99 6.02
5/27/2021 9:30:00 AM 19.92 67.856 0.083 6.84 25.28 6.16
5/27/2021 9:45:00 AM 19.98 67.964 0.083 6.85 24.68 6.39
5/27/2021 10:00:00 AM 20.09 68.162 0.083 6.87 24.6 6.58
5/27/2021 10:15:00 AM 20.21 68.378 0.083 6.86 26 6.86
5/27/2021 10:30:00 AM 20.31 68.558 0.083 6.9 24.91 7.12
5/27/2021 10:45:00 AM 20.46 68.828 0.082 6.98 24.9 7.37
5/27/2021 11:00:00 AM 20.6 69.08 0.082 6.99 24.9 7.64
5/27/2021 11:15:00 AM 20.75 69.35 0.082 7.08 24.39 7.87
5/27/2021 11:30:00 AM 20.91 69.638 0.082 7.17 25.21 8.13
5/27/2021 11:45:00 AM 21.06 69.908 0.082 7.22 25.48 8.25
5/27/2021 12:00:00 PM 21.24 70.232 0.082 7.12 25.21 8.48
5/27/2021 12:15:00 PM 21.36 70.448 0.082 7.22 24.88 8.6
5/27/2021 12:30:00 PM 21.46 70.628 0.081 7.39 24.12 8.76
5/27/2021 12:45:00 PM 21.57 70.826 0.081 7.27 24.28 8.8
5/27/2021 1:00:00 PM 21.67 71.006 0.081 7.46 29.07 8.96
5/27/2021 1:15:00 PM 21.82 71.276 0.081 7.54 25.18 9.14
5/27/2021 1:30:00 PM 21.96 71.528 0.081 7.46 23.47 9.19
5/27/2021 1:45:00 PM 22.1 71.78 0.081 7.54 25.77 9.29
5/27/2021 2:00:00 PM 22.24 72.032 0.081 7.62 23.91 9.42
5/27/2021 2:15:00 PM 22.38 72.284 0.081 7.75 25.85 9.44
5/27/2021 2:30:00 PM 22.55 72.59 0.081 7.91 24.17 9.54
5/27/2021 2:45:00 PM 22.69 72.842 0.081 7.81 24.65 9.61
5/27/2021 3:00:00 PM 22.83 73.094 0.081 8.02 27.49 9.75
5/27/2021 3:15:00 PM 22.99 73.382 0.081 8.14 24.84 9.87
5/27/2021 3:30:00 PM 23.13 73.634 0.081 8.39 23.85 10.02
5/27/2021 3:45:00 PM 23.29 73.922 0.081 8.53 23.41 10.16
5/27/2021 4:00:00 PM 23.39 74.102 0.081 8.49 25.01 10.23
5/27/2021 4:15:00 PM 23.53 74.354 0.081 8.54 23.98 10.25
5/27/2021 4:30:00 PM 23.67 74.606 0.081 8.68 24.58 10.33
5/27/2021 4:45:00 PM 23.8 74.84 0.081 8.74 23.37 10.3
5/27/2021 5:00:00 PM 23.96 75.128 0.081 8.8 24.62 10.33
5/27/2021 5:15:00 PM 24.06 75.308 0.081 8.84 23.86 10.37
5/27/2021 5:30:00 PM 24.12 75.416 0.081 8.76 23.76 10.45
5/27/2021 5:45:00 PM 24.22 75.596 0.081 8.92 23.7 10.61
5/27/2021 6:00:00 PM 24.29 75.722 0.081 8.89 24.38 10.64
5/27/2021 6:15:00 PM 24.3 75.74 0.081 8.96 24.71 10.75
5/27/2021 6:30:00 PM 24.3 75.74 0.081 8.96 24.16 10.69
5/27/2021 6:45:00 PM 24.26 75.668 0.081 8.96 24.09 10.67
5/27/2021 7:00:00 PM 24.18 75.524 0.081 8.9 24.96 10.56
5/27/2021 7:15:00 PM 24.08 75.344 0.081 8.84 24.26 10.38
5/27/2021 7:30:00 PM 23.95 75.11 0.081 8.82 24.07 10.28
5/27/2021 7:45:00 PM 23.85 74.93 0.081 8.72 25.51 10.18
5/27/2021 8:00:00 PM 23.75 74.75 0.081 8.68 23.82 10.12
5/27/2021 8:15:00 PM 23.63 74.534 0.081 8.61 23.12 9.92
5/27/2021 8:30:00 PM 23.5 74.3 0.081 8.48 25.19 9.82
5/27/2021 8:45:00 PM 23.32 73.976 0.082 8.4 24.46 9.67
5/27/2021 9:00:00 PM 23.14 73.652 0.082 8.24 24.01 9.41
5/27/2021 9:15:00 PM 22.98 73.364 0.083 7.95 35.07 9.23
5/27/2021 9:30:00 PM 22.82 73.076 0.083 7.87 25.39 9.04
5/27/2021 9:45:00 PM 22.67 72.806 0.083 7.7 27.63 8.81
5/27/2021 10:00:00 PM 22.53 72.554 0.083 7.6 25.58 8.61
5/27/2021 10:15:00 PM 22.39 72.302 0.083 7.38 25.27 8.38
5/27/2021 10:30:00 PM 22.23 72.014 0.083 7.34 25.78 8.1
5/27/2021 10:45:00 PM 22.08 71.744 0.083 7.31 25.71 7.9
5/27/2021 11:00:00 PM 21.96 71.528 0.083 7.25 25 7.69
5/27/2021 11:15:00 PM 21.83 71.294 0.083 7.19 25.97 7.45
5/27/2021 11:30:00 PM 21.7 71.06 0.083 7.13 26.06 7.24
5/27/2021 11:45:00 PM 21.57 70.826 0.083 7.1 24.29 7.07
5/28/2021 12:00:00 AM 21.48 70.664 0.083 6.99 25.7 6.92
5/28/2021 12:15:00 AM 21.34 70.412 0.082 7.03 25.05 6.76
5/28/2021 12:30:00 AM 21.24 70.232 0.082 6.96 34.62 6.66
5/28/2021 12:45:00 AM 21.14 70.052 0.083 6.97 27.93 6.57
5/28/2021 1:00:00 AM 21.04 69.872 0.082 6.97 25.49 6.5
5/28/2021 1:15:00 AM 20.92 69.656 0.082 6.8 28.88 6.26
5/28/2021 1:30:00 AM 20.81 69.458 0.082 6.92 37.14 6.24
5/28/2021 1:45:00 AM 20.72 69.296 0.082 6.88 25.81 6.23
5/28/2021 2:00:00 AM 20.63 69.134 0.082 6.89 26.34 6.1
5/28/2021 2:15:00 AM 20.51 68.918 0.082 6.9 25.87 6.08
5/28/2021 2:30:00 AM 20.42 68.756 0.082 6.88 25.31 6.01
5/28/2021 2:45:00 AM 20.33 68.594 0.082 6.88 24.76 5.91
5/28/2021 3:00:00 AM 20.26 68.468 0.082 6.87 24.81 5.91
5/28/2021 3:15:00 AM 20.17 68.306 0.082 6.73 25.34 5.83
5/28/2021 3:30:00 AM 20.1 68.18 0.082 6.71 25.49 5.79
5/28/2021 3:45:00 AM 20.01 68.018 0.082 6.84 25.15 5.7
5/28/2021 4:00:00 AM 19.96 67.92799 0.082 6.81 24.21 5.68
5/28/2021 4:15:00 AM 19.91 67.838 0.082 6.67 25.56 5.63
5/28/2021 4:30:00 AM 19.83 67.694 0.082 6.83 26.08 5.61
5/28/2021 4:45:00 AM 19.79 67.622 0.082 6.75 24.31 5.58
5/28/2021 5:00:00 AM 19.73 67.514 0.082 6.64 24.69 5.55
5/28/2021 5:15:00 AM 19.66 67.388 0.082 6.8 24.05 5.47
5/28/2021 5:30:00 AM 19.59 67.262 0.082 6.65 25.31 5.45
5/28/2021 5:45:00 AM 19.54 67.172 0.082 6.8 25.15 5.41
5/28/2021 6:00:00 AM 19.5 67.1 0.082 6.62 24.88 5.43
5/28/2021 6:15:00 AM 19.43 66.974 0.082 6.77 24.43 5.4
5/28/2021 6:30:00 AM 19.38 66.884 0.082 6.76 24.75 5.4
5/28/2021 6:45:00 AM 19.32 66.776 0.082 6.75 24.48 5.38
5/28/2021 7:00:00 AM 19.27 66.686 0.082 6.78 23.5 5.37
5/28/2021 7:15:00 AM 19.23 66.614 0.082 6.78 24.89 5.41
5/28/2021 7:30:00 AM 19.19 66.542 0.082 6.6 25.69 5.43
5/28/2021 7:45:00 AM 19.14 66.452 0.082 6.77 24.9 5.45
5/28/2021 8:00:00 AM 19.12 66.416 0.082 6.61 24.5 5.46
5/28/2021 8:15:00 AM 19.1 66.38 0.082 6.78 26.74 5.41
5/28/2021 8:30:00 AM 19.06 66.308 0.083 6.78 24.13 5.53
5/28/2021 8:45:00 AM 19.02 66.236 0.083 6.79 24.85 5.61
5/28/2021 9:00:00 AM 18.97 66.146 0.083 6.67 23.9 5.74<